<?xml version="1.0" encoding="UTF-8" standalone="no" ?>
<gpx xmlns="http://www.topografix.com/GPX/1/1" xmlns:xsi="http://www.w3.org/2001/XMLSchema-instance" xsi:schemaLocation="http://www.topografix.com/GPX/1/1 http://www.topografix.com/GPX/1/1/gpx.xsd" version="1.1" creator="VisuGPX - https://www.visugpx.com">
  <metadata>
    <name>Course de la Résistance - court</name>
    <desc><![CDATA[Course de la Résistance - 8 mai 2018
Circuit Court
Mens Lavars Lalley]]></desc>
  </metadata>
  <wpt lat="44.81694" lon="5.75056">
    <ele>778</ele>
    <name><![CDATA[Course de la Résistance - court]]></name>
    <type><![CDATA[Generic]]></type>
  </wpt>
  <trk>
    <name><![CDATA[Course de la Résistance - court]]></name>
    <trkseg>
      <trkpt lat="44.81694" lon="5.75056">
        <ele>778</ele>
        <time>2017-11-22T15:46:10Z</time>
      </trkpt>
      <trkpt lat="44.81701" lon="5.75073">
        <ele>778</ele>
        <time>2017-11-22T15:46:20Z</time>
      </trkpt>
      <trkpt lat="44.81717" lon="5.75158">
        <ele>781</ele>
        <time>2017-11-22T15:46:28Z</time>
      </trkpt>
      <trkpt lat="44.81723" lon="5.75171">
        <ele>781</ele>
        <time>2017-11-22T15:46:43Z</time>
      </trkpt>
      <trkpt lat="44.81748" lon="5.75195">
        <ele>782</ele>
        <time>2017-11-22T15:46:46Z</time>
      </trkpt>
      <trkpt lat="44.81778" lon="5.75217">
        <ele>783</ele>
        <time>2017-11-22T15:47:02Z</time>
      </trkpt>
      <trkpt lat="44.81795" lon="5.75221">
        <ele>783</ele>
        <time>2017-11-22T15:47:16Z</time>
      </trkpt>
      <trkpt lat="44.81818" lon="5.75223">
        <ele>783</ele>
        <time>2017-11-22T15:47:26Z</time>
      </trkpt>
      <trkpt lat="44.8184" lon="5.75223">
        <ele>783</ele>
        <time>2017-11-22T15:47:29Z</time>
      </trkpt>
      <trkpt lat="44.81861" lon="5.75224">
        <ele>783</ele>
        <time>2017-11-22T15:47:39Z</time>
      </trkpt>
      <trkpt lat="44.81921" lon="5.75234">
        <ele>781</ele>
        <time>2017-11-22T15:47:50Z</time>
      </trkpt>
      <trkpt lat="44.81964" lon="5.75242">
        <ele>781</ele>
        <time>2017-11-22T15:48:00Z</time>
      </trkpt>
      <trkpt lat="44.81996" lon="5.7525">
        <ele>780</ele>
        <time>2017-11-22T15:48:12Z</time>
      </trkpt>
      <trkpt lat="44.8204" lon="5.75264">
        <ele>776</ele>
        <time>2017-11-22T15:48:29Z</time>
      </trkpt>
      <trkpt lat="44.82075" lon="5.75272">
        <ele>774</ele>
        <time>2017-11-22T15:48:32Z</time>
      </trkpt>
      <trkpt lat="44.82088" lon="5.75273">
        <ele>773</ele>
        <time>2017-11-22T15:48:47Z</time>
      </trkpt>
      <trkpt lat="44.82096" lon="5.75271">
        <ele>773</ele>
        <time>2017-11-22T15:49:01Z</time>
      </trkpt>
      <trkpt lat="44.82105" lon="5.7527">
        <ele>773</ele>
        <time>2017-11-22T15:49:08Z</time>
      </trkpt>
      <trkpt lat="44.82116" lon="5.75263">
        <ele>774</ele>
        <time>2017-11-22T15:49:15Z</time>
      </trkpt>
      <trkpt lat="44.82123" lon="5.75251">
        <ele>774</ele>
        <time>2017-11-22T15:49:18Z</time>
      </trkpt>
      <trkpt lat="44.82126" lon="5.75233">
        <ele>777</ele>
        <time>2017-11-22T15:49:29Z</time>
      </trkpt>
      <trkpt lat="44.82114" lon="5.75136">
        <ele>779</ele>
        <time>2017-11-22T15:49:46Z</time>
      </trkpt>
      <trkpt lat="44.82106" lon="5.7509">
        <ele>779</ele>
        <time>2017-11-22T15:49:54Z</time>
      </trkpt>
      <trkpt lat="44.82097" lon="5.75028">
        <ele>780</ele>
        <time>2017-11-22T15:50:02Z</time>
      </trkpt>
      <trkpt lat="44.82093" lon="5.75002">
        <ele>777</ele>
        <time>2017-11-22T15:50:04Z</time>
      </trkpt>
      <trkpt lat="44.82092" lon="5.74963">
        <ele>780</ele>
        <time>2017-11-22T15:50:12Z</time>
      </trkpt>
      <trkpt lat="44.82096" lon="5.74928">
        <ele>779</ele>
        <time>2017-11-22T15:50:18Z</time>
      </trkpt>
      <trkpt lat="44.82103" lon="5.74903">
        <ele>780</ele>
        <time>2017-11-22T15:50:30Z</time>
      </trkpt>
      <trkpt lat="44.82114" lon="5.7487">
        <ele>782</ele>
        <time>2017-11-22T15:50:35Z</time>
      </trkpt>
      <trkpt lat="44.82128" lon="5.74846">
        <ele>783</ele>
        <time>2017-11-22T15:50:43Z</time>
      </trkpt>
      <trkpt lat="44.82145" lon="5.74827">
        <ele>783</ele>
        <time>2017-11-22T15:51:03Z</time>
      </trkpt>
      <trkpt lat="44.8219" lon="5.74794">
        <ele>788</ele>
        <time>2017-11-22T15:51:08Z</time>
      </trkpt>
      <trkpt lat="44.82214" lon="5.74778">
        <ele>787</ele>
        <time>2017-11-22T15:51:14Z</time>
      </trkpt>
      <trkpt lat="44.8224" lon="5.74766">
        <ele>786</ele>
        <time>2017-11-22T15:51:31Z</time>
      </trkpt>
      <trkpt lat="44.82266" lon="5.74762">
        <ele>788</ele>
        <time>2017-11-22T15:51:51Z</time>
      </trkpt>
      <trkpt lat="44.82292" lon="5.74765">
        <ele>789</ele>
        <time>2017-11-22T15:52:08Z</time>
      </trkpt>
      <trkpt lat="44.82342" lon="5.74787">
        <ele>791</ele>
        <time>2017-11-22T15:52:18Z</time>
      </trkpt>
      <trkpt lat="44.82396" lon="5.74811">
        <ele>793</ele>
        <time>2017-11-22T15:52:25Z</time>
      </trkpt>
      <trkpt lat="44.82449" lon="5.74834">
        <ele>801</ele>
        <time>2017-11-22T15:52:37Z</time>
      </trkpt>
      <trkpt lat="44.82483" lon="5.74846">
        <ele>801</ele>
        <time>2017-11-22T15:52:53Z</time>
      </trkpt>
      <trkpt lat="44.82519" lon="5.74855">
        <ele>802</ele>
        <time>2017-11-22T15:53:02Z</time>
      </trkpt>
      <trkpt lat="44.82576" lon="5.74868">
        <ele>804</ele>
        <time>2017-11-22T15:53:22Z</time>
      </trkpt>
      <trkpt lat="44.82589" lon="5.74873">
        <ele>802</ele>
        <time>2017-11-22T15:53:29Z</time>
      </trkpt>
      <trkpt lat="44.826" lon="5.7488">
        <ele>803</ele>
        <time>2017-11-22T15:53:35Z</time>
      </trkpt>
      <trkpt lat="44.82611" lon="5.74889">
        <ele>803</ele>
        <time>2017-11-22T15:53:48Z</time>
      </trkpt>
      <trkpt lat="44.82624" lon="5.74905">
        <ele>803</ele>
        <time>2017-11-22T15:54:07Z</time>
      </trkpt>
      <trkpt lat="44.82653" lon="5.7495">
        <ele>810</ele>
        <time>2017-11-22T15:54:17Z</time>
      </trkpt>
      <trkpt lat="44.82665" lon="5.74962">
        <ele>811</ele>
        <time>2017-11-22T15:54:29Z</time>
      </trkpt>
      <trkpt lat="44.82683" lon="5.74976">
        <ele>809</ele>
        <time>2017-11-22T15:54:49Z</time>
      </trkpt>
      <trkpt lat="44.82709" lon="5.74993">
        <ele>809</ele>
        <time>2017-11-22T15:54:59Z</time>
      </trkpt>
      <trkpt lat="44.82734" lon="5.75013">
        <ele>813</ele>
        <time>2017-11-22T15:55:11Z</time>
      </trkpt>
      <trkpt lat="44.82745" lon="5.75026">
        <ele>814</ele>
        <time>2017-11-22T15:55:24Z</time>
      </trkpt>
      <trkpt lat="44.82754" lon="5.75042">
        <ele>811</ele>
        <time>2017-11-22T15:55:40Z</time>
      </trkpt>
      <trkpt lat="44.82767" lon="5.75079">
        <ele>813</ele>
        <time>2017-11-22T15:55:58Z</time>
      </trkpt>
      <trkpt lat="44.82771" lon="5.75118">
        <ele>817</ele>
        <time>2017-11-22T15:56:13Z</time>
      </trkpt>
      <trkpt lat="44.82772" lon="5.75139">
        <ele>819</ele>
        <time>2017-11-22T15:56:26Z</time>
      </trkpt>
      <trkpt lat="44.82777" lon="5.75168">
        <ele>825</ele>
        <time>2017-11-22T15:56:30Z</time>
      </trkpt>
      <trkpt lat="44.82785" lon="5.75184">
        <ele>825</ele>
        <time>2017-11-22T15:56:42Z</time>
      </trkpt>
      <trkpt lat="44.82796" lon="5.75198">
        <ele>825</ele>
        <time>2017-11-22T15:56:52Z</time>
      </trkpt>
      <trkpt lat="44.82808" lon="5.75209">
        <ele>825</ele>
        <time>2017-11-22T15:57:03Z</time>
      </trkpt>
      <trkpt lat="44.82822" lon="5.75216">
        <ele>825</ele>
        <time>2017-11-22T15:57:19Z</time>
      </trkpt>
      <trkpt lat="44.82852" lon="5.75225">
        <ele>823</ele>
        <time>2017-11-22T15:57:26Z</time>
      </trkpt>
      <trkpt lat="44.82874" lon="5.75232">
        <ele>823</ele>
        <time>2017-11-22T15:57:36Z</time>
      </trkpt>
      <trkpt lat="44.82897" lon="5.75236">
        <ele>825</ele>
        <time>2017-11-22T15:57:46Z</time>
      </trkpt>
      <trkpt lat="44.82912" lon="5.75236">
        <ele>826</ele>
        <time>2017-11-22T15:57:48Z</time>
      </trkpt>
      <trkpt lat="44.82927" lon="5.75231">
        <ele>829</ele>
        <time>2017-11-22T15:58:04Z</time>
      </trkpt>
      <trkpt lat="44.82941" lon="5.75223">
        <ele>830</ele>
        <time>2017-11-22T15:58:19Z</time>
      </trkpt>
      <trkpt lat="44.82954" lon="5.75211">
        <ele>830</ele>
        <time>2017-11-22T15:58:36Z</time>
      </trkpt>
      <trkpt lat="44.82965" lon="5.75196">
        <ele>830</ele>
        <time>2017-11-22T15:58:40Z</time>
      </trkpt>
      <trkpt lat="44.82976" lon="5.75179">
        <ele>830</ele>
        <time>2017-11-22T15:58:42Z</time>
      </trkpt>
      <trkpt lat="44.82997" lon="5.75146">
        <ele>826</ele>
        <time>2017-11-22T15:59:02Z</time>
      </trkpt>
      <trkpt lat="44.83009" lon="5.75132">
        <ele>830</ele>
        <time>2017-11-22T15:59:09Z</time>
      </trkpt>
      <trkpt lat="44.83023" lon="5.75121">
        <ele>830</ele>
        <time>2017-11-22T15:59:26Z</time>
      </trkpt>
      <trkpt lat="44.83038" lon="5.75113">
        <ele>830</ele>
        <time>2017-11-22T15:59:33Z</time>
      </trkpt>
      <trkpt lat="44.83054" lon="5.75108">
        <ele>831</ele>
        <time>2017-11-22T15:59:48Z</time>
      </trkpt>
      <trkpt lat="44.83069" lon="5.75106">
        <ele>831</ele>
        <time>2017-11-22T16:00:06Z</time>
      </trkpt>
      <trkpt lat="44.83085" lon="5.75107">
        <ele>833</ele>
        <time>2017-11-22T16:00:20Z</time>
      </trkpt>
      <trkpt lat="44.83115" lon="5.75118">
        <ele>835</ele>
        <time>2017-11-22T16:00:29Z</time>
      </trkpt>
      <trkpt lat="44.83141" lon="5.75137">
        <ele>837</ele>
        <time>2017-11-22T16:00:33Z</time>
      </trkpt>
      <trkpt lat="44.83164" lon="5.75161">
        <ele>841</ele>
        <time>2017-11-22T16:00:41Z</time>
      </trkpt>
      <trkpt lat="44.83188" lon="5.75184">
        <ele>847</ele>
        <time>2017-11-22T16:00:49Z</time>
      </trkpt>
      <trkpt lat="44.83201" lon="5.75192">
        <ele>847</ele>
        <time>2017-11-22T16:01:03Z</time>
      </trkpt>
      <trkpt lat="44.83215" lon="5.75196">
        <ele>848</ele>
        <time>2017-11-22T16:01:11Z</time>
      </trkpt>
      <trkpt lat="44.83228" lon="5.75194">
        <ele>847</ele>
        <time>2017-11-22T16:01:17Z</time>
      </trkpt>
      <trkpt lat="44.83241" lon="5.75189">
        <ele>847</ele>
        <time>2017-11-22T16:01:28Z</time>
      </trkpt>
      <trkpt lat="44.83255" lon="5.75177">
        <ele>847</ele>
        <time>2017-11-22T16:01:43Z</time>
      </trkpt>
      <trkpt lat="44.83267" lon="5.7516">
        <ele>846</ele>
        <time>2017-11-22T16:02:02Z</time>
      </trkpt>
      <trkpt lat="44.83297" lon="5.75112">
        <ele>849</ele>
        <time>2017-11-22T16:02:05Z</time>
      </trkpt>
      <trkpt lat="44.83303" lon="5.75097">
        <ele>850</ele>
        <time>2017-11-22T16:02:17Z</time>
      </trkpt>
      <trkpt lat="44.83306" lon="5.7508">
        <ele>850</ele>
        <time>2017-11-22T16:02:26Z</time>
      </trkpt>
      <trkpt lat="44.83304" lon="5.75044">
        <ele>849</ele>
        <time>2017-11-22T16:02:44Z</time>
      </trkpt>
      <trkpt lat="44.83298" lon="5.75006">
        <ele>850</ele>
        <time>2017-11-22T16:02:49Z</time>
      </trkpt>
      <trkpt lat="44.83293" lon="5.74967">
        <ele>851</ele>
        <time>2017-11-22T16:02:53Z</time>
      </trkpt>
      <trkpt lat="44.83288" lon="5.74919">
        <ele>851</ele>
        <time>2017-11-22T16:03:01Z</time>
      </trkpt>
      <trkpt lat="44.83291" lon="5.74878">
        <ele>853</ele>
        <time>2017-11-22T16:03:13Z</time>
      </trkpt>
      <trkpt lat="44.83295" lon="5.74858">
        <ele>853</ele>
        <time>2017-11-22T16:03:31Z</time>
      </trkpt>
      <trkpt lat="44.83305" lon="5.74822">
        <ele>854</ele>
        <time>2017-11-22T16:03:38Z</time>
      </trkpt>
      <trkpt lat="44.83321" lon="5.74788">
        <ele>855</ele>
        <time>2017-11-22T16:03:46Z</time>
      </trkpt>
      <trkpt lat="44.83336" lon="5.74755">
        <ele>860</ele>
        <time>2017-11-22T16:04:00Z</time>
      </trkpt>
      <trkpt lat="44.83347" lon="5.7472">
        <ele>863</ele>
        <time>2017-11-22T16:04:11Z</time>
      </trkpt>
      <trkpt lat="44.83352" lon="5.74694">
        <ele>864</ele>
        <time>2017-11-22T16:04:18Z</time>
      </trkpt>
      <trkpt lat="44.83358" lon="5.74663">
        <ele>865</ele>
        <time>2017-11-22T16:04:35Z</time>
      </trkpt>
      <trkpt lat="44.83359" lon="5.74641">
        <ele>865</ele>
        <time>2017-11-22T16:04:40Z</time>
      </trkpt>
      <trkpt lat="44.83359" lon="5.74589">
        <ele>865</ele>
        <time>2017-11-22T16:04:46Z</time>
      </trkpt>
      <trkpt lat="44.8336" lon="5.74559">
        <ele>865</ele>
        <time>2017-11-22T16:04:54Z</time>
      </trkpt>
      <trkpt lat="44.83363" lon="5.74533">
        <ele>866</ele>
        <time>2017-11-22T16:05:03Z</time>
      </trkpt>
      <trkpt lat="44.83378" lon="5.74488">
        <ele>866</ele>
        <time>2017-11-22T16:05:18Z</time>
      </trkpt>
      <trkpt lat="44.83389" lon="5.74464">
        <ele>867</ele>
        <time>2017-11-22T16:05:27Z</time>
      </trkpt>
      <trkpt lat="44.83409" lon="5.74436">
        <ele>868</ele>
        <time>2017-11-22T16:05:35Z</time>
      </trkpt>
      <trkpt lat="44.83424" lon="5.74413">
        <ele>872</ele>
        <time>2017-11-22T16:05:46Z</time>
      </trkpt>
      <trkpt lat="44.83434" lon="5.74396">
        <ele>874</ele>
        <time>2017-11-22T16:05:56Z</time>
      </trkpt>
      <trkpt lat="44.83446" lon="5.74359">
        <ele>875</ele>
        <time>2017-11-22T16:06:13Z</time>
      </trkpt>
      <trkpt lat="44.83451" lon="5.74326">
        <ele>876</ele>
        <time>2017-11-22T16:06:28Z</time>
      </trkpt>
      <trkpt lat="44.83451" lon="5.74268">
        <ele>877</ele>
        <time>2017-11-22T16:06:42Z</time>
      </trkpt>
      <trkpt lat="44.83454" lon="5.7422">
        <ele>879</ele>
        <time>2017-11-22T16:06:49Z</time>
      </trkpt>
      <trkpt lat="44.83459" lon="5.74198">
        <ele>879</ele>
        <time>2017-11-22T16:06:55Z</time>
      </trkpt>
      <trkpt lat="44.83469" lon="5.74166">
        <ele>881</ele>
        <time>2017-11-22T16:07:08Z</time>
      </trkpt>
      <trkpt lat="44.83493" lon="5.7411">
        <ele>882</ele>
        <time>2017-11-22T16:07:23Z</time>
      </trkpt>
      <trkpt lat="44.83513" lon="5.74063">
        <ele>885</ele>
        <time>2017-11-22T16:07:32Z</time>
      </trkpt>
      <trkpt lat="44.83523" lon="5.7404">
        <ele>885</ele>
        <time>2017-11-22T16:07:36Z</time>
      </trkpt>
      <trkpt lat="44.83539" lon="5.73992">
        <ele>887</ele>
        <time>2017-11-22T16:07:40Z</time>
      </trkpt>
      <trkpt lat="44.83548" lon="5.7395">
        <ele>888</ele>
        <time>2017-11-22T16:07:49Z</time>
      </trkpt>
      <trkpt lat="44.83557" lon="5.73897">
        <ele>891</ele>
        <time>2017-11-22T16:08:04Z</time>
      </trkpt>
      <trkpt lat="44.83573" lon="5.7381">
        <ele>894</ele>
        <time>2017-11-22T16:08:16Z</time>
      </trkpt>
      <trkpt lat="44.83578" lon="5.73791">
        <ele>894</ele>
        <time>2017-11-22T16:08:19Z</time>
      </trkpt>
      <trkpt lat="44.83586" lon="5.73772">
        <ele>895</ele>
        <time>2017-11-22T16:08:30Z</time>
      </trkpt>
      <trkpt lat="44.83597" lon="5.73756">
        <ele>895</ele>
        <time>2017-11-22T16:08:44Z</time>
      </trkpt>
      <trkpt lat="44.8361" lon="5.73746">
        <ele>893</ele>
        <time>2017-11-22T16:09:01Z</time>
      </trkpt>
      <trkpt lat="44.83622" lon="5.7374">
        <ele>892</ele>
        <time>2017-11-22T16:09:17Z</time>
      </trkpt>
      <trkpt lat="44.83636" lon="5.73738">
        <ele>891</ele>
        <time>2017-11-22T16:09:24Z</time>
      </trkpt>
      <trkpt lat="44.83649" lon="5.73738">
        <ele>891</ele>
        <time>2017-11-22T16:09:27Z</time>
      </trkpt>
      <trkpt lat="44.83664" lon="5.73744">
        <ele>892</ele>
        <time>2017-11-22T16:09:46Z</time>
      </trkpt>
      <trkpt lat="44.83697" lon="5.73766">
        <ele>892</ele>
        <time>2017-11-22T16:09:49Z</time>
      </trkpt>
      <trkpt lat="44.8373" lon="5.73786">
        <ele>892</ele>
        <time>2017-11-22T16:10:03Z</time>
      </trkpt>
      <trkpt lat="44.83742" lon="5.73791">
        <ele>892</ele>
        <time>2017-11-22T16:10:11Z</time>
      </trkpt>
      <trkpt lat="44.83737" lon="5.73777">
        <ele>891</ele>
        <time>2017-11-22T16:10:16Z</time>
      </trkpt>
      <trkpt lat="44.83712" lon="5.73759">
        <ele>891</ele>
        <time>2017-11-22T16:10:18Z</time>
      </trkpt>
      <trkpt lat="44.83691" lon="5.73744">
        <ele>886</ele>
        <time>2017-11-22T16:10:21Z</time>
      </trkpt>
      <trkpt lat="44.83668" lon="5.73722">
        <ele>886</ele>
        <time>2017-11-22T16:10:33Z</time>
      </trkpt>
      <trkpt lat="44.83657" lon="5.73709">
        <ele>890</ele>
        <time>2017-11-22T16:10:45Z</time>
      </trkpt>
      <trkpt lat="44.83647" lon="5.73695">
        <ele>889</ele>
        <time>2017-11-22T16:11:02Z</time>
      </trkpt>
      <trkpt lat="44.83639" lon="5.73681">
        <ele>889</ele>
        <time>2017-11-22T16:11:04Z</time>
      </trkpt>
      <trkpt lat="44.83634" lon="5.7367">
        <ele>889</ele>
        <time>2017-11-22T16:11:24Z</time>
      </trkpt>
      <trkpt lat="44.8363" lon="5.73652">
        <ele>887</ele>
        <time>2017-11-22T16:11:26Z</time>
      </trkpt>
      <trkpt lat="44.83624" lon="5.73618">
        <ele>886</ele>
        <time>2017-11-22T16:11:45Z</time>
      </trkpt>
      <trkpt lat="44.83621" lon="5.73586">
        <ele>886</ele>
        <time>2017-11-22T16:11:49Z</time>
      </trkpt>
      <trkpt lat="44.83622" lon="5.73556">
        <ele>884</ele>
        <time>2017-11-22T16:11:59Z</time>
      </trkpt>
      <trkpt lat="44.83625" lon="5.73543">
        <ele>884</ele>
        <time>2017-11-22T16:12:10Z</time>
      </trkpt>
      <trkpt lat="44.83631" lon="5.7353">
        <ele>883</ele>
        <time>2017-11-22T16:12:23Z</time>
      </trkpt>
      <trkpt lat="44.83641" lon="5.73514">
        <ele>883</ele>
        <time>2017-11-22T16:12:27Z</time>
      </trkpt>
      <trkpt lat="44.8366" lon="5.73492">
        <ele>882</ele>
        <time>2017-11-22T16:12:32Z</time>
      </trkpt>
      <trkpt lat="44.83722" lon="5.7342">
        <ele>878</ele>
        <time>2017-11-22T16:12:51Z</time>
      </trkpt>
      <trkpt lat="44.8376" lon="5.73377">
        <ele>876</ele>
        <time>2017-11-22T16:13:06Z</time>
      </trkpt>
      <trkpt lat="44.83788" lon="5.73354">
        <ele>876</ele>
        <time>2017-11-22T16:13:17Z</time>
      </trkpt>
      <trkpt lat="44.83821" lon="5.73335">
        <ele>876</ele>
        <time>2017-11-22T16:13:20Z</time>
      </trkpt>
      <trkpt lat="44.83859" lon="5.73316">
        <ele>879</ele>
        <time>2017-11-22T16:13:31Z</time>
      </trkpt>
      <trkpt lat="44.83886" lon="5.73302">
        <ele>878</ele>
        <time>2017-11-22T16:13:48Z</time>
      </trkpt>
      <trkpt lat="44.83912" lon="5.73291">
        <ele>878</ele>
        <time>2017-11-22T16:14:04Z</time>
      </trkpt>
      <trkpt lat="44.83939" lon="5.73287">
        <ele>877</ele>
        <time>2017-11-22T16:14:23Z</time>
      </trkpt>
      <trkpt lat="44.83967" lon="5.73292">
        <ele>877</ele>
        <time>2017-11-22T16:14:29Z</time>
      </trkpt>
      <trkpt lat="44.83994" lon="5.73303">
        <ele>877</ele>
        <time>2017-11-22T16:14:37Z</time>
      </trkpt>
      <trkpt lat="44.84005" lon="5.73312">
        <ele>877</ele>
        <time>2017-11-22T16:14:48Z</time>
      </trkpt>
      <trkpt lat="44.84015" lon="5.73324">
        <ele>877</ele>
        <time>2017-11-22T16:15:07Z</time>
      </trkpt>
      <trkpt lat="44.84031" lon="5.73353">
        <ele>869</ele>
        <time>2017-11-22T16:15:19Z</time>
      </trkpt>
      <trkpt lat="44.84046" lon="5.73377">
        <ele>867</ele>
        <time>2017-11-22T16:15:36Z</time>
      </trkpt>
      <trkpt lat="44.84055" lon="5.73384">
        <ele>867</ele>
        <time>2017-11-22T16:15:39Z</time>
      </trkpt>
      <trkpt lat="44.84064" lon="5.73386">
        <ele>866</ele>
        <time>2017-11-22T16:15:45Z</time>
      </trkpt>
      <trkpt lat="44.84074" lon="5.73384">
        <ele>867</ele>
        <time>2017-11-22T16:15:59Z</time>
      </trkpt>
      <trkpt lat="44.84083" lon="5.73379">
        <ele>867</ele>
        <time>2017-11-22T16:16:15Z</time>
      </trkpt>
      <trkpt lat="44.84102" lon="5.73359">
        <ele>865</ele>
        <time>2017-11-22T16:16:26Z</time>
      </trkpt>
      <trkpt lat="44.84124" lon="5.73334">
        <ele>864</ele>
        <time>2017-11-22T16:16:31Z</time>
      </trkpt>
      <trkpt lat="44.84147" lon="5.73308">
        <ele>871</ele>
        <time>2017-11-22T16:16:43Z</time>
      </trkpt>
      <trkpt lat="44.84166" lon="5.73281">
        <ele>872</ele>
        <time>2017-11-22T16:16:51Z</time>
      </trkpt>
      <trkpt lat="44.84181" lon="5.73252">
        <ele>864</ele>
        <time>2017-11-22T16:16:53Z</time>
      </trkpt>
      <trkpt lat="44.8419" lon="5.73224">
        <ele>864</ele>
        <time>2017-11-22T16:17:12Z</time>
      </trkpt>
      <trkpt lat="44.84192" lon="5.7321">
        <ele>863</ele>
        <time>2017-11-22T16:17:21Z</time>
      </trkpt>
      <trkpt lat="44.84191" lon="5.73196">
        <ele>864</ele>
        <time>2017-11-22T16:17:40Z</time>
      </trkpt>
      <trkpt lat="44.84183" lon="5.73169">
        <ele>866</ele>
        <time>2017-11-22T16:17:58Z</time>
      </trkpt>
      <trkpt lat="44.84172" lon="5.73142">
        <ele>865</ele>
        <time>2017-11-22T16:18:03Z</time>
      </trkpt>
      <trkpt lat="44.84161" lon="5.73111">
        <ele>871</ele>
        <time>2017-11-22T16:18:14Z</time>
      </trkpt>
      <trkpt lat="44.84154" lon="5.73074">
        <ele>868</ele>
        <time>2017-11-22T16:18:30Z</time>
      </trkpt>
      <trkpt lat="44.84149" lon="5.73032">
        <ele>868</ele>
        <time>2017-11-22T16:18:49Z</time>
      </trkpt>
      <trkpt lat="44.84116" lon="5.72788">
        <ele>863</ele>
        <time>2017-11-22T16:19:09Z</time>
      </trkpt>
      <trkpt lat="44.84112" lon="5.72743">
        <ele>863</ele>
        <time>2017-11-22T16:19:29Z</time>
      </trkpt>
      <trkpt lat="44.84113" lon="5.72703">
        <ele>862</ele>
        <time>2017-11-22T16:19:49Z</time>
      </trkpt>
      <trkpt lat="44.84116" lon="5.72672">
        <ele>862</ele>
        <time>2017-11-22T16:20:06Z</time>
      </trkpt>
      <trkpt lat="44.84118" lon="5.72642">
        <ele>860</ele>
        <time>2017-11-22T16:20:20Z</time>
      </trkpt>
      <trkpt lat="44.84116" lon="5.72613">
        <ele>860</ele>
        <time>2017-11-22T16:20:36Z</time>
      </trkpt>
      <trkpt lat="44.84108" lon="5.72584">
        <ele>861</ele>
        <time>2017-11-22T16:20:52Z</time>
      </trkpt>
      <trkpt lat="44.84091" lon="5.72541">
        <ele>858</ele>
        <time>2017-11-22T16:20:56Z</time>
      </trkpt>
      <trkpt lat="44.8406" lon="5.72463">
        <ele>861</ele>
        <time>2017-11-22T16:21:00Z</time>
      </trkpt>
      <trkpt lat="44.84051" lon="5.72414">
        <ele>856</ele>
        <time>2017-11-22T16:21:11Z</time>
      </trkpt>
      <trkpt lat="44.84043" lon="5.72309">
        <ele>854</ele>
        <time>2017-11-22T16:21:28Z</time>
      </trkpt>
      <trkpt lat="44.84038" lon="5.72195">
        <ele>854</ele>
        <time>2017-11-22T16:21:48Z</time>
      </trkpt>
      <trkpt lat="44.84031" lon="5.7209">
        <ele>855</ele>
        <time>2017-11-22T16:21:53Z</time>
      </trkpt>
      <trkpt lat="44.84026" lon="5.72064">
        <ele>856</ele>
        <time>2017-11-22T16:21:55Z</time>
      </trkpt>
      <trkpt lat="44.83988" lon="5.72012">
        <ele>856</ele>
        <time>2017-11-22T16:22:02Z</time>
      </trkpt>
      <trkpt lat="44.83981" lon="5.72002">
        <ele>856</ele>
        <time>2017-11-22T16:22:21Z</time>
      </trkpt>
      <trkpt lat="44.83965" lon="5.71977">
        <ele>856</ele>
        <time>2017-11-22T16:22:24Z</time>
      </trkpt>
      <trkpt lat="44.83998" lon="5.71939">
        <ele>857</ele>
        <time>2017-11-22T16:22:28Z</time>
      </trkpt>
      <trkpt lat="44.84031" lon="5.71873">
        <ele>858</ele>
        <time>2017-11-22T16:22:30Z</time>
      </trkpt>
      <trkpt lat="44.84044" lon="5.71832">
        <ele>860</ele>
        <time>2017-11-22T16:22:46Z</time>
      </trkpt>
      <trkpt lat="44.8405" lon="5.71803">
        <ele>860</ele>
        <time>2017-11-22T16:23:02Z</time>
      </trkpt>
      <trkpt lat="44.84055" lon="5.71763">
        <ele>861</ele>
        <time>2017-11-22T16:23:16Z</time>
      </trkpt>
      <trkpt lat="44.84052" lon="5.71641">
        <ele>867</ele>
        <time>2017-11-22T16:23:24Z</time>
      </trkpt>
      <trkpt lat="44.84045" lon="5.71323">
        <ele>879</ele>
        <time>2017-11-22T16:23:34Z</time>
      </trkpt>
      <trkpt lat="44.84044" lon="5.7124">
        <ele>883</ele>
        <time>2017-11-22T16:23:47Z</time>
      </trkpt>
      <trkpt lat="44.84041" lon="5.71203">
        <ele>883</ele>
        <time>2017-11-22T16:23:56Z</time>
      </trkpt>
      <trkpt lat="44.84033" lon="5.71168">
        <ele>883</ele>
        <time>2017-11-22T16:24:14Z</time>
      </trkpt>
      <trkpt lat="44.8401" lon="5.71086">
        <ele>882</ele>
        <time>2017-11-22T16:24:33Z</time>
      </trkpt>
      <trkpt lat="44.84006" lon="5.71061">
        <ele>883</ele>
        <time>2017-11-22T16:24:42Z</time>
      </trkpt>
      <trkpt lat="44.8401" lon="5.71015">
        <ele>885</ele>
        <time>2017-11-22T16:24:44Z</time>
      </trkpt>
      <trkpt lat="44.84018" lon="5.7099">
        <ele>885</ele>
        <time>2017-11-22T16:24:48Z</time>
      </trkpt>
      <trkpt lat="44.84031" lon="5.70945">
        <ele>884</ele>
        <time>2017-11-22T16:25:06Z</time>
      </trkpt>
      <trkpt lat="44.84035" lon="5.70909">
        <ele>882</ele>
        <time>2017-11-22T16:25:18Z</time>
      </trkpt>
      <trkpt lat="44.84035" lon="5.70877">
        <ele>881</ele>
        <time>2017-11-22T16:25:36Z</time>
      </trkpt>
      <trkpt lat="44.8403" lon="5.70845">
        <ele>882</ele>
        <time>2017-11-22T16:25:52Z</time>
      </trkpt>
      <trkpt lat="44.8401" lon="5.7076">
        <ele>880</ele>
        <time>2017-11-22T16:26:08Z</time>
      </trkpt>
      <trkpt lat="44.84006" lon="5.70713">
        <ele>874</ele>
        <time>2017-11-22T16:26:12Z</time>
      </trkpt>
      <trkpt lat="44.84007" lon="5.70632">
        <ele>870</ele>
        <time>2017-11-22T16:26:27Z</time>
      </trkpt>
      <trkpt lat="44.84008" lon="5.70523">
        <ele>866</ele>
        <time>2017-11-22T16:26:42Z</time>
      </trkpt>
      <trkpt lat="44.84009" lon="5.70488">
        <ele>865</ele>
        <time>2017-11-22T16:26:50Z</time>
      </trkpt>
      <trkpt lat="44.84012" lon="5.70454">
        <ele>861</ele>
        <time>2017-11-22T16:26:53Z</time>
      </trkpt>
      <trkpt lat="44.8402" lon="5.70417">
        <ele>860</ele>
        <time>2017-11-22T16:27:05Z</time>
      </trkpt>
      <trkpt lat="44.84034" lon="5.70379">
        <ele>857</ele>
        <time>2017-11-22T16:27:25Z</time>
      </trkpt>
      <trkpt lat="44.84116" lon="5.70182">
        <ele>852</ele>
        <time>2017-11-22T16:27:36Z</time>
      </trkpt>
      <trkpt lat="44.84171" lon="5.70052">
        <ele>840</ele>
        <time>2017-11-22T16:27:52Z</time>
      </trkpt>
      <trkpt lat="44.84197" lon="5.69986">
        <ele>842</ele>
        <time>2017-11-22T16:27:59Z</time>
      </trkpt>
      <trkpt lat="44.84218" lon="5.69933">
        <ele>840</ele>
        <time>2017-11-22T16:28:12Z</time>
      </trkpt>
      <trkpt lat="44.84233" lon="5.69903">
        <ele>841</ele>
        <time>2017-11-22T16:28:24Z</time>
      </trkpt>
      <trkpt lat="44.84253" lon="5.69872">
        <ele>829</ele>
        <time>2017-11-22T16:28:41Z</time>
      </trkpt>
      <trkpt lat="44.84273" lon="5.69849">
        <ele>829</ele>
        <time>2017-11-22T16:28:50Z</time>
      </trkpt>
      <trkpt lat="44.84296" lon="5.6983">
        <ele>829</ele>
        <time>2017-11-22T16:29:04Z</time>
      </trkpt>
      <trkpt lat="44.84479" lon="5.69692">
        <ele>811</ele>
        <time>2017-11-22T16:29:23Z</time>
      </trkpt>
      <trkpt lat="44.84614" lon="5.69591">
        <ele>799</ele>
        <time>2017-11-22T16:29:42Z</time>
      </trkpt>
      <trkpt lat="44.84668" lon="5.69552">
        <ele>792</ele>
        <time>2017-11-22T16:29:47Z</time>
      </trkpt>
      <trkpt lat="44.84684" lon="5.69538">
        <ele>792</ele>
        <time>2017-11-22T16:30:05Z</time>
      </trkpt>
      <trkpt lat="44.84713" lon="5.69501">
        <ele>790</ele>
        <time>2017-11-22T16:30:16Z</time>
      </trkpt>
      <trkpt lat="44.8475" lon="5.69426">
        <ele>794</ele>
        <time>2017-11-22T16:30:36Z</time>
      </trkpt>
      <trkpt lat="44.84768" lon="5.69396">
        <ele>790</ele>
        <time>2017-11-22T16:30:38Z</time>
      </trkpt>
      <trkpt lat="44.84789" lon="5.69371">
        <ele>790</ele>
        <time>2017-11-22T16:30:41Z</time>
      </trkpt>
      <trkpt lat="44.84939" lon="5.69229">
        <ele>779</ele>
        <time>2017-11-22T16:30:57Z</time>
      </trkpt>
      <trkpt lat="44.84967" lon="5.69209">
        <ele>779</ele>
        <time>2017-11-22T16:31:01Z</time>
      </trkpt>
      <trkpt lat="44.84979" lon="5.69205">
        <ele>779</ele>
        <time>2017-11-22T16:31:20Z</time>
      </trkpt>
      <trkpt lat="44.84996" lon="5.69205">
        <ele>778</ele>
        <time>2017-11-22T16:31:33Z</time>
      </trkpt>
      <trkpt lat="44.85011" lon="5.69211">
        <ele>771</ele>
        <time>2017-11-22T16:31:51Z</time>
      </trkpt>
      <trkpt lat="44.85037" lon="5.69221">
        <ele>769</ele>
        <time>2017-11-22T16:32:00Z</time>
      </trkpt>
      <trkpt lat="44.85056" lon="5.69224">
        <ele>767</ele>
        <time>2017-11-22T16:32:08Z</time>
      </trkpt>
      <trkpt lat="44.85077" lon="5.6922">
        <ele>767</ele>
        <time>2017-11-22T16:32:19Z</time>
      </trkpt>
      <trkpt lat="44.85136" lon="5.69193">
        <ele>759</ele>
        <time>2017-11-22T16:32:25Z</time>
      </trkpt>
      <trkpt lat="44.85153" lon="5.69177">
        <ele>758</ele>
        <time>2017-11-22T16:32:37Z</time>
      </trkpt>
      <trkpt lat="44.85167" lon="5.69157">
        <ele>754</ele>
        <time>2017-11-22T16:32:52Z</time>
      </trkpt>
      <trkpt lat="44.85182" lon="5.69116">
        <ele>754</ele>
        <time>2017-11-22T16:33:00Z</time>
      </trkpt>
      <trkpt lat="44.85198" lon="5.69074">
        <ele>762</ele>
        <time>2017-11-22T16:33:18Z</time>
      </trkpt>
      <trkpt lat="44.85214" lon="5.69043">
        <ele>761</ele>
        <time>2017-11-22T16:33:37Z</time>
      </trkpt>
      <trkpt lat="44.85227" lon="5.69024">
        <ele>760</ele>
        <time>2017-11-22T16:33:55Z</time>
      </trkpt>
      <trkpt lat="44.85245" lon="5.69004">
        <ele>756</ele>
        <time>2017-11-22T16:34:14Z</time>
      </trkpt>
      <trkpt lat="44.85334" lon="5.68913">
        <ele>746</ele>
        <time>2017-11-22T16:34:27Z</time>
      </trkpt>
      <trkpt lat="44.85405" lon="5.68843">
        <ele>746</ele>
        <time>2017-11-22T16:34:46Z</time>
      </trkpt>
      <trkpt lat="44.85437" lon="5.68809">
        <ele>744</ele>
        <time>2017-11-22T16:35:03Z</time>
      </trkpt>
      <trkpt lat="44.85475" lon="5.68772">
        <ele>742</ele>
        <time>2017-11-22T16:35:18Z</time>
      </trkpt>
      <trkpt lat="44.85521" lon="5.68722">
        <ele>737</ele>
        <time>2017-11-22T16:35:21Z</time>
      </trkpt>
      <trkpt lat="44.85558" lon="5.68688">
        <ele>735</ele>
        <time>2017-11-22T16:35:41Z</time>
      </trkpt>
      <trkpt lat="44.85606" lon="5.68634">
        <ele>727</ele>
        <time>2017-11-22T16:36:00Z</time>
      </trkpt>
      <trkpt lat="44.85644" lon="5.68581">
        <ele>733</ele>
        <time>2017-11-22T16:36:12Z</time>
      </trkpt>
      <trkpt lat="44.85767" lon="5.68435">
        <ele>708</ele>
        <time>2017-11-22T16:36:14Z</time>
      </trkpt>
      <trkpt lat="44.85784" lon="5.68408">
        <ele>712</ele>
        <time>2017-11-22T16:36:32Z</time>
      </trkpt>
      <trkpt lat="44.85789" lon="5.68395">
        <ele>711</ele>
        <time>2017-11-22T16:36:43Z</time>
      </trkpt>
      <trkpt lat="44.85795" lon="5.68372">
        <ele>711</ele>
        <time>2017-11-22T16:36:48Z</time>
      </trkpt>
      <trkpt lat="44.85802" lon="5.68358">
        <ele>710</ele>
        <time>2017-11-22T16:37:02Z</time>
      </trkpt>
      <trkpt lat="44.85812" lon="5.68347">
        <ele>707</ele>
        <time>2017-11-22T16:37:16Z</time>
      </trkpt>
      <trkpt lat="44.85829" lon="5.68339">
        <ele>699</ele>
        <time>2017-11-22T16:37:35Z</time>
      </trkpt>
      <trkpt lat="44.85835" lon="5.68292">
        <ele>696</ele>
        <time>2017-11-22T16:37:39Z</time>
      </trkpt>
      <trkpt lat="44.85838" lon="5.68244">
        <ele>706</ele>
        <time>2017-11-22T16:37:48Z</time>
      </trkpt>
      <trkpt lat="44.85841" lon="5.68224">
        <ele>707</ele>
        <time>2017-11-22T16:38:05Z</time>
      </trkpt>
      <trkpt lat="44.85846" lon="5.68212">
        <ele>708</ele>
        <time>2017-11-22T16:38:25Z</time>
      </trkpt>
      <trkpt lat="44.85856" lon="5.68196">
        <ele>709</ele>
        <time>2017-11-22T16:38:37Z</time>
      </trkpt>
      <trkpt lat="44.85862" lon="5.6819">
        <ele>709</ele>
        <time>2017-11-22T16:38:55Z</time>
      </trkpt>
      <trkpt lat="44.85875" lon="5.68184">
        <ele>707</ele>
        <time>2017-11-22T16:38:58Z</time>
      </trkpt>
      <trkpt lat="44.85898" lon="5.68171">
        <ele>704</ele>
        <time>2017-11-22T16:39:13Z</time>
      </trkpt>
      <trkpt lat="44.85913" lon="5.68156">
        <ele>709</ele>
        <time>2017-11-22T16:39:29Z</time>
      </trkpt>
      <trkpt lat="44.85921" lon="5.68142">
        <ele>698</ele>
        <time>2017-11-22T16:39:44Z</time>
      </trkpt>
      <trkpt lat="44.85922" lon="5.68108">
        <ele>702</ele>
        <time>2017-11-22T16:39:50Z</time>
      </trkpt>
      <trkpt lat="44.85919" lon="5.68087">
        <ele>710</ele>
        <time>2017-11-22T16:39:59Z</time>
      </trkpt>
      <trkpt lat="44.85908" lon="5.68013">
        <ele>725</ele>
        <time>2017-11-22T16:40:03Z</time>
      </trkpt>
      <trkpt lat="44.859" lon="5.67954">
        <ele>731</ele>
        <time>2017-11-22T16:40:12Z</time>
      </trkpt>
      <trkpt lat="44.85889" lon="5.67912">
        <ele>727</ele>
        <time>2017-11-22T16:40:15Z</time>
      </trkpt>
      <trkpt lat="44.85866" lon="5.6785">
        <ele>731</ele>
        <time>2017-11-22T16:40:34Z</time>
      </trkpt>
      <trkpt lat="44.8584" lon="5.67779">
        <ele>725</ele>
        <time>2017-11-22T16:40:46Z</time>
      </trkpt>
      <trkpt lat="44.8582" lon="5.67736">
        <ele>729</ele>
        <time>2017-11-22T16:40:54Z</time>
      </trkpt>
      <trkpt lat="44.85804" lon="5.67726">
        <ele>730</ele>
        <time>2017-11-22T16:40:58Z</time>
      </trkpt>
      <trkpt lat="44.85783" lon="5.67713">
        <ele>732</ele>
        <time>2017-11-22T16:41:08Z</time>
      </trkpt>
      <trkpt lat="44.85773" lon="5.67696">
        <ele>731</ele>
        <time>2017-11-22T16:41:23Z</time>
      </trkpt>
      <trkpt lat="44.85769" lon="5.67672">
        <ele>730</ele>
        <time>2017-11-22T16:41:28Z</time>
      </trkpt>
      <trkpt lat="44.85771" lon="5.67641">
        <ele>725</ele>
        <time>2017-11-22T16:41:39Z</time>
      </trkpt>
      <trkpt lat="44.85768" lon="5.67619">
        <ele>724</ele>
        <time>2017-11-22T16:41:58Z</time>
      </trkpt>
      <trkpt lat="44.85762" lon="5.67604">
        <ele>724</ele>
        <time>2017-11-22T16:42:05Z</time>
      </trkpt>
      <trkpt lat="44.85741" lon="5.67578">
        <ele>727</ele>
        <time>2017-11-22T16:42:10Z</time>
      </trkpt>
      <trkpt lat="44.85717" lon="5.67554">
        <ele>731</ele>
        <time>2017-11-22T16:42:27Z</time>
      </trkpt>
      <trkpt lat="44.85682" lon="5.67519">
        <ele>734</ele>
        <time>2017-11-22T16:42:35Z</time>
      </trkpt>
      <trkpt lat="44.85667" lon="5.67501">
        <ele>738</ele>
        <time>2017-11-22T16:42:51Z</time>
      </trkpt>
      <trkpt lat="44.85655" lon="5.67482">
        <ele>742</ele>
        <time>2017-11-22T16:43:10Z</time>
      </trkpt>
      <trkpt lat="44.8564" lon="5.67416">
        <ele>741</ele>
        <time>2017-11-22T16:43:16Z</time>
      </trkpt>
      <trkpt lat="44.85627" lon="5.67376">
        <ele>743</ele>
        <time>2017-11-22T16:43:18Z</time>
      </trkpt>
      <trkpt lat="44.85622" lon="5.67347">
        <ele>744</ele>
        <time>2017-11-22T16:43:23Z</time>
      </trkpt>
      <trkpt lat="44.85622" lon="5.67281">
        <ele>741</ele>
        <time>2017-11-22T16:43:39Z</time>
      </trkpt>
      <trkpt lat="44.85623" lon="5.67228">
        <ele>740</ele>
        <time>2017-11-22T16:43:57Z</time>
      </trkpt>
      <trkpt lat="44.85617" lon="5.67204">
        <ele>740</ele>
        <time>2017-11-22T16:44:05Z</time>
      </trkpt>
      <trkpt lat="44.85613" lon="5.67197">
        <ele>741</ele>
        <time>2017-11-22T16:44:18Z</time>
      </trkpt>
      <trkpt lat="44.85603" lon="5.67183">
        <ele>742</ele>
        <time>2017-11-22T16:44:35Z</time>
      </trkpt>
      <trkpt lat="44.8559" lon="5.67172">
        <ele>744</ele>
        <time>2017-11-22T16:44:54Z</time>
      </trkpt>
      <trkpt lat="44.85564" lon="5.67162">
        <ele>746</ele>
        <time>2017-11-22T16:45:02Z</time>
      </trkpt>
      <trkpt lat="44.8542" lon="5.67131">
        <ele>745</ele>
        <time>2017-11-22T16:45:07Z</time>
      </trkpt>
      <trkpt lat="44.85274" lon="5.67099">
        <ele>741</ele>
        <time>2017-11-22T16:45:18Z</time>
      </trkpt>
      <trkpt lat="44.85231" lon="5.67093">
        <ele>738</ele>
        <time>2017-11-22T16:45:20Z</time>
      </trkpt>
      <trkpt lat="44.85218" lon="5.67094">
        <ele>738</ele>
        <time>2017-11-22T16:45:31Z</time>
      </trkpt>
      <trkpt lat="44.85191" lon="5.67101">
        <ele>736</ele>
        <time>2017-11-22T16:45:37Z</time>
      </trkpt>
      <trkpt lat="44.85148" lon="5.67121">
        <ele>735</ele>
        <time>2017-11-22T16:45:40Z</time>
      </trkpt>
      <trkpt lat="44.85119" lon="5.67126">
        <ele>734</ele>
        <time>2017-11-22T16:45:45Z</time>
      </trkpt>
      <trkpt lat="44.85103" lon="5.67129">
        <ele>734</ele>
        <time>2017-11-22T16:45:49Z</time>
      </trkpt>
      <trkpt lat="44.8502" lon="5.67174">
        <ele>738</ele>
        <time>2017-11-22T16:45:53Z</time>
      </trkpt>
      <trkpt lat="44.8499" lon="5.67188">
        <ele>738</ele>
        <time>2017-11-22T16:46:05Z</time>
      </trkpt>
      <trkpt lat="44.84966" lon="5.67195">
        <ele>738</ele>
        <time>2017-11-22T16:46:22Z</time>
      </trkpt>
      <trkpt lat="44.8494" lon="5.67197">
        <ele>738</ele>
        <time>2017-11-22T16:46:27Z</time>
      </trkpt>
      <trkpt lat="44.84855" lon="5.67185">
        <ele>737</ele>
        <time>2017-11-22T16:46:35Z</time>
      </trkpt>
      <trkpt lat="44.84788" lon="5.67176">
        <ele>733</ele>
        <time>2017-11-22T16:46:55Z</time>
      </trkpt>
      <trkpt lat="44.84541" lon="5.67152">
        <ele>712</ele>
        <time>2017-11-22T16:47:09Z</time>
      </trkpt>
      <trkpt lat="44.84473" lon="5.67147">
        <ele>707</ele>
        <time>2017-11-22T16:47:20Z</time>
      </trkpt>
      <trkpt lat="44.844" lon="5.67138">
        <ele>708</ele>
        <time>2017-11-22T16:47:29Z</time>
      </trkpt>
      <trkpt lat="44.84303" lon="5.67129">
        <ele>707</ele>
        <time>2017-11-22T16:47:44Z</time>
      </trkpt>
      <trkpt lat="44.84238" lon="5.67128">
        <ele>699</ele>
        <time>2017-11-22T16:48:01Z</time>
      </trkpt>
      <trkpt lat="44.84219" lon="5.67132">
        <ele>698</ele>
        <time>2017-11-22T16:48:03Z</time>
      </trkpt>
      <trkpt lat="44.84213" lon="5.67134">
        <ele>698</ele>
        <time>2017-11-22T16:48:11Z</time>
      </trkpt>
      <trkpt lat="44.84201" lon="5.67147">
        <ele>698</ele>
        <time>2017-11-22T16:48:27Z</time>
      </trkpt>
      <trkpt lat="44.84157" lon="5.67218">
        <ele>701</ele>
        <time>2017-11-22T16:48:46Z</time>
      </trkpt>
      <trkpt lat="44.84143" lon="5.67241">
        <ele>703</ele>
        <time>2017-11-22T16:48:53Z</time>
      </trkpt>
      <trkpt lat="44.84126" lon="5.67263">
        <ele>711</ele>
        <time>2017-11-22T16:49:09Z</time>
      </trkpt>
      <trkpt lat="44.8411" lon="5.67278">
        <ele>710</ele>
        <time>2017-11-22T16:49:24Z</time>
      </trkpt>
      <trkpt lat="44.841" lon="5.67283">
        <ele>710</ele>
        <time>2017-11-22T16:49:43Z</time>
      </trkpt>
      <trkpt lat="44.84092" lon="5.67284">
        <ele>710</ele>
        <time>2017-11-22T16:50:02Z</time>
      </trkpt>
      <trkpt lat="44.84086" lon="5.67286">
        <ele>710</ele>
        <time>2017-11-22T16:50:22Z</time>
      </trkpt>
      <trkpt lat="44.84076" lon="5.67285">
        <ele>708</ele>
        <time>2017-11-22T16:50:28Z</time>
      </trkpt>
      <trkpt lat="44.84045" lon="5.67274">
        <ele>708</ele>
        <time>2017-11-22T16:50:42Z</time>
      </trkpt>
      <trkpt lat="44.83954" lon="5.67229">
        <ele>700</ele>
        <time>2017-11-22T16:50:59Z</time>
      </trkpt>
      <trkpt lat="44.83914" lon="5.67215">
        <ele>702</ele>
        <time>2017-11-22T16:51:11Z</time>
      </trkpt>
      <trkpt lat="44.8386" lon="5.67202">
        <ele>701</ele>
        <time>2017-11-22T16:51:15Z</time>
      </trkpt>
      <trkpt lat="44.83836" lon="5.67203">
        <ele>701</ele>
        <time>2017-11-22T16:51:29Z</time>
      </trkpt>
      <trkpt lat="44.83813" lon="5.67212">
        <ele>699</ele>
        <time>2017-11-22T16:51:38Z</time>
      </trkpt>
      <trkpt lat="44.83806" lon="5.67215">
        <ele>699</ele>
        <time>2017-11-22T16:51:52Z</time>
      </trkpt>
      <trkpt lat="44.83798" lon="5.67224">
        <ele>699</ele>
        <time>2017-11-22T16:51:58Z</time>
      </trkpt>
      <trkpt lat="44.83769" lon="5.67251">
        <ele>700</ele>
        <time>2017-11-22T16:52:18Z</time>
      </trkpt>
      <trkpt lat="44.83752" lon="5.67262">
        <ele>699</ele>
        <time>2017-11-22T16:52:25Z</time>
      </trkpt>
      <trkpt lat="44.83735" lon="5.67268">
        <ele>694</ele>
        <time>2017-11-22T16:52:33Z</time>
      </trkpt>
      <trkpt lat="44.83712" lon="5.67267">
        <ele>693</ele>
        <time>2017-11-22T16:52:46Z</time>
      </trkpt>
      <trkpt lat="44.83696" lon="5.67262">
        <ele>692</ele>
        <time>2017-11-22T16:53:06Z</time>
      </trkpt>
      <trkpt lat="44.83662" lon="5.67242">
        <ele>691</ele>
        <time>2017-11-22T16:53:20Z</time>
      </trkpt>
      <trkpt lat="44.83652" lon="5.67241">
        <ele>689</ele>
        <time>2017-11-22T16:53:33Z</time>
      </trkpt>
      <trkpt lat="44.83645" lon="5.67244">
        <ele>688</ele>
        <time>2017-11-22T16:53:46Z</time>
      </trkpt>
      <trkpt lat="44.83636" lon="5.67256">
        <ele>685</ele>
        <time>2017-11-22T16:53:52Z</time>
      </trkpt>
      <trkpt lat="44.83634" lon="5.67266">
        <ele>684</ele>
        <time>2017-11-22T16:54:04Z</time>
      </trkpt>
      <trkpt lat="44.83636" lon="5.67278">
        <ele>684</ele>
        <time>2017-11-22T16:54:21Z</time>
      </trkpt>
      <trkpt lat="44.83641" lon="5.6729">
        <ele>683</ele>
        <time>2017-11-22T16:54:25Z</time>
      </trkpt>
      <trkpt lat="44.83649" lon="5.67296">
        <ele>683</ele>
        <time>2017-11-22T16:54:37Z</time>
      </trkpt>
      <trkpt lat="44.83697" lon="5.67311">
        <ele>690</ele>
        <time>2017-11-22T16:54:51Z</time>
      </trkpt>
      <trkpt lat="44.83724" lon="5.67321">
        <ele>691</ele>
        <time>2017-11-22T16:54:57Z</time>
      </trkpt>
      <trkpt lat="44.83743" lon="5.67334">
        <ele>689</ele>
        <time>2017-11-22T16:55:11Z</time>
      </trkpt>
      <trkpt lat="44.8377" lon="5.67362">
        <ele>694</ele>
        <time>2017-11-22T16:55:20Z</time>
      </trkpt>
      <trkpt lat="44.83789" lon="5.67389">
        <ele>695</ele>
        <time>2017-11-22T16:55:23Z</time>
      </trkpt>
      <trkpt lat="44.83796" lon="5.67404">
        <ele>695</ele>
        <time>2017-11-22T16:55:41Z</time>
      </trkpt>
      <trkpt lat="44.83799" lon="5.67421">
        <ele>692</ele>
        <time>2017-11-22T16:55:53Z</time>
      </trkpt>
      <trkpt lat="44.83798" lon="5.6743">
        <ele>692</ele>
        <time>2017-11-22T16:56:10Z</time>
      </trkpt>
      <trkpt lat="44.83788" lon="5.67443">
        <ele>690</ele>
        <time>2017-11-22T16:56:16Z</time>
      </trkpt>
      <trkpt lat="44.83754" lon="5.67464">
        <ele>687</ele>
        <time>2017-11-22T16:56:28Z</time>
      </trkpt>
      <trkpt lat="44.83728" lon="5.67485">
        <ele>680</ele>
        <time>2017-11-22T16:56:33Z</time>
      </trkpt>
      <trkpt lat="44.83703" lon="5.67496">
        <ele>680</ele>
        <time>2017-11-22T16:56:39Z</time>
      </trkpt>
      <trkpt lat="44.83641" lon="5.67516">
        <ele>685</ele>
        <time>2017-11-22T16:56:58Z</time>
      </trkpt>
      <trkpt lat="44.83612" lon="5.67521">
        <ele>686</ele>
        <time>2017-11-22T16:57:04Z</time>
      </trkpt>
      <trkpt lat="44.83586" lon="5.67521">
        <ele>683</ele>
        <time>2017-11-22T16:57:23Z</time>
      </trkpt>
      <trkpt lat="44.83574" lon="5.6752">
        <ele>684</ele>
        <time>2017-11-22T16:57:26Z</time>
      </trkpt>
      <trkpt lat="44.83561" lon="5.67515">
        <ele>684</ele>
        <time>2017-11-22T16:57:30Z</time>
      </trkpt>
      <trkpt lat="44.83535" lon="5.67509">
        <ele>684</ele>
        <time>2017-11-22T16:57:39Z</time>
      </trkpt>
      <trkpt lat="44.83493" lon="5.67497">
        <ele>669</ele>
        <time>2017-11-22T16:57:41Z</time>
      </trkpt>
      <trkpt lat="44.83447" lon="5.67488">
        <ele>663</ele>
        <time>2017-11-22T16:57:52Z</time>
      </trkpt>
      <trkpt lat="44.83407" lon="5.67483">
        <ele>661</ele>
        <time>2017-11-22T16:58:04Z</time>
      </trkpt>
      <trkpt lat="44.83385" lon="5.67482">
        <ele>658</ele>
        <time>2017-11-22T16:58:08Z</time>
      </trkpt>
      <trkpt lat="44.83369" lon="5.67485">
        <ele>658</ele>
        <time>2017-11-22T16:58:27Z</time>
      </trkpt>
      <trkpt lat="44.83353" lon="5.67488">
        <ele>658</ele>
        <time>2017-11-22T16:58:31Z</time>
      </trkpt>
      <trkpt lat="44.83339" lon="5.67489">
        <ele>658</ele>
        <time>2017-11-22T16:58:48Z</time>
      </trkpt>
      <trkpt lat="44.83325" lon="5.67485">
        <ele>661</ele>
        <time>2017-11-22T16:58:51Z</time>
      </trkpt>
      <trkpt lat="44.83315" lon="5.67478">
        <ele>662</ele>
        <time>2017-11-22T16:59:09Z</time>
      </trkpt>
      <trkpt lat="44.83307" lon="5.67468">
        <ele>663</ele>
        <time>2017-11-22T16:59:18Z</time>
      </trkpt>
      <trkpt lat="44.83298" lon="5.67442">
        <ele>662</ele>
        <time>2017-11-22T16:59:28Z</time>
      </trkpt>
      <trkpt lat="44.83287" lon="5.67373">
        <ele>654</ele>
        <time>2017-11-22T16:59:33Z</time>
      </trkpt>
      <trkpt lat="44.83265" lon="5.673">
        <ele>644</ele>
        <time>2017-11-22T16:59:38Z</time>
      </trkpt>
      <trkpt lat="44.83255" lon="5.67268">
        <ele>640</ele>
        <time>2017-11-22T16:59:51Z</time>
      </trkpt>
      <trkpt lat="44.83244" lon="5.67248">
        <ele>636</ele>
        <time>2017-11-22T17:00:05Z</time>
      </trkpt>
      <trkpt lat="44.83231" lon="5.67232">
        <ele>635</ele>
        <time>2017-11-22T17:00:15Z</time>
      </trkpt>
      <trkpt lat="44.83222" lon="5.67227">
        <ele>635</ele>
        <time>2017-11-22T17:00:21Z</time>
      </trkpt>
      <trkpt lat="44.83203" lon="5.67217">
        <ele>635</ele>
        <time>2017-11-22T17:00:38Z</time>
      </trkpt>
      <trkpt lat="44.83173" lon="5.67205">
        <ele>635</ele>
        <time>2017-11-22T17:00:55Z</time>
      </trkpt>
      <trkpt lat="44.83161" lon="5.67204">
        <ele>637</ele>
        <time>2017-11-22T17:01:08Z</time>
      </trkpt>
      <trkpt lat="44.83145" lon="5.67206">
        <ele>637</ele>
        <time>2017-11-22T17:01:16Z</time>
      </trkpt>
      <trkpt lat="44.83129" lon="5.6721">
        <ele>637</ele>
        <time>2017-11-22T17:01:24Z</time>
      </trkpt>
      <trkpt lat="44.83113" lon="5.67214">
        <ele>638</ele>
        <time>2017-11-22T17:01:27Z</time>
      </trkpt>
      <trkpt lat="44.83097" lon="5.67211">
        <ele>637</ele>
        <time>2017-11-22T17:01:45Z</time>
      </trkpt>
      <trkpt lat="44.83088" lon="5.67208">
        <ele>637</ele>
        <time>2017-11-22T17:01:57Z</time>
      </trkpt>
      <trkpt lat="44.83046" lon="5.67184">
        <ele>631</ele>
        <time>2017-11-22T17:02:01Z</time>
      </trkpt>
      <trkpt lat="44.83032" lon="5.67177">
        <ele>630</ele>
        <time>2017-11-22T17:02:19Z</time>
      </trkpt>
      <trkpt lat="44.83018" lon="5.67177">
        <ele>629</ele>
        <time>2017-11-22T17:02:22Z</time>
      </trkpt>
      <trkpt lat="44.83006" lon="5.67184">
        <ele>629</ele>
        <time>2017-11-22T17:02:28Z</time>
      </trkpt>
      <trkpt lat="44.82991" lon="5.672">
        <ele>622</ele>
        <time>2017-11-22T17:02:30Z</time>
      </trkpt>
      <trkpt lat="44.82966" lon="5.67234">
        <ele>622</ele>
        <time>2017-11-22T17:02:43Z</time>
      </trkpt>
      <trkpt lat="44.82935" lon="5.67284">
        <ele>629</ele>
        <time>2017-11-22T17:02:47Z</time>
      </trkpt>
      <trkpt lat="44.82901" lon="5.67338">
        <ele>630</ele>
        <time>2017-11-22T17:02:59Z</time>
      </trkpt>
      <trkpt lat="44.8289" lon="5.6735">
        <ele>630</ele>
        <time>2017-11-22T17:03:02Z</time>
      </trkpt>
      <trkpt lat="44.82875" lon="5.6736">
        <ele>630</ele>
        <time>2017-11-22T17:03:11Z</time>
      </trkpt>
      <trkpt lat="44.82852" lon="5.67369">
        <ele>629</ele>
        <time>2017-11-22T17:03:27Z</time>
      </trkpt>
      <trkpt lat="44.82831" lon="5.67372">
        <ele>629</ele>
        <time>2017-11-22T17:03:38Z</time>
      </trkpt>
      <trkpt lat="44.82823" lon="5.67368">
        <ele>628</ele>
        <time>2017-11-22T17:03:45Z</time>
      </trkpt>
      <trkpt lat="44.82818" lon="5.67362">
        <ele>628</ele>
        <time>2017-11-22T17:03:54Z</time>
      </trkpt>
      <trkpt lat="44.82807" lon="5.67335">
        <ele>626</ele>
        <time>2017-11-22T17:04:12Z</time>
      </trkpt>
      <trkpt lat="44.8279" lon="5.67288">
        <ele>619</ele>
        <time>2017-11-22T17:04:19Z</time>
      </trkpt>
      <trkpt lat="44.82786" lon="5.67256">
        <ele>618</ele>
        <time>2017-11-22T17:04:37Z</time>
      </trkpt>
      <trkpt lat="44.82784" lon="5.67234">
        <ele>609</ele>
        <time>2017-11-22T17:04:57Z</time>
      </trkpt>
      <trkpt lat="44.82778" lon="5.67215">
        <ele>607</ele>
        <time>2017-11-22T17:05:02Z</time>
      </trkpt>
      <trkpt lat="44.8277" lon="5.67204">
        <ele>606</ele>
        <time>2017-11-22T17:05:22Z</time>
      </trkpt>
      <trkpt lat="44.82758" lon="5.67193">
        <ele>605</ele>
        <time>2017-11-22T17:05:28Z</time>
      </trkpt>
      <trkpt lat="44.82749" lon="5.67188">
        <ele>610</ele>
        <time>2017-11-22T17:05:39Z</time>
      </trkpt>
      <trkpt lat="44.82737" lon="5.67185">
        <ele>610</ele>
        <time>2017-11-22T17:05:42Z</time>
      </trkpt>
      <trkpt lat="44.82718" lon="5.67187">
        <ele>612</ele>
        <time>2017-11-22T17:06:00Z</time>
      </trkpt>
      <trkpt lat="44.82701" lon="5.67187">
        <ele>613</ele>
        <time>2017-11-22T17:06:07Z</time>
      </trkpt>
      <trkpt lat="44.82686" lon="5.6718">
        <ele>613</ele>
        <time>2017-11-22T17:06:17Z</time>
      </trkpt>
      <trkpt lat="44.82657" lon="5.67159">
        <ele>609</ele>
        <time>2017-11-22T17:06:25Z</time>
      </trkpt>
      <trkpt lat="44.82647" lon="5.67146">
        <ele>608</ele>
        <time>2017-11-22T17:06:28Z</time>
      </trkpt>
      <trkpt lat="44.82639" lon="5.67131">
        <ele>607</ele>
        <time>2017-11-22T17:06:37Z</time>
      </trkpt>
      <trkpt lat="44.82626" lon="5.67079">
        <ele>598</ele>
        <time>2017-11-22T17:06:39Z</time>
      </trkpt>
      <trkpt lat="44.82619" lon="5.67057">
        <ele>597</ele>
        <time>2017-11-22T17:06:59Z</time>
      </trkpt>
      <trkpt lat="44.82605" lon="5.67032">
        <ele>597</ele>
        <time>2017-11-22T17:07:16Z</time>
      </trkpt>
      <trkpt lat="44.82554" lon="5.6695">
        <ele>592</ele>
        <time>2017-11-22T17:07:30Z</time>
      </trkpt>
      <trkpt lat="44.8255" lon="5.66939">
        <ele>591</ele>
        <time>2017-11-22T17:07:36Z</time>
      </trkpt>
      <trkpt lat="44.82545" lon="5.6694">
        <ele>592</ele>
        <time>2017-11-22T17:07:38Z</time>
      </trkpt>
      <trkpt lat="44.82522" lon="5.6694">
        <ele>592</ele>
        <time>2017-11-22T17:07:49Z</time>
      </trkpt>
      <trkpt lat="44.82511" lon="5.66938">
        <ele>591</ele>
        <time>2017-11-22T17:08:01Z</time>
      </trkpt>
      <trkpt lat="44.82498" lon="5.6694">
        <ele>591</ele>
        <time>2017-11-22T17:08:09Z</time>
      </trkpt>
      <trkpt lat="44.82476" lon="5.66948">
        <ele>592</ele>
        <time>2017-11-22T17:08:14Z</time>
      </trkpt>
      <trkpt lat="44.82453" lon="5.66965">
        <ele>592</ele>
        <time>2017-11-22T17:08:24Z</time>
      </trkpt>
      <trkpt lat="44.82432" lon="5.66987">
        <ele>593</ele>
        <time>2017-11-22T17:08:41Z</time>
      </trkpt>
      <trkpt lat="44.82378" lon="5.67065">
        <ele>595</ele>
        <time>2017-11-22T17:08:58Z</time>
      </trkpt>
      <trkpt lat="44.82295" lon="5.67177">
        <ele>595</ele>
        <time>2017-11-22T17:09:02Z</time>
      </trkpt>
      <trkpt lat="44.82275" lon="5.672">
        <ele>593</ele>
        <time>2017-11-22T17:09:19Z</time>
      </trkpt>
      <trkpt lat="44.82258" lon="5.67225">
        <ele>593</ele>
        <time>2017-11-22T17:09:37Z</time>
      </trkpt>
      <trkpt lat="44.8225" lon="5.67244">
        <ele>589</ele>
        <time>2017-11-22T17:09:52Z</time>
      </trkpt>
      <trkpt lat="44.82248" lon="5.67258">
        <ele>589</ele>
        <time>2017-11-22T17:09:59Z</time>
      </trkpt>
      <trkpt lat="44.8225" lon="5.67283">
        <ele>590</ele>
        <time>2017-11-22T17:10:06Z</time>
      </trkpt>
      <trkpt lat="44.82253" lon="5.67305">
        <ele>599</ele>
        <time>2017-11-22T17:10:13Z</time>
      </trkpt>
      <trkpt lat="44.82251" lon="5.67321">
        <ele>597</ele>
        <time>2017-11-22T17:10:27Z</time>
      </trkpt>
      <trkpt lat="44.82243" lon="5.67336">
        <ele>594</ele>
        <time>2017-11-22T17:10:43Z</time>
      </trkpt>
      <trkpt lat="44.82224" lon="5.67352">
        <ele>595</ele>
        <time>2017-11-22T17:10:59Z</time>
      </trkpt>
      <trkpt lat="44.82191" lon="5.67375">
        <ele>594</ele>
        <time>2017-11-22T17:11:13Z</time>
      </trkpt>
      <trkpt lat="44.82178" lon="5.67384">
        <ele>594</ele>
        <time>2017-11-22T17:11:31Z</time>
      </trkpt>
      <trkpt lat="44.82169" lon="5.67354">
        <ele>592</ele>
        <time>2017-11-22T17:11:46Z</time>
      </trkpt>
      <trkpt lat="44.82158" lon="5.67314">
        <ele>591</ele>
        <time>2017-11-22T17:12:06Z</time>
      </trkpt>
      <trkpt lat="44.82159" lon="5.67306">
        <ele>592</ele>
        <time>2017-11-22T17:12:08Z</time>
      </trkpt>
      <trkpt lat="44.82165" lon="5.67296">
        <ele>592</ele>
        <time>2017-11-22T17:12:24Z</time>
      </trkpt>
      <trkpt lat="44.82173" lon="5.67284">
        <ele>590</ele>
        <time>2017-11-22T17:12:35Z</time>
      </trkpt>
      <trkpt lat="44.82175" lon="5.67279">
        <ele>590</ele>
        <time>2017-11-22T17:12:55Z</time>
      </trkpt>
      <trkpt lat="44.82181" lon="5.67257">
        <ele>590</ele>
        <time>2017-11-22T17:13:00Z</time>
      </trkpt>
      <trkpt lat="44.82183" lon="5.67236">
        <ele>589</ele>
        <time>2017-11-22T17:13:16Z</time>
      </trkpt>
      <trkpt lat="44.82183" lon="5.67218">
        <ele>588</ele>
        <time>2017-11-22T17:13:24Z</time>
      </trkpt>
      <trkpt lat="44.82179" lon="5.67205">
        <ele>588</ele>
        <time>2017-11-22T17:13:35Z</time>
      </trkpt>
      <trkpt lat="44.82171" lon="5.67193">
        <ele>587</ele>
        <time>2017-11-22T17:13:46Z</time>
      </trkpt>
      <trkpt lat="44.82152" lon="5.67182">
        <ele>591</ele>
        <time>2017-11-22T17:13:49Z</time>
      </trkpt>
      <trkpt lat="44.82132" lon="5.67175">
        <ele>593</ele>
        <time>2017-11-22T17:14:04Z</time>
      </trkpt>
      <trkpt lat="44.82108" lon="5.67165">
        <ele>593</ele>
        <time>2017-11-22T17:14:06Z</time>
      </trkpt>
      <trkpt lat="44.82102" lon="5.67158">
        <ele>594</ele>
        <time>2017-11-22T17:14:12Z</time>
      </trkpt>
      <trkpt lat="44.82093" lon="5.67144">
        <ele>594</ele>
        <time>2017-11-22T17:14:16Z</time>
      </trkpt>
      <trkpt lat="44.8209" lon="5.67126">
        <ele>593</ele>
        <time>2017-11-22T17:14:34Z</time>
      </trkpt>
      <trkpt lat="44.82089" lon="5.67111">
        <ele>593</ele>
        <time>2017-11-22T17:14:46Z</time>
      </trkpt>
      <trkpt lat="44.82094" lon="5.67092">
        <ele>594</ele>
        <time>2017-11-22T17:14:53Z</time>
      </trkpt>
      <trkpt lat="44.82098" lon="5.67078">
        <ele>598</ele>
        <time>2017-11-22T17:15:04Z</time>
      </trkpt>
      <trkpt lat="44.82105" lon="5.67069">
        <ele>599</ele>
        <time>2017-11-22T17:15:12Z</time>
      </trkpt>
      <trkpt lat="44.82133" lon="5.67067">
        <ele>599</ele>
        <time>2017-11-22T17:15:22Z</time>
      </trkpt>
      <trkpt lat="44.82142" lon="5.67063">
        <ele>599</ele>
        <time>2017-11-22T17:15:38Z</time>
      </trkpt>
      <trkpt lat="44.82149" lon="5.67051">
        <ele>600</ele>
        <time>2017-11-22T17:15:50Z</time>
      </trkpt>
      <trkpt lat="44.82154" lon="5.67036">
        <ele>602</ele>
        <time>2017-11-22T17:15:54Z</time>
      </trkpt>
      <trkpt lat="44.8216" lon="5.67025">
        <ele>603</ele>
        <time>2017-11-22T17:16:03Z</time>
      </trkpt>
      <trkpt lat="44.82181" lon="5.67009">
        <ele>599</ele>
        <time>2017-11-22T17:16:14Z</time>
      </trkpt>
      <trkpt lat="44.82186" lon="5.67004">
        <ele>599</ele>
        <time>2017-11-22T17:16:25Z</time>
      </trkpt>
      <trkpt lat="44.8219" lon="5.66996">
        <ele>605</ele>
        <time>2017-11-22T17:16:39Z</time>
      </trkpt>
      <trkpt lat="44.82191" lon="5.66982">
        <ele>606</ele>
        <time>2017-11-22T17:16:56Z</time>
      </trkpt>
      <trkpt lat="44.82179" lon="5.66954">
        <ele>609</ele>
        <time>2017-11-22T17:17:02Z</time>
      </trkpt>
      <trkpt lat="44.82176" lon="5.66938">
        <ele>612</ele>
        <time>2017-11-22T17:17:21Z</time>
      </trkpt>
      <trkpt lat="44.82177" lon="5.6693">
        <ele>614</ele>
        <time>2017-11-22T17:17:38Z</time>
      </trkpt>
      <trkpt lat="44.8219" lon="5.66896">
        <ele>621</ele>
        <time>2017-11-22T17:17:44Z</time>
      </trkpt>
      <trkpt lat="44.822" lon="5.66873">
        <ele>623</ele>
        <time>2017-11-22T17:17:52Z</time>
      </trkpt>
      <trkpt lat="44.82214" lon="5.66842">
        <ele>623</ele>
        <time>2017-11-22T17:18:06Z</time>
      </trkpt>
      <trkpt lat="44.82224" lon="5.6683">
        <ele>631</ele>
        <time>2017-11-22T17:18:20Z</time>
      </trkpt>
      <trkpt lat="44.82239" lon="5.6682">
        <ele>629</ele>
        <time>2017-11-22T17:18:25Z</time>
      </trkpt>
      <trkpt lat="44.82263" lon="5.66805">
        <ele>620</ele>
        <time>2017-11-22T17:18:38Z</time>
      </trkpt>
      <trkpt lat="44.82293" lon="5.66792">
        <ele>618</ele>
        <time>2017-11-22T17:18:42Z</time>
      </trkpt>
      <trkpt lat="44.8232" lon="5.66785">
        <ele>616</ele>
        <time>2017-11-22T17:18:52Z</time>
      </trkpt>
      <trkpt lat="44.82347" lon="5.66785">
        <ele>604</ele>
        <time>2017-11-22T17:19:12Z</time>
      </trkpt>
      <trkpt lat="44.82353" lon="5.66779">
        <ele>604</ele>
        <time>2017-11-22T17:19:20Z</time>
      </trkpt>
      <trkpt lat="44.82351" lon="5.66774">
        <ele>604</ele>
        <time>2017-11-22T17:19:28Z</time>
      </trkpt>
      <trkpt lat="44.82346" lon="5.66772">
        <ele>605</ele>
        <time>2017-11-22T17:19:37Z</time>
      </trkpt>
      <trkpt lat="44.82329" lon="5.66773">
        <ele>615</ele>
        <time>2017-11-22T17:19:48Z</time>
      </trkpt>
      <trkpt lat="44.82317" lon="5.66772">
        <ele>616</ele>
        <time>2017-11-22T17:20:04Z</time>
      </trkpt>
      <trkpt lat="44.82309" lon="5.66767">
        <ele>617</ele>
        <time>2017-11-22T17:20:16Z</time>
      </trkpt>
      <trkpt lat="44.82293" lon="5.66754">
        <ele>620</ele>
        <time>2017-11-22T17:20:28Z</time>
      </trkpt>
      <trkpt lat="44.82284" lon="5.66748">
        <ele>624</ele>
        <time>2017-11-22T17:20:31Z</time>
      </trkpt>
      <trkpt lat="44.82264" lon="5.66741">
        <ele>629</ele>
        <time>2017-11-22T17:20:39Z</time>
      </trkpt>
      <trkpt lat="44.82245" lon="5.66744">
        <ele>639</ele>
        <time>2017-11-22T17:20:50Z</time>
      </trkpt>
      <trkpt lat="44.82232" lon="5.6675">
        <ele>638</ele>
        <time>2017-11-22T17:21:03Z</time>
      </trkpt>
      <trkpt lat="44.82227" lon="5.66749">
        <ele>643</ele>
        <time>2017-11-22T17:21:17Z</time>
      </trkpt>
      <trkpt lat="44.82225" lon="5.66741">
        <ele>644</ele>
        <time>2017-11-22T17:21:23Z</time>
      </trkpt>
      <trkpt lat="44.82241" lon="5.66722">
        <ele>643</ele>
        <time>2017-11-22T17:21:38Z</time>
      </trkpt>
      <trkpt lat="44.82246" lon="5.66706">
        <ele>643</ele>
        <time>2017-11-22T17:21:56Z</time>
      </trkpt>
      <trkpt lat="44.82245" lon="5.66674">
        <ele>639</ele>
        <time>2017-11-22T17:22:14Z</time>
      </trkpt>
      <trkpt lat="44.82237" lon="5.6664">
        <ele>639</ele>
        <time>2017-11-22T17:22:26Z</time>
      </trkpt>
      <trkpt lat="44.8223" lon="5.66623">
        <ele>639</ele>
        <time>2017-11-22T17:22:33Z</time>
      </trkpt>
      <trkpt lat="44.82217" lon="5.66609">
        <ele>639</ele>
        <time>2017-11-22T17:22:44Z</time>
      </trkpt>
      <trkpt lat="44.82205" lon="5.66606">
        <ele>641</ele>
        <time>2017-11-22T17:22:57Z</time>
      </trkpt>
      <trkpt lat="44.82196" lon="5.66606">
        <ele>642</ele>
        <time>2017-11-22T17:23:07Z</time>
      </trkpt>
      <trkpt lat="44.82175" lon="5.66609">
        <ele>644</ele>
        <time>2017-11-22T17:23:25Z</time>
      </trkpt>
      <trkpt lat="44.82156" lon="5.6661">
        <ele>655</ele>
        <time>2017-11-22T17:23:39Z</time>
      </trkpt>
      <trkpt lat="44.8214" lon="5.66605">
        <ele>656</ele>
        <time>2017-11-22T17:23:50Z</time>
      </trkpt>
      <trkpt lat="44.82129" lon="5.66598">
        <ele>657</ele>
        <time>2017-11-22T17:23:54Z</time>
      </trkpt>
      <trkpt lat="44.82123" lon="5.66591">
        <ele>658</ele>
        <time>2017-11-22T17:24:00Z</time>
      </trkpt>
      <trkpt lat="44.82109" lon="5.66573">
        <ele>654</ele>
        <time>2017-11-22T17:24:03Z</time>
      </trkpt>
      <trkpt lat="44.82099" lon="5.66558">
        <ele>654</ele>
        <time>2017-11-22T17:24:05Z</time>
      </trkpt>
      <trkpt lat="44.82085" lon="5.66528">
        <ele>654</ele>
        <time>2017-11-22T17:24:25Z</time>
      </trkpt>
      <trkpt lat="44.82069" lon="5.6651">
        <ele>664</ele>
        <time>2017-11-22T17:24:42Z</time>
      </trkpt>
      <trkpt lat="44.82064" lon="5.66501">
        <ele>664</ele>
        <time>2017-11-22T17:24:50Z</time>
      </trkpt>
      <trkpt lat="44.82062" lon="5.66485">
        <ele>666</ele>
        <time>2017-11-22T17:25:09Z</time>
      </trkpt>
      <trkpt lat="44.82063" lon="5.66471">
        <ele>667</ele>
        <time>2017-11-22T17:25:14Z</time>
      </trkpt>
      <trkpt lat="44.82067" lon="5.6645">
        <ele>666</ele>
        <time>2017-11-22T17:25:20Z</time>
      </trkpt>
      <trkpt lat="44.82068" lon="5.66422">
        <ele>663</ele>
        <time>2017-11-22T17:25:31Z</time>
      </trkpt>
      <trkpt lat="44.82062" lon="5.66387">
        <ele>666</ele>
        <time>2017-11-22T17:25:33Z</time>
      </trkpt>
      <trkpt lat="44.82044" lon="5.66341">
        <ele>668</ele>
        <time>2017-11-22T17:25:47Z</time>
      </trkpt>
      <trkpt lat="44.82021" lon="5.66293">
        <ele>669</ele>
        <time>2017-11-22T17:26:07Z</time>
      </trkpt>
      <trkpt lat="44.82002" lon="5.66245">
        <ele>674</ele>
        <time>2017-11-22T17:26:09Z</time>
      </trkpt>
      <trkpt lat="44.8199" lon="5.66228">
        <ele>675</ele>
        <time>2017-11-22T17:26:19Z</time>
      </trkpt>
      <trkpt lat="44.81972" lon="5.66213">
        <ele>673</ele>
        <time>2017-11-22T17:26:33Z</time>
      </trkpt>
      <trkpt lat="44.81958" lon="5.66202">
        <ele>672</ele>
        <time>2017-11-22T17:26:36Z</time>
      </trkpt>
      <trkpt lat="44.81949" lon="5.66199">
        <ele>672</ele>
        <time>2017-11-22T17:26:44Z</time>
      </trkpt>
      <trkpt lat="44.81936" lon="5.66201">
        <ele>673</ele>
        <time>2017-11-22T17:26:48Z</time>
      </trkpt>
      <trkpt lat="44.81904" lon="5.6623">
        <ele>680</ele>
        <time>2017-11-22T17:27:00Z</time>
      </trkpt>
      <trkpt lat="44.81887" lon="5.66242">
        <ele>680</ele>
        <time>2017-11-22T17:27:14Z</time>
      </trkpt>
      <trkpt lat="44.8187" lon="5.66247">
        <ele>680</ele>
        <time>2017-11-22T17:27:24Z</time>
      </trkpt>
      <trkpt lat="44.81838" lon="5.66248">
        <ele>683</ele>
        <time>2017-11-22T17:27:33Z</time>
      </trkpt>
      <trkpt lat="44.81813" lon="5.66248">
        <ele>683</ele>
        <time>2017-11-22T17:27:44Z</time>
      </trkpt>
      <trkpt lat="44.8179" lon="5.66245">
        <ele>683</ele>
        <time>2017-11-22T17:27:47Z</time>
      </trkpt>
      <trkpt lat="44.81731" lon="5.66239">
        <ele>689</ele>
        <time>2017-11-22T17:28:04Z</time>
      </trkpt>
      <trkpt lat="44.81707" lon="5.66237">
        <ele>691</ele>
        <time>2017-11-22T17:28:24Z</time>
      </trkpt>
      <trkpt lat="44.81695" lon="5.66232">
        <ele>692</ele>
        <time>2017-11-22T17:28:43Z</time>
      </trkpt>
      <trkpt lat="44.81679" lon="5.66214">
        <ele>693</ele>
        <time>2017-11-22T17:28:46Z</time>
      </trkpt>
      <trkpt lat="44.81668" lon="5.66184">
        <ele>694</ele>
        <time>2017-11-22T17:29:03Z</time>
      </trkpt>
      <trkpt lat="44.81663" lon="5.6617">
        <ele>698</ele>
        <time>2017-11-22T17:29:15Z</time>
      </trkpt>
      <trkpt lat="44.8166" lon="5.66151">
        <ele>700</ele>
        <time>2017-11-22T17:29:27Z</time>
      </trkpt>
      <trkpt lat="44.81657" lon="5.66107">
        <ele>702</ele>
        <time>2017-11-22T17:29:46Z</time>
      </trkpt>
      <trkpt lat="44.81656" lon="5.66088">
        <ele>700</ele>
        <time>2017-11-22T17:29:54Z</time>
      </trkpt>
      <trkpt lat="44.8165" lon="5.6607">
        <ele>701</ele>
        <time>2017-11-22T17:30:11Z</time>
      </trkpt>
      <trkpt lat="44.81631" lon="5.6604">
        <ele>702</ele>
        <time>2017-11-22T17:30:22Z</time>
      </trkpt>
      <trkpt lat="44.81617" lon="5.66025">
        <ele>703</ele>
        <time>2017-11-22T17:30:25Z</time>
      </trkpt>
      <trkpt lat="44.81605" lon="5.66016">
        <ele>704</ele>
        <time>2017-11-22T17:30:45Z</time>
      </trkpt>
      <trkpt lat="44.81592" lon="5.66012">
        <ele>705</ele>
        <time>2017-11-22T17:31:04Z</time>
      </trkpt>
      <trkpt lat="44.81571" lon="5.66018">
        <ele>709</ele>
        <time>2017-11-22T17:31:21Z</time>
      </trkpt>
      <trkpt lat="44.81518" lon="5.66036">
        <ele>711</ele>
        <time>2017-11-22T17:31:39Z</time>
      </trkpt>
      <trkpt lat="44.81468" lon="5.66056">
        <ele>714</ele>
        <time>2017-11-22T17:31:54Z</time>
      </trkpt>
      <trkpt lat="44.81443" lon="5.66063">
        <ele>715</ele>
        <time>2017-11-22T17:31:57Z</time>
      </trkpt>
      <trkpt lat="44.81432" lon="5.66064">
        <ele>716</ele>
        <time>2017-11-22T17:32:11Z</time>
      </trkpt>
      <trkpt lat="44.81408" lon="5.66056">
        <ele>717</ele>
        <time>2017-11-22T17:32:30Z</time>
      </trkpt>
      <trkpt lat="44.81367" lon="5.66036">
        <ele>717</ele>
        <time>2017-11-22T17:32:32Z</time>
      </trkpt>
      <trkpt lat="44.81346" lon="5.66029">
        <ele>717</ele>
        <time>2017-11-22T17:32:47Z</time>
      </trkpt>
      <trkpt lat="44.81334" lon="5.6603">
        <ele>717</ele>
        <time>2017-11-22T17:32:59Z</time>
      </trkpt>
      <trkpt lat="44.81313" lon="5.66036">
        <ele>719</ele>
        <time>2017-11-22T17:33:14Z</time>
      </trkpt>
      <trkpt lat="44.81266" lon="5.66054">
        <ele>721</ele>
        <time>2017-11-22T17:33:25Z</time>
      </trkpt>
      <trkpt lat="44.81224" lon="5.66071">
        <ele>721</ele>
        <time>2017-11-22T17:33:43Z</time>
      </trkpt>
      <trkpt lat="44.81195" lon="5.66077">
        <ele>721</ele>
        <time>2017-11-22T17:33:48Z</time>
      </trkpt>
      <trkpt lat="44.8117" lon="5.66075">
        <ele>723</ele>
        <time>2017-11-22T17:34:08Z</time>
      </trkpt>
      <trkpt lat="44.81139" lon="5.66068">
        <ele>724</ele>
        <time>2017-11-22T17:34:16Z</time>
      </trkpt>
      <trkpt lat="44.81088" lon="5.66056">
        <ele>726</ele>
        <time>2017-11-22T17:34:22Z</time>
      </trkpt>
      <trkpt lat="44.81053" lon="5.66044">
        <ele>730</ele>
        <time>2017-11-22T17:34:32Z</time>
      </trkpt>
      <trkpt lat="44.81038" lon="5.66034">
        <ele>730</ele>
        <time>2017-11-22T17:34:47Z</time>
      </trkpt>
      <trkpt lat="44.81006" lon="5.66008">
        <ele>729</ele>
        <time>2017-11-22T17:34:49Z</time>
      </trkpt>
      <trkpt lat="44.80979" lon="5.6599">
        <ele>729</ele>
        <time>2017-11-22T17:35:05Z</time>
      </trkpt>
      <trkpt lat="44.8094" lon="5.65975">
        <ele>729</ele>
        <time>2017-11-22T17:35:15Z</time>
      </trkpt>
      <trkpt lat="44.80887" lon="5.65956">
        <ele>732</ele>
        <time>2017-11-22T17:35:28Z</time>
      </trkpt>
      <trkpt lat="44.80843" lon="5.65943">
        <ele>733</ele>
        <time>2017-11-22T17:35:36Z</time>
      </trkpt>
      <trkpt lat="44.80802" lon="5.65932">
        <ele>736</ele>
        <time>2017-11-22T17:35:51Z</time>
      </trkpt>
      <trkpt lat="44.80784" lon="5.65926">
        <ele>736</ele>
        <time>2017-11-22T17:36:04Z</time>
      </trkpt>
      <trkpt lat="44.80762" lon="5.65913">
        <ele>736</ele>
        <time>2017-11-22T17:36:08Z</time>
      </trkpt>
      <trkpt lat="44.80744" lon="5.65897">
        <ele>737</ele>
        <time>2017-11-22T17:36:24Z</time>
      </trkpt>
      <trkpt lat="44.80719" lon="5.65865">
        <ele>737</ele>
        <time>2017-11-22T17:36:31Z</time>
      </trkpt>
      <trkpt lat="44.80669" lon="5.65794">
        <ele>735</ele>
        <time>2017-11-22T17:36:48Z</time>
      </trkpt>
      <trkpt lat="44.80648" lon="5.65767">
        <ele>738</ele>
        <time>2017-11-22T17:36:55Z</time>
      </trkpt>
      <trkpt lat="44.80623" lon="5.65747">
        <ele>738</ele>
        <time>2017-11-22T17:37:14Z</time>
      </trkpt>
      <trkpt lat="44.80565" lon="5.65706">
        <ele>743</ele>
        <time>2017-11-22T17:37:30Z</time>
      </trkpt>
      <trkpt lat="44.80535" lon="5.65685">
        <ele>744</ele>
        <time>2017-11-22T17:37:47Z</time>
      </trkpt>
      <trkpt lat="44.80505" lon="5.65662">
        <ele>745</ele>
        <time>2017-11-22T17:37:50Z</time>
      </trkpt>
      <trkpt lat="44.80487" lon="5.6564">
        <ele>745</ele>
        <time>2017-11-22T17:37:57Z</time>
      </trkpt>
      <trkpt lat="44.80471" lon="5.65616">
        <ele>745</ele>
        <time>2017-11-22T17:38:15Z</time>
      </trkpt>
      <trkpt lat="44.80452" lon="5.65588">
        <ele>746</ele>
        <time>2017-11-22T17:38:29Z</time>
      </trkpt>
      <trkpt lat="44.80427" lon="5.65546">
        <ele>748</ele>
        <time>2017-11-22T17:38:33Z</time>
      </trkpt>
      <trkpt lat="44.80411" lon="5.65502">
        <ele>751</ele>
        <time>2017-11-22T17:38:48Z</time>
      </trkpt>
      <trkpt lat="44.80387" lon="5.65415">
        <ele>758</ele>
        <time>2017-11-22T17:39:05Z</time>
      </trkpt>
      <trkpt lat="44.80373" lon="5.65379">
        <ele>759</ele>
        <time>2017-11-22T17:39:19Z</time>
      </trkpt>
      <trkpt lat="44.80362" lon="5.65361">
        <ele>760</ele>
        <time>2017-11-22T17:39:32Z</time>
      </trkpt>
      <trkpt lat="44.80354" lon="5.6535">
        <ele>761</ele>
        <time>2017-11-22T17:39:40Z</time>
      </trkpt>
      <trkpt lat="44.80323" lon="5.65327">
        <ele>766</ele>
        <time>2017-11-22T17:39:44Z</time>
      </trkpt>
      <trkpt lat="44.80226" lon="5.65269">
        <ele>769</ele>
        <time>2017-11-22T17:40:02Z</time>
      </trkpt>
      <trkpt lat="44.80212" lon="5.65259">
        <ele>769</ele>
        <time>2017-11-22T17:40:13Z</time>
      </trkpt>
      <trkpt lat="44.80201" lon="5.65241">
        <ele>774</ele>
        <time>2017-11-22T17:40:17Z</time>
      </trkpt>
      <trkpt lat="44.80194" lon="5.65212">
        <ele>774</ele>
        <time>2017-11-22T17:40:26Z</time>
      </trkpt>
      <trkpt lat="44.80193" lon="5.65181">
        <ele>776</ele>
        <time>2017-11-22T17:40:29Z</time>
      </trkpt>
      <trkpt lat="44.80203" lon="5.65116">
        <ele>779</ele>
        <time>2017-11-22T17:40:37Z</time>
      </trkpt>
      <trkpt lat="44.80213" lon="5.65024">
        <ele>783</ele>
        <time>2017-11-22T17:40:41Z</time>
      </trkpt>
      <trkpt lat="44.80213" lon="5.64984">
        <ele>786</ele>
        <time>2017-11-22T17:40:49Z</time>
      </trkpt>
      <trkpt lat="44.8021" lon="5.64936">
        <ele>788</ele>
        <time>2017-11-22T17:41:00Z</time>
      </trkpt>
      <trkpt lat="44.80192" lon="5.64826">
        <ele>789</ele>
        <time>2017-11-22T17:41:16Z</time>
      </trkpt>
      <trkpt lat="44.80182" lon="5.64787">
        <ele>788</ele>
        <time>2017-11-22T17:41:30Z</time>
      </trkpt>
      <trkpt lat="44.80171" lon="5.64769">
        <ele>788</ele>
        <time>2017-11-22T17:41:50Z</time>
      </trkpt>
      <trkpt lat="44.80122" lon="5.64704">
        <ele>788</ele>
        <time>2017-11-22T17:42:10Z</time>
      </trkpt>
      <trkpt lat="44.80101" lon="5.64678">
        <ele>787</ele>
        <time>2017-11-22T17:42:13Z</time>
      </trkpt>
      <trkpt lat="44.80083" lon="5.64659">
        <ele>785</ele>
        <time>2017-11-22T17:42:28Z</time>
      </trkpt>
      <trkpt lat="44.80045" lon="5.64627">
        <ele>783</ele>
        <time>2017-11-22T17:42:38Z</time>
      </trkpt>
      <trkpt lat="44.80017" lon="5.64585">
        <ele>783</ele>
        <time>2017-11-22T17:42:48Z</time>
      </trkpt>
      <trkpt lat="44.80005" lon="5.64561">
        <ele>782</ele>
        <time>2017-11-22T17:43:01Z</time>
      </trkpt>
      <trkpt lat="44.79999" lon="5.6455">
        <ele>786</ele>
        <time>2017-11-22T17:43:09Z</time>
      </trkpt>
      <trkpt lat="44.79998" lon="5.64561">
        <ele>786</ele>
        <time>2017-11-22T17:43:26Z</time>
      </trkpt>
      <trkpt lat="44.79995" lon="5.64578">
        <ele>785</ele>
        <time>2017-11-22T17:43:30Z</time>
      </trkpt>
      <trkpt lat="44.79991" lon="5.6459">
        <ele>783</ele>
        <time>2017-11-22T17:43:36Z</time>
      </trkpt>
      <trkpt lat="44.79989" lon="5.64598">
        <ele>782</ele>
        <time>2017-11-22T17:43:50Z</time>
      </trkpt>
      <trkpt lat="44.79977" lon="5.64602">
        <ele>782</ele>
        <time>2017-11-22T17:44:07Z</time>
      </trkpt>
      <trkpt lat="44.79951" lon="5.64603">
        <ele>781</ele>
        <time>2017-11-22T17:44:21Z</time>
      </trkpt>
      <trkpt lat="44.79876" lon="5.64591">
        <ele>776</ele>
        <time>2017-11-22T17:44:33Z</time>
      </trkpt>
      <trkpt lat="44.7986" lon="5.64582">
        <ele>782</ele>
        <time>2017-11-22T17:44:39Z</time>
      </trkpt>
      <trkpt lat="44.79843" lon="5.64568">
        <ele>781</ele>
        <time>2017-11-22T17:44:49Z</time>
      </trkpt>
      <trkpt lat="44.79828" lon="5.64548">
        <ele>774</ele>
        <time>2017-11-22T17:44:52Z</time>
      </trkpt>
      <trkpt lat="44.79815" lon="5.64518">
        <ele>776</ele>
        <time>2017-11-22T17:45:03Z</time>
      </trkpt>
      <trkpt lat="44.79808" lon="5.64497">
        <ele>780</ele>
        <time>2017-11-22T17:45:12Z</time>
      </trkpt>
      <trkpt lat="44.79801" lon="5.64434">
        <ele>779</ele>
        <time>2017-11-22T17:45:29Z</time>
      </trkpt>
      <trkpt lat="44.79793" lon="5.64398">
        <ele>779</ele>
        <time>2017-11-22T17:45:45Z</time>
      </trkpt>
      <trkpt lat="44.79786" lon="5.64382">
        <ele>778</ele>
        <time>2017-11-22T17:45:55Z</time>
      </trkpt>
      <trkpt lat="44.79775" lon="5.64365">
        <ele>777</ele>
        <time>2017-11-22T17:46:03Z</time>
      </trkpt>
      <trkpt lat="44.79761" lon="5.64351">
        <ele>776</ele>
        <time>2017-11-22T17:46:14Z</time>
      </trkpt>
      <trkpt lat="44.79743" lon="5.64342">
        <ele>770</ele>
        <time>2017-11-22T17:46:23Z</time>
      </trkpt>
      <trkpt lat="44.79713" lon="5.64334">
        <ele>767</ele>
        <time>2017-11-22T17:46:35Z</time>
      </trkpt>
      <trkpt lat="44.79704" lon="5.64329">
        <ele>772</ele>
        <time>2017-11-22T17:46:50Z</time>
      </trkpt>
      <trkpt lat="44.79692" lon="5.64321">
        <ele>771</ele>
        <time>2017-11-22T17:46:52Z</time>
      </trkpt>
      <trkpt lat="44.7968" lon="5.64308">
        <ele>771</ele>
        <time>2017-11-22T17:46:57Z</time>
      </trkpt>
      <trkpt lat="44.79664" lon="5.64299">
        <ele>768</ele>
        <time>2017-11-22T17:47:16Z</time>
      </trkpt>
      <trkpt lat="44.79654" lon="5.64299">
        <ele>768</ele>
        <time>2017-11-22T17:47:28Z</time>
      </trkpt>
      <trkpt lat="44.79625" lon="5.64307">
        <ele>767</ele>
        <time>2017-11-22T17:47:46Z</time>
      </trkpt>
      <trkpt lat="44.79604" lon="5.64311">
        <ele>765</ele>
        <time>2017-11-22T17:48:04Z</time>
      </trkpt>
      <trkpt lat="44.7959" lon="5.64304">
        <ele>765</ele>
        <time>2017-11-22T17:48:08Z</time>
      </trkpt>
      <trkpt lat="44.79572" lon="5.64286">
        <ele>764</ele>
        <time>2017-11-22T17:48:14Z</time>
      </trkpt>
      <trkpt lat="44.79556" lon="5.64273">
        <ele>765</ele>
        <time>2017-11-22T17:48:23Z</time>
      </trkpt>
      <trkpt lat="44.79526" lon="5.64266">
        <ele>764</ele>
        <time>2017-11-22T17:48:35Z</time>
      </trkpt>
      <trkpt lat="44.79491" lon="5.64262">
        <ele>763</ele>
        <time>2017-11-22T17:48:46Z</time>
      </trkpt>
      <trkpt lat="44.79469" lon="5.64256">
        <ele>761</ele>
        <time>2017-11-22T17:48:59Z</time>
      </trkpt>
      <trkpt lat="44.79442" lon="5.64239">
        <ele>766</ele>
        <time>2017-11-22T17:49:06Z</time>
      </trkpt>
      <trkpt lat="44.79415" lon="5.64221">
        <ele>763</ele>
        <time>2017-11-22T17:49:16Z</time>
      </trkpt>
      <trkpt lat="44.79407" lon="5.64218">
        <ele>764</ele>
        <time>2017-11-22T17:49:18Z</time>
      </trkpt>
      <trkpt lat="44.79394" lon="5.64218">
        <ele>764</ele>
        <time>2017-11-22T17:49:20Z</time>
      </trkpt>
      <trkpt lat="44.79366" lon="5.64222">
        <ele>764</ele>
        <time>2017-11-22T17:49:30Z</time>
      </trkpt>
      <trkpt lat="44.79354" lon="5.64228">
        <ele>763</ele>
        <time>2017-11-22T17:49:48Z</time>
      </trkpt>
      <trkpt lat="44.7935" lon="5.64239">
        <ele>763</ele>
        <time>2017-11-22T17:50:06Z</time>
      </trkpt>
      <trkpt lat="44.79347" lon="5.64268">
        <ele>764</ele>
        <time>2017-11-22T17:50:17Z</time>
      </trkpt>
      <trkpt lat="44.79348" lon="5.64281">
        <ele>764</ele>
        <time>2017-11-22T17:50:27Z</time>
      </trkpt>
      <trkpt lat="44.79353" lon="5.6429">
        <ele>765</ele>
        <time>2017-11-22T17:50:37Z</time>
      </trkpt>
      <trkpt lat="44.79412" lon="5.6435">
        <ele>766</ele>
        <time>2017-11-22T17:50:49Z</time>
      </trkpt>
      <trkpt lat="44.79462" lon="5.64402">
        <ele>764</ele>
        <time>2017-11-22T17:51:00Z</time>
      </trkpt>
      <trkpt lat="44.79479" lon="5.64427">
        <ele>767</ele>
        <time>2017-11-22T17:51:02Z</time>
      </trkpt>
      <trkpt lat="44.79493" lon="5.64463">
        <ele>768</ele>
        <time>2017-11-22T17:51:05Z</time>
      </trkpt>
      <trkpt lat="44.79501" lon="5.64504">
        <ele>767</ele>
        <time>2017-11-22T17:51:08Z</time>
      </trkpt>
      <trkpt lat="44.79507" lon="5.64546">
        <ele>764</ele>
        <time>2017-11-22T17:51:22Z</time>
      </trkpt>
      <trkpt lat="44.79509" lon="5.6458">
        <ele>768</ele>
        <time>2017-11-22T17:51:33Z</time>
      </trkpt>
      <trkpt lat="44.79503" lon="5.6465">
        <ele>770</ele>
        <time>2017-11-22T17:51:53Z</time>
      </trkpt>
      <trkpt lat="44.79486" lon="5.6476">
        <ele>772</ele>
        <time>2017-11-22T17:52:10Z</time>
      </trkpt>
      <trkpt lat="44.79468" lon="5.64878">
        <ele>771</ele>
        <time>2017-11-22T17:52:22Z</time>
      </trkpt>
      <trkpt lat="44.79445" lon="5.6502">
        <ele>773</ele>
        <time>2017-11-22T17:52:35Z</time>
      </trkpt>
      <trkpt lat="44.79442" lon="5.65065">
        <ele>773</ele>
        <time>2017-11-22T17:52:55Z</time>
      </trkpt>
      <trkpt lat="44.79446" lon="5.6514">
        <ele>773</ele>
        <time>2017-11-22T17:53:08Z</time>
      </trkpt>
      <trkpt lat="44.79458" lon="5.65281">
        <ele>772</ele>
        <time>2017-11-22T17:53:10Z</time>
      </trkpt>
      <trkpt lat="44.79458" lon="5.65325">
        <ele>773</ele>
        <time>2017-11-22T17:53:25Z</time>
      </trkpt>
      <trkpt lat="44.79455" lon="5.65378">
        <ele>774</ele>
        <time>2017-11-22T17:53:29Z</time>
      </trkpt>
      <trkpt lat="44.79437" lon="5.65538">
        <ele>776</ele>
        <time>2017-11-22T17:53:35Z</time>
      </trkpt>
      <trkpt lat="44.79437" lon="5.65568">
        <ele>776</ele>
        <time>2017-11-22T17:53:54Z</time>
      </trkpt>
      <trkpt lat="44.79441" lon="5.65603">
        <ele>779</ele>
        <time>2017-11-22T17:54:03Z</time>
      </trkpt>
      <trkpt lat="44.79463" lon="5.65679">
        <ele>783</ele>
        <time>2017-11-22T17:54:16Z</time>
      </trkpt>
      <trkpt lat="44.79476" lon="5.65725">
        <ele>785</ele>
        <time>2017-11-22T17:54:24Z</time>
      </trkpt>
      <trkpt lat="44.79478" lon="5.65739">
        <ele>785</ele>
        <time>2017-11-22T17:54:44Z</time>
      </trkpt>
      <trkpt lat="44.79479" lon="5.65754">
        <ele>787</ele>
        <time>2017-11-22T17:54:59Z</time>
      </trkpt>
      <trkpt lat="44.79475" lon="5.65784">
        <ele>788</ele>
        <time>2017-11-22T17:55:12Z</time>
      </trkpt>
      <trkpt lat="44.79468" lon="5.65817">
        <ele>788</ele>
        <time>2017-11-22T17:55:17Z</time>
      </trkpt>
      <trkpt lat="44.79454" lon="5.65851">
        <ele>788</ele>
        <time>2017-11-22T17:55:19Z</time>
      </trkpt>
      <trkpt lat="44.79442" lon="5.65869">
        <ele>788</ele>
        <time>2017-11-22T17:55:30Z</time>
      </trkpt>
      <trkpt lat="44.79423" lon="5.65895">
        <ele>788</ele>
        <time>2017-11-22T17:55:33Z</time>
      </trkpt>
      <trkpt lat="44.79441" lon="5.65923">
        <ele>786</ele>
        <time>2017-11-22T17:55:38Z</time>
      </trkpt>
      <trkpt lat="44.79446" lon="5.65932">
        <ele>785</ele>
        <time>2017-11-22T17:55:54Z</time>
      </trkpt>
      <trkpt lat="44.79447" lon="5.65938">
        <ele>785</ele>
        <time>2017-11-22T17:56:07Z</time>
      </trkpt>
      <trkpt lat="44.79434" lon="5.65947">
        <ele>785</ele>
        <time>2017-11-22T17:56:17Z</time>
      </trkpt>
      <trkpt lat="44.79402" lon="5.65965">
        <ele>779</ele>
        <time>2017-11-22T17:56:34Z</time>
      </trkpt>
      <trkpt lat="44.79389" lon="5.65967">
        <ele>778</ele>
        <time>2017-11-22T17:56:37Z</time>
      </trkpt>
      <trkpt lat="44.79362" lon="5.65955">
        <ele>777</ele>
        <time>2017-11-22T17:56:40Z</time>
      </trkpt>
      <trkpt lat="44.79345" lon="5.65944">
        <ele>777</ele>
        <time>2017-11-22T17:56:53Z</time>
      </trkpt>
      <trkpt lat="44.79315" lon="5.65921">
        <ele>769</ele>
        <time>2017-11-22T17:56:58Z</time>
      </trkpt>
      <trkpt lat="44.79289" lon="5.65888">
        <ele>771</ele>
        <time>2017-11-22T17:57:10Z</time>
      </trkpt>
      <trkpt lat="44.79243" lon="5.65809">
        <ele>765</ele>
        <time>2017-11-22T17:57:22Z</time>
      </trkpt>
      <trkpt lat="44.79178" lon="5.65687">
        <ele>767</ele>
        <time>2017-11-22T17:57:33Z</time>
      </trkpt>
      <trkpt lat="44.79169" lon="5.65668">
        <ele>764</ele>
        <time>2017-11-22T17:57:40Z</time>
      </trkpt>
      <trkpt lat="44.79164" lon="5.6565">
        <ele>761</ele>
        <time>2017-11-22T17:58:00Z</time>
      </trkpt>
      <trkpt lat="44.79159" lon="5.65618">
        <ele>762</ele>
        <time>2017-11-22T17:58:17Z</time>
      </trkpt>
      <trkpt lat="44.79145" lon="5.65544">
        <ele>766</ele>
        <time>2017-11-22T17:58:23Z</time>
      </trkpt>
      <trkpt lat="44.79131" lon="5.6548">
        <ele>770</ele>
        <time>2017-11-22T17:58:41Z</time>
      </trkpt>
      <trkpt lat="44.79125" lon="5.65463">
        <ele>770</ele>
        <time>2017-11-22T17:58:51Z</time>
      </trkpt>
      <trkpt lat="44.79119" lon="5.65456">
        <ele>769</ele>
        <time>2017-11-22T17:59:01Z</time>
      </trkpt>
      <trkpt lat="44.79112" lon="5.65455">
        <ele>769</ele>
        <time>2017-11-22T17:59:11Z</time>
      </trkpt>
      <trkpt lat="44.79104" lon="5.65458">
        <ele>768</ele>
        <time>2017-11-22T17:59:22Z</time>
      </trkpt>
      <trkpt lat="44.79095" lon="5.65467">
        <ele>767</ele>
        <time>2017-11-22T17:59:25Z</time>
      </trkpt>
      <trkpt lat="44.7909" lon="5.65483">
        <ele>764</ele>
        <time>2017-11-22T17:59:31Z</time>
      </trkpt>
      <trkpt lat="44.7909" lon="5.65505">
        <ele>760</ele>
        <time>2017-11-22T17:59:48Z</time>
      </trkpt>
      <trkpt lat="44.79095" lon="5.65529">
        <ele>762</ele>
        <time>2017-11-22T18:00:06Z</time>
      </trkpt>
      <trkpt lat="44.79096" lon="5.65554">
        <ele>761</ele>
        <time>2017-11-22T18:00:13Z</time>
      </trkpt>
      <trkpt lat="44.79089" lon="5.65577">
        <ele>756</ele>
        <time>2017-11-22T18:00:21Z</time>
      </trkpt>
      <trkpt lat="44.79073" lon="5.65593">
        <ele>753</ele>
        <time>2017-11-22T18:00:37Z</time>
      </trkpt>
      <trkpt lat="44.79057" lon="5.65594">
        <ele>753</ele>
        <time>2017-11-22T18:00:47Z</time>
      </trkpt>
      <trkpt lat="44.79048" lon="5.6559">
        <ele>753</ele>
        <time>2017-11-22T18:00:52Z</time>
      </trkpt>
      <trkpt lat="44.7904" lon="5.65581">
        <ele>754</ele>
        <time>2017-11-22T18:01:12Z</time>
      </trkpt>
      <trkpt lat="44.79023" lon="5.65564">
        <ele>754</ele>
        <time>2017-11-22T18:01:30Z</time>
      </trkpt>
      <trkpt lat="44.79014" lon="5.65563">
        <ele>754</ele>
        <time>2017-11-22T18:01:48Z</time>
      </trkpt>
      <trkpt lat="44.79004" lon="5.65573">
        <ele>753</ele>
        <time>2017-11-22T18:02:01Z</time>
      </trkpt>
      <trkpt lat="44.78999" lon="5.65579">
        <ele>753</ele>
        <time>2017-11-22T18:02:16Z</time>
      </trkpt>
      <trkpt lat="44.78999" lon="5.65584">
        <ele>752</ele>
        <time>2017-11-22T18:02:26Z</time>
      </trkpt>
      <trkpt lat="44.78999" lon="5.65593">
        <ele>754</ele>
        <time>2017-11-22T18:02:40Z</time>
      </trkpt>
      <trkpt lat="44.79002" lon="5.65608">
        <ele>753</ele>
        <time>2017-11-22T18:02:42Z</time>
      </trkpt>
      <trkpt lat="44.79044" lon="5.65695">
        <ele>752</ele>
        <time>2017-11-22T18:02:49Z</time>
      </trkpt>
      <trkpt lat="44.79066" lon="5.65738">
        <ele>750</ele>
        <time>2017-11-22T18:02:51Z</time>
      </trkpt>
      <trkpt lat="44.79072" lon="5.65757">
        <ele>749</ele>
        <time>2017-11-22T18:02:57Z</time>
      </trkpt>
      <trkpt lat="44.79072" lon="5.65766">
        <ele>749</ele>
        <time>2017-11-22T18:03:04Z</time>
      </trkpt>
      <trkpt lat="44.79066" lon="5.65783">
        <ele>750</ele>
        <time>2017-11-22T18:03:11Z</time>
      </trkpt>
      <trkpt lat="44.79053" lon="5.65796">
        <ele>750</ele>
        <time>2017-11-22T18:03:28Z</time>
      </trkpt>
      <trkpt lat="44.79041" lon="5.65797">
        <ele>750</ele>
        <time>2017-11-22T18:03:33Z</time>
      </trkpt>
      <trkpt lat="44.79016" lon="5.65789">
        <ele>750</ele>
        <time>2017-11-22T18:03:44Z</time>
      </trkpt>
      <trkpt lat="44.78948" lon="5.65767">
        <ele>753</ele>
        <time>2017-11-22T18:03:49Z</time>
      </trkpt>
      <trkpt lat="44.78931" lon="5.65768">
        <ele>754</ele>
        <time>2017-11-22T18:04:01Z</time>
      </trkpt>
      <trkpt lat="44.78922" lon="5.65777">
        <ele>754</ele>
        <time>2017-11-22T18:04:11Z</time>
      </trkpt>
      <trkpt lat="44.78917" lon="5.65788">
        <ele>753</ele>
        <time>2017-11-22T18:04:21Z</time>
      </trkpt>
      <trkpt lat="44.78916" lon="5.65809">
        <ele>755</ele>
        <time>2017-11-22T18:04:34Z</time>
      </trkpt>
      <trkpt lat="44.78927" lon="5.65825">
        <ele>753</ele>
        <time>2017-11-22T18:04:52Z</time>
      </trkpt>
      <trkpt lat="44.7894" lon="5.6584">
        <ele>751</ele>
        <time>2017-11-22T18:05:04Z</time>
      </trkpt>
      <trkpt lat="44.78949" lon="5.65857">
        <ele>750</ele>
        <time>2017-11-22T18:05:11Z</time>
      </trkpt>
      <trkpt lat="44.78962" lon="5.65895">
        <ele>749</ele>
        <time>2017-11-22T18:05:19Z</time>
      </trkpt>
      <trkpt lat="44.78978" lon="5.6595">
        <ele>748</ele>
        <time>2017-11-22T18:05:24Z</time>
      </trkpt>
      <trkpt lat="44.78987" lon="5.66003">
        <ele>746</ele>
        <time>2017-11-22T18:05:43Z</time>
      </trkpt>
      <trkpt lat="44.79008" lon="5.66124">
        <ele>741</ele>
        <time>2017-11-22T18:05:55Z</time>
      </trkpt>
      <trkpt lat="44.79018" lon="5.66187">
        <ele>741</ele>
        <time>2017-11-22T18:06:02Z</time>
      </trkpt>
      <trkpt lat="44.79025" lon="5.6622">
        <ele>740</ele>
        <time>2017-11-22T18:06:10Z</time>
      </trkpt>
      <trkpt lat="44.79037" lon="5.66251">
        <ele>742</ele>
        <time>2017-11-22T18:06:19Z</time>
      </trkpt>
      <trkpt lat="44.79055" lon="5.66284">
        <ele>743</ele>
        <time>2017-11-22T18:06:23Z</time>
      </trkpt>
      <trkpt lat="44.79079" lon="5.66322">
        <ele>744</ele>
        <time>2017-11-22T18:06:29Z</time>
      </trkpt>
      <trkpt lat="44.79096" lon="5.66352">
        <ele>742</ele>
        <time>2017-11-22T18:06:35Z</time>
      </trkpt>
      <trkpt lat="44.79114" lon="5.66392">
        <ele>744</ele>
        <time>2017-11-22T18:06:37Z</time>
      </trkpt>
      <trkpt lat="44.79129" lon="5.66432">
        <ele>746</ele>
        <time>2017-11-22T18:06:40Z</time>
      </trkpt>
      <trkpt lat="44.79151" lon="5.66487">
        <ele>743</ele>
        <time>2017-11-22T18:06:50Z</time>
      </trkpt>
      <trkpt lat="44.79166" lon="5.66525">
        <ele>743</ele>
        <time>2017-11-22T18:07:00Z</time>
      </trkpt>
      <trkpt lat="44.7918" lon="5.66559">
        <ele>736</ele>
        <time>2017-11-22T18:07:05Z</time>
      </trkpt>
      <trkpt lat="44.79192" lon="5.66579">
        <ele>736</ele>
        <time>2017-11-22T18:07:18Z</time>
      </trkpt>
      <trkpt lat="44.79207" lon="5.66613">
        <ele>735</ele>
        <time>2017-11-22T18:07:28Z</time>
      </trkpt>
      <trkpt lat="44.79214" lon="5.66635">
        <ele>735</ele>
        <time>2017-11-22T18:07:34Z</time>
      </trkpt>
      <trkpt lat="44.79215" lon="5.66669">
        <ele>733</ele>
        <time>2017-11-22T18:07:54Z</time>
      </trkpt>
      <trkpt lat="44.79217" lon="5.66752">
        <ele>731</ele>
        <time>2017-11-22T18:08:02Z</time>
      </trkpt>
      <trkpt lat="44.79215" lon="5.66802">
        <ele>731</ele>
        <time>2017-11-22T18:08:10Z</time>
      </trkpt>
      <trkpt lat="44.79219" lon="5.66831">
        <ele>730</ele>
        <time>2017-11-22T18:08:28Z</time>
      </trkpt>
      <trkpt lat="44.79229" lon="5.66869">
        <ele>729</ele>
        <time>2017-11-22T18:08:31Z</time>
      </trkpt>
      <trkpt lat="44.79234" lon="5.6689">
        <ele>729</ele>
        <time>2017-11-22T18:08:45Z</time>
      </trkpt>
      <trkpt lat="44.79235" lon="5.66911">
        <ele>729</ele>
        <time>2017-11-22T18:08:47Z</time>
      </trkpt>
      <trkpt lat="44.79226" lon="5.67036">
        <ele>727</ele>
        <time>2017-11-22T18:08:57Z</time>
      </trkpt>
      <trkpt lat="44.79225" lon="5.6705">
        <ele>727</ele>
        <time>2017-11-22T18:09:03Z</time>
      </trkpt>
      <trkpt lat="44.79217" lon="5.67085">
        <ele>728</ele>
        <time>2017-11-22T18:09:07Z</time>
      </trkpt>
      <trkpt lat="44.79204" lon="5.67124">
        <ele>728</ele>
        <time>2017-11-22T18:09:11Z</time>
      </trkpt>
      <trkpt lat="44.79198" lon="5.6715">
        <ele>728</ele>
        <time>2017-11-22T18:09:25Z</time>
      </trkpt>
      <trkpt lat="44.79199" lon="5.67178">
        <ele>728</ele>
        <time>2017-11-22T18:09:28Z</time>
      </trkpt>
      <trkpt lat="44.79209" lon="5.67222">
        <ele>728</ele>
        <time>2017-11-22T18:09:43Z</time>
      </trkpt>
      <trkpt lat="44.79219" lon="5.67258">
        <ele>728</ele>
        <time>2017-11-22T18:09:56Z</time>
      </trkpt>
      <trkpt lat="44.79221" lon="5.67282">
        <ele>728</ele>
        <time>2017-11-22T18:10:10Z</time>
      </trkpt>
      <trkpt lat="44.79218" lon="5.67315">
        <ele>728</ele>
        <time>2017-11-22T18:10:27Z</time>
      </trkpt>
      <trkpt lat="44.79214" lon="5.67335">
        <ele>726</ele>
        <time>2017-11-22T18:10:34Z</time>
      </trkpt>
      <trkpt lat="44.79198" lon="5.67366">
        <ele>727</ele>
        <time>2017-11-22T18:10:45Z</time>
      </trkpt>
      <trkpt lat="44.79163" lon="5.6742">
        <ele>727</ele>
        <time>2017-11-22T18:11:04Z</time>
      </trkpt>
      <trkpt lat="44.7909" lon="5.67529">
        <ele>725</ele>
        <time>2017-11-22T18:11:15Z</time>
      </trkpt>
      <trkpt lat="44.79047" lon="5.67593">
        <ele>728</ele>
        <time>2017-11-22T18:11:33Z</time>
      </trkpt>
      <trkpt lat="44.79024" lon="5.67618">
        <ele>728</ele>
        <time>2017-11-22T18:11:42Z</time>
      </trkpt>
      <trkpt lat="44.78994" lon="5.67636">
        <ele>731</ele>
        <time>2017-11-22T18:11:48Z</time>
      </trkpt>
      <trkpt lat="44.78963" lon="5.67643">
        <ele>731</ele>
        <time>2017-11-22T18:12:06Z</time>
      </trkpt>
      <trkpt lat="44.78923" lon="5.67639">
        <ele>732</ele>
        <time>2017-11-22T18:12:26Z</time>
      </trkpt>
      <trkpt lat="44.78881" lon="5.67627">
        <ele>729</ele>
        <time>2017-11-22T18:12:36Z</time>
      </trkpt>
      <trkpt lat="44.7886" lon="5.67615">
        <ele>728</ele>
        <time>2017-11-22T18:12:54Z</time>
      </trkpt>
      <trkpt lat="44.78853" lon="5.67609">
        <ele>728</ele>
        <time>2017-11-22T18:13:05Z</time>
      </trkpt>
      <trkpt lat="44.78839" lon="5.67589">
        <ele>727</ele>
        <time>2017-11-22T18:13:17Z</time>
      </trkpt>
      <trkpt lat="44.78833" lon="5.67558">
        <ele>726</ele>
        <time>2017-11-22T18:13:21Z</time>
      </trkpt>
      <trkpt lat="44.78829" lon="5.67529">
        <ele>728</ele>
        <time>2017-11-22T18:13:26Z</time>
      </trkpt>
      <trkpt lat="44.7882" lon="5.67505">
        <ele>731</ele>
        <time>2017-11-22T18:13:38Z</time>
      </trkpt>
      <trkpt lat="44.78797" lon="5.67474">
        <ele>731</ele>
        <time>2017-11-22T18:13:48Z</time>
      </trkpt>
      <trkpt lat="44.78764" lon="5.67431">
        <ele>729</ele>
        <time>2017-11-22T18:14:03Z</time>
      </trkpt>
      <trkpt lat="44.78743" lon="5.67406">
        <ele>728</ele>
        <time>2017-11-22T18:14:11Z</time>
      </trkpt>
      <trkpt lat="44.78735" lon="5.67399">
        <ele>728</ele>
        <time>2017-11-22T18:14:21Z</time>
      </trkpt>
      <trkpt lat="44.78722" lon="5.67394">
        <ele>729</ele>
        <time>2017-11-22T18:14:41Z</time>
      </trkpt>
      <trkpt lat="44.78704" lon="5.67397">
        <ele>729</ele>
        <time>2017-11-22T18:14:50Z</time>
      </trkpt>
      <trkpt lat="44.78692" lon="5.67415">
        <ele>729</ele>
        <time>2017-11-22T18:15:03Z</time>
      </trkpt>
      <trkpt lat="44.78688" lon="5.6744">
        <ele>726</ele>
        <time>2017-11-22T18:15:18Z</time>
      </trkpt>
      <trkpt lat="44.78695" lon="5.67471">
        <ele>725</ele>
        <time>2017-11-22T18:15:38Z</time>
      </trkpt>
      <trkpt lat="44.7871" lon="5.6751">
        <ele>721</ele>
        <time>2017-11-22T18:15:49Z</time>
      </trkpt>
      <trkpt lat="44.78718" lon="5.67545">
        <ele>720</ele>
        <time>2017-11-22T18:16:08Z</time>
      </trkpt>
      <trkpt lat="44.78724" lon="5.67621">
        <ele>716</ele>
        <time>2017-11-22T18:16:11Z</time>
      </trkpt>
      <trkpt lat="44.78718" lon="5.67647">
        <ele>715</ele>
        <time>2017-11-22T18:16:15Z</time>
      </trkpt>
      <trkpt lat="44.78711" lon="5.67675">
        <ele>713</ele>
        <time>2017-11-22T18:16:18Z</time>
      </trkpt>
      <trkpt lat="44.78713" lon="5.67696">
        <ele>713</ele>
        <time>2017-11-22T18:16:21Z</time>
      </trkpt>
      <trkpt lat="44.78726" lon="5.67721">
        <ele>712</ele>
        <time>2017-11-22T18:16:28Z</time>
      </trkpt>
      <trkpt lat="44.78739" lon="5.67743">
        <ele>710</ele>
        <time>2017-11-22T18:16:41Z</time>
      </trkpt>
      <trkpt lat="44.7874" lon="5.67759">
        <ele>709</ele>
        <time>2017-11-22T18:16:55Z</time>
      </trkpt>
      <trkpt lat="44.78735" lon="5.67781">
        <ele>709</ele>
        <time>2017-11-22T18:16:58Z</time>
      </trkpt>
      <trkpt lat="44.78705" lon="5.67846">
        <ele>707</ele>
        <time>2017-11-22T18:17:14Z</time>
      </trkpt>
      <trkpt lat="44.787" lon="5.6788">
        <ele>707</ele>
        <time>2017-11-22T18:17:16Z</time>
      </trkpt>
      <trkpt lat="44.78698" lon="5.67904">
        <ele>707</ele>
        <time>2017-11-22T18:17:27Z</time>
      </trkpt>
      <trkpt lat="44.78697" lon="5.6792">
        <ele>702</ele>
        <time>2017-11-22T18:17:33Z</time>
      </trkpt>
      <trkpt lat="44.78688" lon="5.6794">
        <ele>702</ele>
        <time>2017-11-22T18:17:39Z</time>
      </trkpt>
      <trkpt lat="44.78679" lon="5.67952">
        <ele>701</ele>
        <time>2017-11-22T18:17:52Z</time>
      </trkpt>
      <trkpt lat="44.78658" lon="5.67969">
        <ele>707</ele>
        <time>2017-11-22T18:18:01Z</time>
      </trkpt>
      <trkpt lat="44.78615" lon="5.68">
        <ele>708</ele>
        <time>2017-11-22T18:18:09Z</time>
      </trkpt>
      <trkpt lat="44.78558" lon="5.68035">
        <ele>700</ele>
        <time>2017-11-22T18:18:19Z</time>
      </trkpt>
      <trkpt lat="44.78544" lon="5.68043">
        <ele>700</ele>
        <time>2017-11-22T18:18:31Z</time>
      </trkpt>
      <trkpt lat="44.78531" lon="5.68042">
        <ele>701</ele>
        <time>2017-11-22T18:18:43Z</time>
      </trkpt>
      <trkpt lat="44.78498" lon="5.68022">
        <ele>708</ele>
        <time>2017-11-22T18:18:57Z</time>
      </trkpt>
      <trkpt lat="44.78485" lon="5.68021">
        <ele>707</ele>
        <time>2017-11-22T18:19:17Z</time>
      </trkpt>
      <trkpt lat="44.78465" lon="5.68025">
        <ele>706</ele>
        <time>2017-11-22T18:19:26Z</time>
      </trkpt>
      <trkpt lat="44.78457" lon="5.68011">
        <ele>707</ele>
        <time>2017-11-22T18:19:40Z</time>
      </trkpt>
      <trkpt lat="44.78454" lon="5.68003">
        <ele>707</ele>
        <time>2017-11-22T18:19:46Z</time>
      </trkpt>
      <trkpt lat="44.78449" lon="5.67999">
        <ele>715</ele>
        <time>2017-11-22T18:19:55Z</time>
      </trkpt>
      <trkpt lat="44.78444" lon="5.67998">
        <ele>715</ele>
        <time>2017-11-22T18:20:13Z</time>
      </trkpt>
      <trkpt lat="44.78429" lon="5.68001">
        <ele>709</ele>
        <time>2017-11-22T18:20:33Z</time>
      </trkpt>
      <trkpt lat="44.7841" lon="5.68009">
        <ele>709</ele>
        <time>2017-11-22T18:20:42Z</time>
      </trkpt>
      <trkpt lat="44.78392" lon="5.6801">
        <ele>707</ele>
        <time>2017-11-22T18:20:53Z</time>
      </trkpt>
      <trkpt lat="44.78358" lon="5.68009">
        <ele>707</ele>
        <time>2017-11-22T18:21:02Z</time>
      </trkpt>
      <trkpt lat="44.78335" lon="5.67998">
        <ele>710</ele>
        <time>2017-11-22T18:21:09Z</time>
      </trkpt>
      <trkpt lat="44.78285" lon="5.67954">
        <ele>713</ele>
        <time>2017-11-22T18:21:21Z</time>
      </trkpt>
      <trkpt lat="44.78248" lon="5.67916">
        <ele>717</ele>
        <time>2017-11-22T18:21:27Z</time>
      </trkpt>
      <trkpt lat="44.78206" lon="5.67869">
        <ele>719</ele>
        <time>2017-11-22T18:21:33Z</time>
      </trkpt>
      <trkpt lat="44.78123" lon="5.67785">
        <ele>722</ele>
        <time>2017-11-22T18:21:43Z</time>
      </trkpt>
      <trkpt lat="44.78101" lon="5.67756">
        <ele>722</ele>
        <time>2017-11-22T18:21:53Z</time>
      </trkpt>
      <trkpt lat="44.78094" lon="5.67737">
        <ele>726</ele>
        <time>2017-11-22T18:21:56Z</time>
      </trkpt>
      <trkpt lat="44.78082" lon="5.67665">
        <ele>729</ele>
        <time>2017-11-22T18:21:58Z</time>
      </trkpt>
      <trkpt lat="44.78065" lon="5.67552">
        <ele>731</ele>
        <time>2017-11-22T18:22:13Z</time>
      </trkpt>
      <trkpt lat="44.78047" lon="5.67421">
        <ele>736</ele>
        <time>2017-11-22T18:22:15Z</time>
      </trkpt>
      <trkpt lat="44.78039" lon="5.67383">
        <ele>741</ele>
        <time>2017-11-22T18:22:19Z</time>
      </trkpt>
      <trkpt lat="44.78019" lon="5.67327">
        <ele>747</ele>
        <time>2017-11-22T18:22:30Z</time>
      </trkpt>
      <trkpt lat="44.78006" lon="5.67292">
        <ele>751</ele>
        <time>2017-11-22T18:22:46Z</time>
      </trkpt>
      <trkpt lat="44.77993" lon="5.67268">
        <ele>746</ele>
        <time>2017-11-22T18:22:48Z</time>
      </trkpt>
      <trkpt lat="44.77949" lon="5.67221">
        <ele>757</ele>
        <time>2017-11-22T18:22:56Z</time>
      </trkpt>
      <trkpt lat="44.77916" lon="5.67181">
        <ele>757</ele>
        <time>2017-11-22T18:23:06Z</time>
      </trkpt>
      <trkpt lat="44.77885" lon="5.67152">
        <ele>764</ele>
        <time>2017-11-22T18:23:25Z</time>
      </trkpt>
      <trkpt lat="44.77873" lon="5.67137">
        <ele>764</ele>
        <time>2017-11-22T18:23:33Z</time>
      </trkpt>
      <trkpt lat="44.77867" lon="5.67111">
        <ele>766</ele>
        <time>2017-11-22T18:23:35Z</time>
      </trkpt>
      <trkpt lat="44.77858" lon="5.67078">
        <ele>775</ele>
        <time>2017-11-22T18:23:47Z</time>
      </trkpt>
      <trkpt lat="44.77846" lon="5.67065">
        <ele>774</ele>
        <time>2017-11-22T18:23:50Z</time>
      </trkpt>
      <trkpt lat="44.77824" lon="5.67057">
        <ele>764</ele>
        <time>2017-11-22T18:23:55Z</time>
      </trkpt>
      <trkpt lat="44.7781" lon="5.67045">
        <ele>764</ele>
        <time>2017-11-22T18:24:07Z</time>
      </trkpt>
      <trkpt lat="44.778" lon="5.67027">
        <ele>765</ele>
        <time>2017-11-22T18:24:16Z</time>
      </trkpt>
      <trkpt lat="44.7779" lon="5.67014">
        <ele>765</ele>
        <time>2017-11-22T18:24:36Z</time>
      </trkpt>
      <trkpt lat="44.77774" lon="5.67">
        <ele>771</ele>
        <time>2017-11-22T18:24:54Z</time>
      </trkpt>
      <trkpt lat="44.77759" lon="5.66991">
        <ele>768</ele>
        <time>2017-11-22T18:25:01Z</time>
      </trkpt>
      <trkpt lat="44.77748" lon="5.66987">
        <ele>764</ele>
        <time>2017-11-22T18:25:18Z</time>
      </trkpt>
      <trkpt lat="44.77723" lon="5.66987">
        <ele>764</ele>
        <time>2017-11-22T18:25:20Z</time>
      </trkpt>
      <trkpt lat="44.77712" lon="5.66984">
        <ele>764</ele>
        <time>2017-11-22T18:25:30Z</time>
      </trkpt>
      <trkpt lat="44.77702" lon="5.66979">
        <ele>764</ele>
        <time>2017-11-22T18:25:40Z</time>
      </trkpt>
      <trkpt lat="44.7769" lon="5.66965">
        <ele>764</ele>
        <time>2017-11-22T18:25:42Z</time>
      </trkpt>
      <trkpt lat="44.77676" lon="5.66932">
        <ele>765</ele>
        <time>2017-11-22T18:26:00Z</time>
      </trkpt>
      <trkpt lat="44.77662" lon="5.66906">
        <ele>765</ele>
        <time>2017-11-22T18:26:04Z</time>
      </trkpt>
      <trkpt lat="44.77651" lon="5.66899">
        <ele>766</ele>
        <time>2017-11-22T18:26:23Z</time>
      </trkpt>
      <trkpt lat="44.77633" lon="5.66897">
        <ele>765</ele>
        <time>2017-11-22T18:26:31Z</time>
      </trkpt>
      <trkpt lat="44.77619" lon="5.66892">
        <ele>764</ele>
        <time>2017-11-22T18:26:47Z</time>
      </trkpt>
      <trkpt lat="44.77603" lon="5.66876">
        <ele>764</ele>
        <time>2017-11-22T18:27:06Z</time>
      </trkpt>
      <trkpt lat="44.77579" lon="5.66843">
        <ele>764</ele>
        <time>2017-11-22T18:27:26Z</time>
      </trkpt>
      <trkpt lat="44.77562" lon="5.66814">
        <ele>767</ele>
        <time>2017-11-22T18:27:30Z</time>
      </trkpt>
      <trkpt lat="44.77542" lon="5.66766">
        <ele>769</ele>
        <time>2017-11-22T18:27:40Z</time>
      </trkpt>
      <trkpt lat="44.77532" lon="5.66751">
        <ele>769</ele>
        <time>2017-11-22T18:27:50Z</time>
      </trkpt>
      <trkpt lat="44.77523" lon="5.66748">
        <ele>773</ele>
        <time>2017-11-22T18:27:53Z</time>
      </trkpt>
      <trkpt lat="44.77515" lon="5.66749">
        <ele>772</ele>
        <time>2017-11-22T18:28:12Z</time>
      </trkpt>
      <trkpt lat="44.77506" lon="5.66755">
        <ele>769</ele>
        <time>2017-11-22T18:28:15Z</time>
      </trkpt>
      <trkpt lat="44.77493" lon="5.66776">
        <ele>767</ele>
        <time>2017-11-22T18:28:27Z</time>
      </trkpt>
      <trkpt lat="44.77479" lon="5.66791">
        <ele>766</ele>
        <time>2017-11-22T18:28:34Z</time>
      </trkpt>
      <trkpt lat="44.77467" lon="5.66792">
        <ele>766</ele>
        <time>2017-11-22T18:28:37Z</time>
      </trkpt>
      <trkpt lat="44.7744" lon="5.66782">
        <ele>766</ele>
        <time>2017-11-22T18:28:42Z</time>
      </trkpt>
      <trkpt lat="44.77406" lon="5.66769">
        <ele>769</ele>
        <time>2017-11-22T18:28:57Z</time>
      </trkpt>
      <trkpt lat="44.77362" lon="5.66759">
        <ele>770</ele>
        <time>2017-11-22T18:29:02Z</time>
      </trkpt>
      <trkpt lat="44.77319" lon="5.66752">
        <ele>773</ele>
        <time>2017-11-22T18:29:18Z</time>
      </trkpt>
      <trkpt lat="44.77312" lon="5.66753">
        <ele>773</ele>
        <time>2017-11-22T18:29:35Z</time>
      </trkpt>
      <trkpt lat="44.77306" lon="5.66757">
        <ele>774</ele>
        <time>2017-11-22T18:29:46Z</time>
      </trkpt>
      <trkpt lat="44.77302" lon="5.66765">
        <ele>774</ele>
        <time>2017-11-22T18:29:58Z</time>
      </trkpt>
      <trkpt lat="44.77297" lon="5.66775">
        <ele>774</ele>
        <time>2017-11-22T18:30:09Z</time>
      </trkpt>
      <trkpt lat="44.77294" lon="5.66788">
        <ele>774</ele>
        <time>2017-11-22T18:30:22Z</time>
      </trkpt>
      <trkpt lat="44.77296" lon="5.66798">
        <ele>774</ele>
        <time>2017-11-22T18:30:39Z</time>
      </trkpt>
      <trkpt lat="44.77305" lon="5.66818">
        <ele>773</ele>
        <time>2017-11-22T18:30:47Z</time>
      </trkpt>
      <trkpt lat="44.77326" lon="5.66855">
        <ele>773</ele>
        <time>2017-11-22T18:30:51Z</time>
      </trkpt>
      <trkpt lat="44.77336" lon="5.66877">
        <ele>770</ele>
        <time>2017-11-22T18:30:55Z</time>
      </trkpt>
      <trkpt lat="44.77339" lon="5.66899">
        <ele>772</ele>
        <time>2017-11-22T18:31:15Z</time>
      </trkpt>
      <trkpt lat="44.77338" lon="5.66909">
        <ele>773</ele>
        <time>2017-11-22T18:31:27Z</time>
      </trkpt>
      <trkpt lat="44.77334" lon="5.66918">
        <ele>775</ele>
        <time>2017-11-22T18:31:46Z</time>
      </trkpt>
      <trkpt lat="44.7733" lon="5.66924">
        <ele>776</ele>
        <time>2017-11-22T18:32:00Z</time>
      </trkpt>
      <trkpt lat="44.77324" lon="5.66927">
        <ele>777</ele>
        <time>2017-11-22T18:32:04Z</time>
      </trkpt>
      <trkpt lat="44.77315" lon="5.66927">
        <ele>777</ele>
        <time>2017-11-22T18:32:22Z</time>
      </trkpt>
      <trkpt lat="44.77301" lon="5.66924">
        <ele>778</ele>
        <time>2017-11-22T18:32:39Z</time>
      </trkpt>
      <trkpt lat="44.77204" lon="5.66893">
        <ele>781</ele>
        <time>2017-11-22T18:32:50Z</time>
      </trkpt>
      <trkpt lat="44.77147" lon="5.66874">
        <ele>785</ele>
        <time>2017-11-22T18:33:02Z</time>
      </trkpt>
      <trkpt lat="44.77109" lon="5.66864">
        <ele>786</ele>
        <time>2017-11-22T18:33:09Z</time>
      </trkpt>
      <trkpt lat="44.77063" lon="5.66854">
        <ele>789</ele>
        <time>2017-11-22T18:33:23Z</time>
      </trkpt>
      <trkpt lat="44.77019" lon="5.66847">
        <ele>791</ele>
        <time>2017-11-22T18:33:41Z</time>
      </trkpt>
      <trkpt lat="44.7698" lon="5.66838">
        <ele>793</ele>
        <time>2017-11-22T18:33:49Z</time>
      </trkpt>
      <trkpt lat="44.76963" lon="5.66827">
        <ele>795</ele>
        <time>2017-11-22T18:33:51Z</time>
      </trkpt>
      <trkpt lat="44.76941" lon="5.66802">
        <ele>796</ele>
        <time>2017-11-22T18:34:02Z</time>
      </trkpt>
      <trkpt lat="44.76907" lon="5.66765">
        <ele>800</ele>
        <time>2017-11-22T18:34:06Z</time>
      </trkpt>
      <trkpt lat="44.76818" lon="5.66673">
        <ele>807</ele>
        <time>2017-11-22T18:34:09Z</time>
      </trkpt>
      <trkpt lat="44.76743" lon="5.666">
        <ele>812</ele>
        <time>2017-11-22T18:34:17Z</time>
      </trkpt>
      <trkpt lat="44.7671" lon="5.66562">
        <ele>815</ele>
        <time>2017-11-22T18:34:21Z</time>
      </trkpt>
      <trkpt lat="44.76691" lon="5.66531">
        <ele>816</ele>
        <time>2017-11-22T18:34:35Z</time>
      </trkpt>
      <trkpt lat="44.7668" lon="5.66516">
        <ele>817</ele>
        <time>2017-11-22T18:34:41Z</time>
      </trkpt>
      <trkpt lat="44.76663" lon="5.665">
        <ele>820</ele>
        <time>2017-11-22T18:35:01Z</time>
      </trkpt>
      <trkpt lat="44.76586" lon="5.66437">
        <ele>828</ele>
        <time>2017-11-22T18:35:16Z</time>
      </trkpt>
      <trkpt lat="44.76549" lon="5.66413">
        <ele>834</ele>
        <time>2017-11-22T18:35:32Z</time>
      </trkpt>
      <trkpt lat="44.76535" lon="5.66412">
        <ele>835</ele>
        <time>2017-11-22T18:35:39Z</time>
      </trkpt>
      <trkpt lat="44.76495" lon="5.66428">
        <ele>837</ele>
        <time>2017-11-22T18:35:49Z</time>
      </trkpt>
      <trkpt lat="44.7648" lon="5.66435">
        <ele>838</ele>
        <time>2017-11-22T18:36:06Z</time>
      </trkpt>
      <trkpt lat="44.76462" lon="5.66442">
        <ele>838</ele>
        <time>2017-11-22T18:36:14Z</time>
      </trkpt>
      <trkpt lat="44.76448" lon="5.66435">
        <ele>839</ele>
        <time>2017-11-22T18:36:27Z</time>
      </trkpt>
      <trkpt lat="44.76434" lon="5.66427">
        <ele>840</ele>
        <time>2017-11-22T18:36:30Z</time>
      </trkpt>
      <trkpt lat="44.76431" lon="5.6643">
        <ele>840</ele>
        <time>2017-11-22T18:36:46Z</time>
      </trkpt>
      <trkpt lat="44.76425" lon="5.66435">
        <ele>840</ele>
        <time>2017-11-22T18:37:04Z</time>
      </trkpt>
      <trkpt lat="44.76411" lon="5.66447">
        <ele>843</ele>
        <time>2017-11-22T18:37:07Z</time>
      </trkpt>
      <trkpt lat="44.76398" lon="5.66464">
        <ele>842</ele>
        <time>2017-11-22T18:37:18Z</time>
      </trkpt>
      <trkpt lat="44.76388" lon="5.66481">
        <ele>842</ele>
        <time>2017-11-22T18:37:21Z</time>
      </trkpt>
      <trkpt lat="44.76375" lon="5.66502">
        <ele>839</ele>
        <time>2017-11-22T18:37:36Z</time>
      </trkpt>
      <trkpt lat="44.76362" lon="5.6653">
        <ele>839</ele>
        <time>2017-11-22T18:37:50Z</time>
      </trkpt>
      <trkpt lat="44.76345" lon="5.66566">
        <ele>839</ele>
        <time>2017-11-22T18:37:57Z</time>
      </trkpt>
      <trkpt lat="44.76337" lon="5.66581">
        <ele>839</ele>
        <time>2017-11-22T18:38:14Z</time>
      </trkpt>
      <trkpt lat="44.76331" lon="5.66589">
        <ele>839</ele>
        <time>2017-11-22T18:38:16Z</time>
      </trkpt>
      <trkpt lat="44.76317" lon="5.666">
        <ele>840</ele>
        <time>2017-11-22T18:38:20Z</time>
      </trkpt>
      <trkpt lat="44.76289" lon="5.66619">
        <ele>840</ele>
        <time>2017-11-22T18:38:40Z</time>
      </trkpt>
      <trkpt lat="44.76274" lon="5.66632">
        <ele>840</ele>
        <time>2017-11-22T18:39:00Z</time>
      </trkpt>
      <trkpt lat="44.7624" lon="5.6668">
        <ele>846</ele>
        <time>2017-11-22T18:39:06Z</time>
      </trkpt>
      <trkpt lat="44.76216" lon="5.66715">
        <ele>849</ele>
        <time>2017-11-22T18:39:17Z</time>
      </trkpt>
      <trkpt lat="44.76203" lon="5.6674">
        <ele>850</ele>
        <time>2017-11-22T18:39:32Z</time>
      </trkpt>
      <trkpt lat="44.76192" lon="5.66783">
        <ele>852</ele>
        <time>2017-11-22T18:39:48Z</time>
      </trkpt>
      <trkpt lat="44.76191" lon="5.66801">
        <ele>853</ele>
        <time>2017-11-22T18:39:53Z</time>
      </trkpt>
      <trkpt lat="44.76196" lon="5.66819">
        <ele>853</ele>
        <time>2017-11-22T18:40:04Z</time>
      </trkpt>
      <trkpt lat="44.76209" lon="5.66855">
        <ele>853</ele>
        <time>2017-11-22T18:40:16Z</time>
      </trkpt>
      <trkpt lat="44.76213" lon="5.66883">
        <ele>853</ele>
        <time>2017-11-22T18:40:32Z</time>
      </trkpt>
      <trkpt lat="44.76211" lon="5.66912">
        <ele>853</ele>
        <time>2017-11-22T18:40:48Z</time>
      </trkpt>
      <trkpt lat="44.76216" lon="5.66931">
        <ele>855</ele>
        <time>2017-11-22T18:40:50Z</time>
      </trkpt>
      <trkpt lat="44.76233" lon="5.66957">
        <ele>854</ele>
        <time>2017-11-22T18:40:59Z</time>
      </trkpt>
      <trkpt lat="44.76244" lon="5.66997">
        <ele>854</ele>
        <time>2017-11-22T18:41:03Z</time>
      </trkpt>
      <trkpt lat="44.76247" lon="5.67029">
        <ele>857</ele>
        <time>2017-11-22T18:41:16Z</time>
      </trkpt>
      <trkpt lat="44.76245" lon="5.6704">
        <ele>858</ele>
        <time>2017-11-22T18:41:21Z</time>
      </trkpt>
      <trkpt lat="44.76239" lon="5.67049">
        <ele>858</ele>
        <time>2017-11-22T18:41:36Z</time>
      </trkpt>
      <trkpt lat="44.76233" lon="5.67052">
        <ele>858</ele>
        <time>2017-11-22T18:41:47Z</time>
      </trkpt>
      <trkpt lat="44.76224" lon="5.67052">
        <ele>858</ele>
        <time>2017-11-22T18:42:06Z</time>
      </trkpt>
      <trkpt lat="44.76199" lon="5.67051">
        <ele>859</ele>
        <time>2017-11-22T18:42:13Z</time>
      </trkpt>
      <trkpt lat="44.76178" lon="5.6705">
        <ele>859</ele>
        <time>2017-11-22T18:42:23Z</time>
      </trkpt>
      <trkpt lat="44.7617" lon="5.67051">
        <ele>859</ele>
        <time>2017-11-22T18:42:31Z</time>
      </trkpt>
      <trkpt lat="44.7615" lon="5.67045">
        <ele>857</ele>
        <time>2017-11-22T18:42:45Z</time>
      </trkpt>
      <trkpt lat="44.76129" lon="5.67034">
        <ele>857</ele>
        <time>2017-11-22T18:43:01Z</time>
      </trkpt>
      <trkpt lat="44.76114" lon="5.67019">
        <ele>856</ele>
        <time>2017-11-22T18:43:13Z</time>
      </trkpt>
      <trkpt lat="44.76094" lon="5.6699">
        <ele>860</ele>
        <time>2017-11-22T18:43:31Z</time>
      </trkpt>
      <trkpt lat="44.76073" lon="5.66974">
        <ele>860</ele>
        <time>2017-11-22T18:43:37Z</time>
      </trkpt>
      <trkpt lat="44.76043" lon="5.66964">
        <ele>860</ele>
        <time>2017-11-22T18:43:52Z</time>
      </trkpt>
      <trkpt lat="44.7601" lon="5.66964">
        <ele>858</ele>
        <time>2017-11-22T18:44:00Z</time>
      </trkpt>
      <trkpt lat="44.75989" lon="5.66971">
        <ele>857</ele>
        <time>2017-11-22T18:44:14Z</time>
      </trkpt>
      <trkpt lat="44.75978" lon="5.6698">
        <ele>857</ele>
        <time>2017-11-22T18:44:30Z</time>
      </trkpt>
      <trkpt lat="44.7597" lon="5.66996">
        <ele>857</ele>
        <time>2017-11-22T18:44:33Z</time>
      </trkpt>
      <trkpt lat="44.75957" lon="5.67066">
        <ele>855</ele>
        <time>2017-11-22T18:44:51Z</time>
      </trkpt>
      <trkpt lat="44.75947" lon="5.67142">
        <ele>854</ele>
        <time>2017-11-22T18:44:54Z</time>
      </trkpt>
      <trkpt lat="44.75947" lon="5.67217">
        <ele>852</ele>
        <time>2017-11-22T18:44:56Z</time>
      </trkpt>
      <trkpt lat="44.75945" lon="5.67288">
        <ele>848</ele>
        <time>2017-11-22T18:45:00Z</time>
      </trkpt>
      <trkpt lat="44.75937" lon="5.67345">
        <ele>847</ele>
        <time>2017-11-22T18:45:04Z</time>
      </trkpt>
      <trkpt lat="44.75934" lon="5.6738">
        <ele>845</ele>
        <time>2017-11-22T18:45:24Z</time>
      </trkpt>
      <trkpt lat="44.75934" lon="5.6741">
        <ele>846</ele>
        <time>2017-11-22T18:45:27Z</time>
      </trkpt>
      <trkpt lat="44.75942" lon="5.67473">
        <ele>840</ele>
        <time>2017-11-22T18:45:30Z</time>
      </trkpt>
      <trkpt lat="44.75954" lon="5.67528">
        <ele>836</ele>
        <time>2017-11-22T18:45:46Z</time>
      </trkpt>
      <trkpt lat="44.75954" lon="5.67557">
        <ele>836</ele>
        <time>2017-11-22T18:45:57Z</time>
      </trkpt>
      <trkpt lat="44.75947" lon="5.67576">
        <ele>837</ele>
        <time>2017-11-22T18:46:03Z</time>
      </trkpt>
      <trkpt lat="44.75921" lon="5.67594">
        <ele>838</ele>
        <time>2017-11-22T18:46:17Z</time>
      </trkpt>
      <trkpt lat="44.75901" lon="5.67605">
        <ele>841</ele>
        <time>2017-11-22T18:46:22Z</time>
      </trkpt>
      <trkpt lat="44.75885" lon="5.67612">
        <ele>841</ele>
        <time>2017-11-22T18:46:24Z</time>
      </trkpt>
      <trkpt lat="44.75817" lon="5.67623">
        <ele>844</ele>
        <time>2017-11-22T18:46:27Z</time>
      </trkpt>
      <trkpt lat="44.75802" lon="5.67631">
        <ele>844</ele>
        <time>2017-11-22T18:46:33Z</time>
      </trkpt>
      <trkpt lat="44.75799" lon="5.67653">
        <ele>844</ele>
        <time>2017-11-22T18:46:41Z</time>
      </trkpt>
      <trkpt lat="44.75794" lon="5.67677">
        <ele>841</ele>
        <time>2017-11-22T18:46:46Z</time>
      </trkpt>
      <trkpt lat="44.75788" lon="5.67707">
        <ele>840</ele>
        <time>2017-11-22T18:46:51Z</time>
      </trkpt>
      <trkpt lat="44.75786" lon="5.67736">
        <ele>840</ele>
        <time>2017-11-22T18:47:07Z</time>
      </trkpt>
      <trkpt lat="44.75784" lon="5.67821">
        <ele>835</ele>
        <time>2017-11-22T18:47:20Z</time>
      </trkpt>
      <trkpt lat="44.75779" lon="5.67845">
        <ele>832</ele>
        <time>2017-11-22T18:47:30Z</time>
      </trkpt>
      <trkpt lat="44.75752" lon="5.67902">
        <ele>831</ele>
        <time>2017-11-22T18:47:40Z</time>
      </trkpt>
      <trkpt lat="44.75725" lon="5.67962">
        <ele>829</ele>
        <time>2017-11-22T18:47:47Z</time>
      </trkpt>
      <trkpt lat="44.75709" lon="5.67996">
        <ele>829</ele>
        <time>2017-11-22T18:48:02Z</time>
      </trkpt>
      <trkpt lat="44.75693" lon="5.68021">
        <ele>824</ele>
        <time>2017-11-22T18:48:09Z</time>
      </trkpt>
      <trkpt lat="44.75686" lon="5.68031">
        <ele>823</ele>
        <time>2017-11-22T18:48:12Z</time>
      </trkpt>
      <trkpt lat="44.75666" lon="5.68039">
        <ele>820</ele>
        <time>2017-11-22T18:48:30Z</time>
      </trkpt>
      <trkpt lat="44.75653" lon="5.68041">
        <ele>819</ele>
        <time>2017-11-22T18:48:41Z</time>
      </trkpt>
      <trkpt lat="44.75637" lon="5.68038">
        <ele>819</ele>
        <time>2017-11-22T18:48:50Z</time>
      </trkpt>
      <trkpt lat="44.75598" lon="5.68026">
        <ele>819</ele>
        <time>2017-11-22T18:48:59Z</time>
      </trkpt>
      <trkpt lat="44.75581" lon="5.68022">
        <ele>817</ele>
        <time>2017-11-22T18:49:05Z</time>
      </trkpt>
      <trkpt lat="44.7556" lon="5.68021">
        <ele>816</ele>
        <time>2017-11-22T18:49:21Z</time>
      </trkpt>
      <trkpt lat="44.75525" lon="5.68031">
        <ele>815</ele>
        <time>2017-11-22T18:49:33Z</time>
      </trkpt>
      <trkpt lat="44.75506" lon="5.68032">
        <ele>815</ele>
        <time>2017-11-22T18:49:43Z</time>
      </trkpt>
      <trkpt lat="44.75479" lon="5.68017">
        <ele>815</ele>
        <time>2017-11-22T18:49:48Z</time>
      </trkpt>
      <trkpt lat="44.75443" lon="5.67993">
        <ele>822</ele>
        <time>2017-11-22T18:50:00Z</time>
      </trkpt>
      <trkpt lat="44.75427" lon="5.67991">
        <ele>820</ele>
        <time>2017-11-22T18:50:10Z</time>
      </trkpt>
      <trkpt lat="44.75417" lon="5.67994">
        <ele>817</ele>
        <time>2017-11-22T18:50:24Z</time>
      </trkpt>
      <trkpt lat="44.75406" lon="5.68007">
        <ele>815</ele>
        <time>2017-11-22T18:50:31Z</time>
      </trkpt>
      <trkpt lat="44.75401" lon="5.68016">
        <ele>815</ele>
        <time>2017-11-22T18:50:45Z</time>
      </trkpt>
      <trkpt lat="44.75399" lon="5.68023">
        <ele>815</ele>
        <time>2017-11-22T18:50:47Z</time>
      </trkpt>
      <trkpt lat="44.75399" lon="5.68045">
        <ele>815</ele>
        <time>2017-11-22T18:51:02Z</time>
      </trkpt>
      <trkpt lat="44.75402" lon="5.68057">
        <ele>814</ele>
        <time>2017-11-22T18:51:22Z</time>
      </trkpt>
      <trkpt lat="44.75416" lon="5.6808">
        <ele>812</ele>
        <time>2017-11-22T18:51:37Z</time>
      </trkpt>
      <trkpt lat="44.75462" lon="5.68129">
        <ele>817</ele>
        <time>2017-11-22T18:51:47Z</time>
      </trkpt>
      <trkpt lat="44.75493" lon="5.68157">
        <ele>817</ele>
        <time>2017-11-22T18:52:07Z</time>
      </trkpt>
      <trkpt lat="44.75509" lon="5.68168">
        <ele>818</ele>
        <time>2017-11-22T18:52:14Z</time>
      </trkpt>
      <trkpt lat="44.75549" lon="5.68189">
        <ele>819</ele>
        <time>2017-11-22T18:52:29Z</time>
      </trkpt>
      <trkpt lat="44.75591" lon="5.68215">
        <ele>813</ele>
        <time>2017-11-22T18:52:42Z</time>
      </trkpt>
      <trkpt lat="44.75638" lon="5.6824">
        <ele>811</ele>
        <time>2017-11-22T18:52:54Z</time>
      </trkpt>
      <trkpt lat="44.75663" lon="5.68259">
        <ele>815</ele>
        <time>2017-11-22T18:53:13Z</time>
      </trkpt>
      <trkpt lat="44.75677" lon="5.68276">
        <ele>810</ele>
        <time>2017-11-22T18:53:23Z</time>
      </trkpt>
      <trkpt lat="44.75697" lon="5.68326">
        <ele>814</ele>
        <time>2017-11-22T18:53:30Z</time>
      </trkpt>
      <trkpt lat="44.75716" lon="5.68356">
        <ele>823</ele>
        <time>2017-11-22T18:53:42Z</time>
      </trkpt>
      <trkpt lat="44.75727" lon="5.6837">
        <ele>823</ele>
        <time>2017-11-22T18:53:45Z</time>
      </trkpt>
      <trkpt lat="44.75753" lon="5.68386">
        <ele>812</ele>
        <time>2017-11-22T18:54:04Z</time>
      </trkpt>
      <trkpt lat="44.75783" lon="5.68397">
        <ele>811</ele>
        <time>2017-11-22T18:54:10Z</time>
      </trkpt>
      <trkpt lat="44.7581" lon="5.68411">
        <ele>808</ele>
        <time>2017-11-22T18:54:25Z</time>
      </trkpt>
      <trkpt lat="44.75826" lon="5.68425">
        <ele>814</ele>
        <time>2017-11-22T18:54:33Z</time>
      </trkpt>
      <trkpt lat="44.75846" lon="5.68451">
        <ele>805</ele>
        <time>2017-11-22T18:54:51Z</time>
      </trkpt>
      <trkpt lat="44.7586" lon="5.68472">
        <ele>806</ele>
        <time>2017-11-22T18:55:10Z</time>
      </trkpt>
      <trkpt lat="44.7587" lon="5.68496">
        <ele>806</ele>
        <time>2017-11-22T18:55:28Z</time>
      </trkpt>
      <trkpt lat="44.75898" lon="5.68563">
        <ele>811</ele>
        <time>2017-11-22T18:55:42Z</time>
      </trkpt>
      <trkpt lat="44.75909" lon="5.68591">
        <ele>811</ele>
        <time>2017-11-22T18:55:51Z</time>
      </trkpt>
      <trkpt lat="44.75915" lon="5.68617">
        <ele>815</ele>
        <time>2017-11-22T18:56:02Z</time>
      </trkpt>
      <trkpt lat="44.75918" lon="5.68663">
        <ele>808</ele>
        <time>2017-11-22T18:56:05Z</time>
      </trkpt>
      <trkpt lat="44.75916" lon="5.68736">
        <ele>818</ele>
        <time>2017-11-22T18:56:22Z</time>
      </trkpt>
      <trkpt lat="44.7592" lon="5.68781">
        <ele>810</ele>
        <time>2017-11-22T18:56:30Z</time>
      </trkpt>
      <trkpt lat="44.75935" lon="5.68836">
        <ele>810</ele>
        <time>2017-11-22T18:56:37Z</time>
      </trkpt>
      <trkpt lat="44.75945" lon="5.6888">
        <ele>809</ele>
        <time>2017-11-22T18:56:49Z</time>
      </trkpt>
      <trkpt lat="44.75949" lon="5.68913">
        <ele>809</ele>
        <time>2017-11-22T18:56:58Z</time>
      </trkpt>
      <trkpt lat="44.75964" lon="5.68974">
        <ele>809</ele>
        <time>2017-11-22T18:57:11Z</time>
      </trkpt>
      <trkpt lat="44.75981" lon="5.69025">
        <ele>809</ele>
        <time>2017-11-22T18:57:20Z</time>
      </trkpt>
      <trkpt lat="44.75999" lon="5.69078">
        <ele>807</ele>
        <time>2017-11-22T18:57:36Z</time>
      </trkpt>
      <trkpt lat="44.76019" lon="5.69123">
        <ele>807</ele>
        <time>2017-11-22T18:57:41Z</time>
      </trkpt>
      <trkpt lat="44.76042" lon="5.69151">
        <ele>806</ele>
        <time>2017-11-22T18:57:46Z</time>
      </trkpt>
      <trkpt lat="44.76063" lon="5.69174">
        <ele>809</ele>
        <time>2017-11-22T18:57:53Z</time>
      </trkpt>
      <trkpt lat="44.76092" lon="5.6922">
        <ele>804</ele>
        <time>2017-11-22T18:57:56Z</time>
      </trkpt>
      <trkpt lat="44.76096" lon="5.69228">
        <ele>805</ele>
        <time>2017-11-22T18:57:59Z</time>
      </trkpt>
      <trkpt lat="44.76112" lon="5.69276">
        <ele>808</ele>
        <time>2017-11-22T18:58:17Z</time>
      </trkpt>
      <trkpt lat="44.76141" lon="5.69366">
        <ele>812</ele>
        <time>2017-11-22T18:58:29Z</time>
      </trkpt>
      <trkpt lat="44.7615" lon="5.69392">
        <ele>812</ele>
        <time>2017-11-22T18:58:36Z</time>
      </trkpt>
      <trkpt lat="44.76161" lon="5.69415">
        <ele>810</ele>
        <time>2017-11-22T18:58:54Z</time>
      </trkpt>
      <trkpt lat="44.76175" lon="5.69436">
        <ele>808</ele>
        <time>2017-11-22T18:58:58Z</time>
      </trkpt>
      <trkpt lat="44.76209" lon="5.69473">
        <ele>807</ele>
        <time>2017-11-22T18:59:05Z</time>
      </trkpt>
      <trkpt lat="44.76292" lon="5.6956">
        <ele>807</ele>
        <time>2017-11-22T18:59:23Z</time>
      </trkpt>
      <trkpt lat="44.76341" lon="5.696">
        <ele>805</ele>
        <time>2017-11-22T18:59:38Z</time>
      </trkpt>
      <trkpt lat="44.76361" lon="5.69622">
        <ele>805</ele>
        <time>2017-11-22T18:59:50Z</time>
      </trkpt>
      <trkpt lat="44.76373" lon="5.6964">
        <ele>806</ele>
        <time>2017-11-22T18:59:52Z</time>
      </trkpt>
      <trkpt lat="44.76391" lon="5.69674">
        <ele>809</ele>
        <time>2017-11-22T18:59:55Z</time>
      </trkpt>
      <trkpt lat="44.76413" lon="5.69712">
        <ele>810</ele>
        <time>2017-11-22T19:00:12Z</time>
      </trkpt>
      <trkpt lat="44.76434" lon="5.69738">
        <ele>805</ele>
        <time>2017-11-22T19:00:17Z</time>
      </trkpt>
      <trkpt lat="44.76457" lon="5.69759">
        <ele>806</ele>
        <time>2017-11-22T19:00:26Z</time>
      </trkpt>
      <trkpt lat="44.76476" lon="5.69772">
        <ele>805</ele>
        <time>2017-11-22T19:00:40Z</time>
      </trkpt>
      <trkpt lat="44.76503" lon="5.69783">
        <ele>801</ele>
        <time>2017-11-22T19:00:58Z</time>
      </trkpt>
      <trkpt lat="44.76531" lon="5.69789">
        <ele>800</ele>
        <time>2017-11-22T19:01:01Z</time>
      </trkpt>
      <trkpt lat="44.76557" lon="5.69788">
        <ele>799</ele>
        <time>2017-11-22T19:01:21Z</time>
      </trkpt>
      <trkpt lat="44.76617" lon="5.69777">
        <ele>796</ele>
        <time>2017-11-22T19:01:25Z</time>
      </trkpt>
      <trkpt lat="44.76651" lon="5.69777">
        <ele>795</ele>
        <time>2017-11-22T19:01:35Z</time>
      </trkpt>
      <trkpt lat="44.76717" lon="5.69779">
        <ele>795</ele>
        <time>2017-11-22T19:01:41Z</time>
      </trkpt>
      <trkpt lat="44.76789" lon="5.6978">
        <ele>794</ele>
        <time>2017-11-22T19:01:46Z</time>
      </trkpt>
      <trkpt lat="44.76806" lon="5.69782">
        <ele>794</ele>
        <time>2017-11-22T19:01:55Z</time>
      </trkpt>
      <trkpt lat="44.76873" lon="5.69816">
        <ele>793</ele>
        <time>2017-11-22T19:02:07Z</time>
      </trkpt>
      <trkpt lat="44.76925" lon="5.69843">
        <ele>792</ele>
        <time>2017-11-22T19:02:19Z</time>
      </trkpt>
      <trkpt lat="44.76953" lon="5.69863">
        <ele>791</ele>
        <time>2017-11-22T19:02:31Z</time>
      </trkpt>
      <trkpt lat="44.76969" lon="5.6988">
        <ele>790</ele>
        <time>2017-11-22T19:02:47Z</time>
      </trkpt>
      <trkpt lat="44.76979" lon="5.69903">
        <ele>789</ele>
        <time>2017-11-22T19:02:49Z</time>
      </trkpt>
      <trkpt lat="44.76985" lon="5.69941">
        <ele>790</ele>
        <time>2017-11-22T19:03:03Z</time>
      </trkpt>
      <trkpt lat="44.76988" lon="5.69996">
        <ele>789</ele>
        <time>2017-11-22T19:03:22Z</time>
      </trkpt>
      <trkpt lat="44.76989" lon="5.70048">
        <ele>790</ele>
        <time>2017-11-22T19:03:38Z</time>
      </trkpt>
      <trkpt lat="44.76992" lon="5.70083">
        <ele>788</ele>
        <time>2017-11-22T19:03:50Z</time>
      </trkpt>
      <trkpt lat="44.77022" lon="5.70271">
        <ele>789</ele>
        <time>2017-11-22T19:04:00Z</time>
      </trkpt>
      <trkpt lat="44.77026" lon="5.70309">
        <ele>789</ele>
        <time>2017-11-22T19:04:04Z</time>
      </trkpt>
      <trkpt lat="44.77028" lon="5.70349">
        <ele>788</ele>
        <time>2017-11-22T19:04:21Z</time>
      </trkpt>
      <trkpt lat="44.77024" lon="5.70392">
        <ele>788</ele>
        <time>2017-11-22T19:04:34Z</time>
      </trkpt>
      <trkpt lat="44.77019" lon="5.70434">
        <ele>787</ele>
        <time>2017-11-22T19:04:49Z</time>
      </trkpt>
      <trkpt lat="44.77017" lon="5.70472">
        <ele>784</ele>
        <time>2017-11-22T19:04:56Z</time>
      </trkpt>
      <trkpt lat="44.77019" lon="5.70531">
        <ele>782</ele>
        <time>2017-11-22T19:05:12Z</time>
      </trkpt>
      <trkpt lat="44.77024" lon="5.70624">
        <ele>780</ele>
        <time>2017-11-22T19:05:25Z</time>
      </trkpt>
      <trkpt lat="44.77022" lon="5.70664">
        <ele>781</ele>
        <time>2017-11-22T19:05:38Z</time>
      </trkpt>
      <trkpt lat="44.76996" lon="5.70754">
        <ele>779</ele>
        <time>2017-11-22T19:05:43Z</time>
      </trkpt>
      <trkpt lat="44.76991" lon="5.70772">
        <ele>780</ele>
        <time>2017-11-22T19:06:02Z</time>
      </trkpt>
      <trkpt lat="44.76989" lon="5.70789">
        <ele>780</ele>
        <time>2017-11-22T19:06:04Z</time>
      </trkpt>
      <trkpt lat="44.76991" lon="5.70827">
        <ele>777</ele>
        <time>2017-11-22T19:06:06Z</time>
      </trkpt>
      <trkpt lat="44.76996" lon="5.70865">
        <ele>775</ele>
        <time>2017-11-22T19:06:11Z</time>
      </trkpt>
      <trkpt lat="44.77" lon="5.70958">
        <ele>758</ele>
        <time>2017-11-22T19:06:26Z</time>
      </trkpt>
      <trkpt lat="44.77002" lon="5.71019">
        <ele>755</ele>
        <time>2017-11-22T19:06:39Z</time>
      </trkpt>
      <trkpt lat="44.77001" lon="5.71065">
        <ele>753</ele>
        <time>2017-11-22T19:06:53Z</time>
      </trkpt>
      <trkpt lat="44.76998" lon="5.71117">
        <ele>762</ele>
        <time>2017-11-22T19:07:11Z</time>
      </trkpt>
      <trkpt lat="44.76997" lon="5.71137">
        <ele>761</ele>
        <time>2017-11-22T19:07:27Z</time>
      </trkpt>
      <trkpt lat="44.77" lon="5.71152">
        <ele>750</ele>
        <time>2017-11-22T19:07:32Z</time>
      </trkpt>
      <trkpt lat="44.77006" lon="5.71165">
        <ele>750</ele>
        <time>2017-11-22T19:07:51Z</time>
      </trkpt>
      <trkpt lat="44.77015" lon="5.71175">
        <ele>747</ele>
        <time>2017-11-22T19:08:10Z</time>
      </trkpt>
      <trkpt lat="44.77027" lon="5.71179">
        <ele>745</ele>
        <time>2017-11-22T19:08:16Z</time>
      </trkpt>
      <trkpt lat="44.77038" lon="5.71179">
        <ele>743</ele>
        <time>2017-11-22T19:08:36Z</time>
      </trkpt>
      <trkpt lat="44.7705" lon="5.71176">
        <ele>742</ele>
        <time>2017-11-22T19:08:55Z</time>
      </trkpt>
      <trkpt lat="44.77061" lon="5.7117">
        <ele>741</ele>
        <time>2017-11-22T19:08:59Z</time>
      </trkpt>
      <trkpt lat="44.77131" lon="5.71119">
        <ele>736</ele>
        <time>2017-11-22T19:09:11Z</time>
      </trkpt>
      <trkpt lat="44.77151" lon="5.71108">
        <ele>736</ele>
        <time>2017-11-22T19:09:22Z</time>
      </trkpt>
      <trkpt lat="44.77165" lon="5.71105">
        <ele>735</ele>
        <time>2017-11-22T19:09:32Z</time>
      </trkpt>
      <trkpt lat="44.7718" lon="5.71107">
        <ele>733</ele>
        <time>2017-11-22T19:09:41Z</time>
      </trkpt>
      <trkpt lat="44.7719" lon="5.71113">
        <ele>733</ele>
        <time>2017-11-22T19:10:00Z</time>
      </trkpt>
      <trkpt lat="44.7721" lon="5.71143">
        <ele>733</ele>
        <time>2017-11-22T19:10:17Z</time>
      </trkpt>
      <trkpt lat="44.77219" lon="5.71157">
        <ele>734</ele>
        <time>2017-11-22T19:10:24Z</time>
      </trkpt>
      <trkpt lat="44.77228" lon="5.71171">
        <ele>739</ele>
        <time>2017-11-22T19:10:36Z</time>
      </trkpt>
      <trkpt lat="44.77232" lon="5.71175">
        <ele>739</ele>
        <time>2017-11-22T19:10:46Z</time>
      </trkpt>
      <trkpt lat="44.7723" lon="5.71177">
        <ele>739</ele>
        <time>2017-11-22T19:11:06Z</time>
      </trkpt>
      <trkpt lat="44.77223" lon="5.71194">
        <ele>739</ele>
        <time>2017-11-22T19:11:19Z</time>
      </trkpt>
      <trkpt lat="44.77214" lon="5.71219">
        <ele>740</ele>
        <time>2017-11-22T19:11:24Z</time>
      </trkpt>
      <trkpt lat="44.77199" lon="5.71249">
        <ele>739</ele>
        <time>2017-11-22T19:11:37Z</time>
      </trkpt>
      <trkpt lat="44.7719" lon="5.71263">
        <ele>745</ele>
        <time>2017-11-22T19:11:40Z</time>
      </trkpt>
      <trkpt lat="44.77177" lon="5.71276">
        <ele>746</ele>
        <time>2017-11-22T19:11:59Z</time>
      </trkpt>
      <trkpt lat="44.7715" lon="5.713">
        <ele>739</ele>
        <time>2017-11-22T19:12:19Z</time>
      </trkpt>
      <trkpt lat="44.7714" lon="5.71318">
        <ele>740</ele>
        <time>2017-11-22T19:12:34Z</time>
      </trkpt>
      <trkpt lat="44.77132" lon="5.71342">
        <ele>745</ele>
        <time>2017-11-22T19:12:53Z</time>
      </trkpt>
      <trkpt lat="44.77127" lon="5.71363">
        <ele>746</ele>
        <time>2017-11-22T19:12:59Z</time>
      </trkpt>
      <trkpt lat="44.77127" lon="5.71381">
        <ele>747</ele>
        <time>2017-11-22T19:13:11Z</time>
      </trkpt>
      <trkpt lat="44.77126" lon="5.71422">
        <ele>755</ele>
        <time>2017-11-22T19:13:15Z</time>
      </trkpt>
      <trkpt lat="44.77109" lon="5.71528">
        <ele>760</ele>
        <time>2017-11-22T19:13:35Z</time>
      </trkpt>
      <trkpt lat="44.771" lon="5.7158">
        <ele>760</ele>
        <time>2017-11-22T19:13:37Z</time>
      </trkpt>
      <trkpt lat="44.77089" lon="5.71617">
        <ele>766</ele>
        <time>2017-11-22T19:13:57Z</time>
      </trkpt>
      <trkpt lat="44.77083" lon="5.71657">
        <ele>758</ele>
        <time>2017-11-22T19:14:13Z</time>
      </trkpt>
      <trkpt lat="44.77082" lon="5.7173">
        <ele>760</ele>
        <time>2017-11-22T19:14:32Z</time>
      </trkpt>
      <trkpt lat="44.77082" lon="5.71755">
        <ele>765</ele>
        <time>2017-11-22T19:14:34Z</time>
      </trkpt>
      <trkpt lat="44.77084" lon="5.71761">
        <ele>770</ele>
        <time>2017-11-22T19:14:40Z</time>
      </trkpt>
      <trkpt lat="44.77087" lon="5.71764">
        <ele>771</ele>
        <time>2017-11-22T19:14:54Z</time>
      </trkpt>
      <trkpt lat="44.77091" lon="5.71763">
        <ele>771</ele>
        <time>2017-11-22T19:15:10Z</time>
      </trkpt>
      <trkpt lat="44.77094" lon="5.71756">
        <ele>770</ele>
        <time>2017-11-22T19:15:30Z</time>
      </trkpt>
      <trkpt lat="44.77095" lon="5.71742">
        <ele>770</ele>
        <time>2017-11-22T19:15:43Z</time>
      </trkpt>
      <trkpt lat="44.77096" lon="5.71704">
        <ele>772</ele>
        <time>2017-11-22T19:15:49Z</time>
      </trkpt>
      <trkpt lat="44.77103" lon="5.71659">
        <ele>768</ele>
        <time>2017-11-22T19:16:04Z</time>
      </trkpt>
      <trkpt lat="44.77115" lon="5.71627">
        <ele>770</ele>
        <time>2017-11-22T19:16:20Z</time>
      </trkpt>
      <trkpt lat="44.77125" lon="5.71612">
        <ele>771</ele>
        <time>2017-11-22T19:16:40Z</time>
      </trkpt>
      <trkpt lat="44.77134" lon="5.71601">
        <ele>772</ele>
        <time>2017-11-22T19:16:48Z</time>
      </trkpt>
      <trkpt lat="44.77157" lon="5.71577">
        <ele>775</ele>
        <time>2017-11-22T19:16:53Z</time>
      </trkpt>
      <trkpt lat="44.77177" lon="5.71536">
        <ele>783</ele>
        <time>2017-11-22T19:17:11Z</time>
      </trkpt>
      <trkpt lat="44.77186" lon="5.71513">
        <ele>782</ele>
        <time>2017-11-22T19:17:18Z</time>
      </trkpt>
      <trkpt lat="44.77194" lon="5.71499">
        <ele>778</ele>
        <time>2017-11-22T19:17:30Z</time>
      </trkpt>
      <trkpt lat="44.772" lon="5.71492">
        <ele>779</ele>
        <time>2017-11-22T19:17:42Z</time>
      </trkpt>
      <trkpt lat="44.77208" lon="5.71489">
        <ele>780</ele>
        <time>2017-11-22T19:17:49Z</time>
      </trkpt>
      <trkpt lat="44.77215" lon="5.7149">
        <ele>781</ele>
        <time>2017-11-22T19:17:51Z</time>
      </trkpt>
      <trkpt lat="44.77216" lon="5.71502">
        <ele>786</ele>
        <time>2017-11-22T19:17:56Z</time>
      </trkpt>
      <trkpt lat="44.77209" lon="5.71528">
        <ele>786</ele>
        <time>2017-11-22T19:18:00Z</time>
      </trkpt>
      <trkpt lat="44.77206" lon="5.71573">
        <ele>787</ele>
        <time>2017-11-22T19:18:05Z</time>
      </trkpt>
      <trkpt lat="44.77202" lon="5.71712">
        <ele>799</ele>
        <time>2017-11-22T19:18:12Z</time>
      </trkpt>
      <trkpt lat="44.77203" lon="5.7173">
        <ele>799</ele>
        <time>2017-11-22T19:18:18Z</time>
      </trkpt>
      <trkpt lat="44.77208" lon="5.71753">
        <ele>799</ele>
        <time>2017-11-22T19:18:21Z</time>
      </trkpt>
      <trkpt lat="44.7722" lon="5.7179">
        <ele>799</ele>
        <time>2017-11-22T19:18:23Z</time>
      </trkpt>
      <trkpt lat="44.7723" lon="5.71802">
        <ele>800</ele>
        <time>2017-11-22T19:18:43Z</time>
      </trkpt>
      <trkpt lat="44.77243" lon="5.71812">
        <ele>802</ele>
        <time>2017-11-22T19:19:00Z</time>
      </trkpt>
      <trkpt lat="44.77256" lon="5.71824">
        <ele>811</ele>
        <time>2017-11-22T19:19:13Z</time>
      </trkpt>
      <trkpt lat="44.77266" lon="5.71851">
        <ele>813</ele>
        <time>2017-11-22T19:19:16Z</time>
      </trkpt>
      <trkpt lat="44.77274" lon="5.71883">
        <ele>814</ele>
        <time>2017-11-22T19:19:26Z</time>
      </trkpt>
      <trkpt lat="44.77276" lon="5.71916">
        <ele>813</ele>
        <time>2017-11-22T19:19:34Z</time>
      </trkpt>
      <trkpt lat="44.77272" lon="5.71958">
        <ele>816</ele>
        <time>2017-11-22T19:19:51Z</time>
      </trkpt>
      <trkpt lat="44.77265" lon="5.7201">
        <ele>819</ele>
        <time>2017-11-22T19:20:02Z</time>
      </trkpt>
      <trkpt lat="44.77255" lon="5.72046">
        <ele>822</ele>
        <time>2017-11-22T19:20:14Z</time>
      </trkpt>
      <trkpt lat="44.77242" lon="5.72087">
        <ele>816</ele>
        <time>2017-11-22T19:20:17Z</time>
      </trkpt>
      <trkpt lat="44.77224" lon="5.72132">
        <ele>816</ele>
        <time>2017-11-22T19:20:22Z</time>
      </trkpt>
      <trkpt lat="44.77213" lon="5.72164">
        <ele>817</ele>
        <time>2017-11-22T19:20:39Z</time>
      </trkpt>
      <trkpt lat="44.77208" lon="5.72181">
        <ele>820</ele>
        <time>2017-11-22T19:20:54Z</time>
      </trkpt>
      <trkpt lat="44.77206" lon="5.72198">
        <ele>820</ele>
        <time>2017-11-22T19:21:04Z</time>
      </trkpt>
      <trkpt lat="44.7721" lon="5.72252">
        <ele>825</ele>
        <time>2017-11-22T19:21:09Z</time>
      </trkpt>
      <trkpt lat="44.77212" lon="5.72289">
        <ele>826</ele>
        <time>2017-11-22T19:21:20Z</time>
      </trkpt>
      <trkpt lat="44.77208" lon="5.72326">
        <ele>827</ele>
        <time>2017-11-22T19:21:32Z</time>
      </trkpt>
      <trkpt lat="44.77201" lon="5.7236">
        <ele>829</ele>
        <time>2017-11-22T19:21:47Z</time>
      </trkpt>
      <trkpt lat="44.77199" lon="5.72375">
        <ele>830</ele>
        <time>2017-11-22T19:21:58Z</time>
      </trkpt>
      <trkpt lat="44.77201" lon="5.72386">
        <ele>830</ele>
        <time>2017-11-22T19:22:16Z</time>
      </trkpt>
      <trkpt lat="44.77211" lon="5.72407">
        <ele>832</ele>
        <time>2017-11-22T19:22:23Z</time>
      </trkpt>
      <trkpt lat="44.77224" lon="5.72432">
        <ele>835</ele>
        <time>2017-11-22T19:22:32Z</time>
      </trkpt>
      <trkpt lat="44.77268" lon="5.72551">
        <ele>851</ele>
        <time>2017-11-22T19:22:34Z</time>
      </trkpt>
      <trkpt lat="44.77281" lon="5.72589">
        <ele>849</ele>
        <time>2017-11-22T19:22:43Z</time>
      </trkpt>
      <trkpt lat="44.77296" lon="5.72656">
        <ele>851</ele>
        <time>2017-11-22T19:22:53Z</time>
      </trkpt>
      <trkpt lat="44.77313" lon="5.72755">
        <ele>857</ele>
        <time>2017-11-22T19:23:11Z</time>
      </trkpt>
      <trkpt lat="44.77317" lon="5.72787">
        <ele>857</ele>
        <time>2017-11-22T19:23:15Z</time>
      </trkpt>
      <trkpt lat="44.77318" lon="5.7282">
        <ele>860</ele>
        <time>2017-11-22T19:23:24Z</time>
      </trkpt>
      <trkpt lat="44.77313" lon="5.72868">
        <ele>863</ele>
        <time>2017-11-22T19:23:36Z</time>
      </trkpt>
      <trkpt lat="44.77305" lon="5.72924">
        <ele>869</ele>
        <time>2017-11-22T19:23:39Z</time>
      </trkpt>
      <trkpt lat="44.77293" lon="5.72966">
        <ele>870</ele>
        <time>2017-11-22T19:23:55Z</time>
      </trkpt>
      <trkpt lat="44.77279" lon="5.73002">
        <ele>878</ele>
        <time>2017-11-22T19:24:07Z</time>
      </trkpt>
      <trkpt lat="44.77267" lon="5.73022">
        <ele>878</ele>
        <time>2017-11-22T19:24:23Z</time>
      </trkpt>
      <trkpt lat="44.77255" lon="5.73039">
        <ele>880</ele>
        <time>2017-11-22T19:24:37Z</time>
      </trkpt>
      <trkpt lat="44.77229" lon="5.73063">
        <ele>876</ele>
        <time>2017-11-22T19:24:55Z</time>
      </trkpt>
      <trkpt lat="44.77206" lon="5.73078">
        <ele>875</ele>
        <time>2017-11-22T19:25:00Z</time>
      </trkpt>
      <trkpt lat="44.77189" lon="5.73092">
        <ele>883</ele>
        <time>2017-11-22T19:25:07Z</time>
      </trkpt>
      <trkpt lat="44.77185" lon="5.73098">
        <ele>883</ele>
        <time>2017-11-22T19:25:17Z</time>
      </trkpt>
      <trkpt lat="44.77186" lon="5.73106">
        <ele>884</ele>
        <time>2017-11-22T19:25:19Z</time>
      </trkpt>
      <trkpt lat="44.77192" lon="5.7311">
        <ele>885</ele>
        <time>2017-11-22T19:25:27Z</time>
      </trkpt>
      <trkpt lat="44.77217" lon="5.731">
        <ele>885</ele>
        <time>2017-11-22T19:25:29Z</time>
      </trkpt>
      <trkpt lat="44.77242" lon="5.73095">
        <ele>885</ele>
        <time>2017-11-22T19:25:41Z</time>
      </trkpt>
      <trkpt lat="44.7727" lon="5.73091">
        <ele>890</ele>
        <time>2017-11-22T19:25:55Z</time>
      </trkpt>
      <trkpt lat="44.77308" lon="5.73075">
        <ele>887</ele>
        <time>2017-11-22T19:26:01Z</time>
      </trkpt>
      <trkpt lat="44.77325" lon="5.73064">
        <ele>888</ele>
        <time>2017-11-22T19:26:08Z</time>
      </trkpt>
      <trkpt lat="44.77341" lon="5.7305">
        <ele>894</ele>
        <time>2017-11-22T19:26:26Z</time>
      </trkpt>
      <trkpt lat="44.77375" lon="5.73017">
        <ele>894</ele>
        <time>2017-11-22T19:26:32Z</time>
      </trkpt>
      <trkpt lat="44.77447" lon="5.7295">
        <ele>897</ele>
        <time>2017-11-22T19:26:37Z</time>
      </trkpt>
      <trkpt lat="44.77454" lon="5.7295">
        <ele>897</ele>
        <time>2017-11-22T19:26:47Z</time>
      </trkpt>
      <trkpt lat="44.77459" lon="5.72952">
        <ele>897</ele>
        <time>2017-11-22T19:27:01Z</time>
      </trkpt>
      <trkpt lat="44.77465" lon="5.72957">
        <ele>897</ele>
        <time>2017-11-22T19:27:05Z</time>
      </trkpt>
      <trkpt lat="44.77469" lon="5.72967">
        <ele>897</ele>
        <time>2017-11-22T19:27:10Z</time>
      </trkpt>
      <trkpt lat="44.77473" lon="5.72999">
        <ele>897</ele>
        <time>2017-11-22T19:27:14Z</time>
      </trkpt>
      <trkpt lat="44.77476" lon="5.73039">
        <ele>897</ele>
        <time>2017-11-22T19:27:19Z</time>
      </trkpt>
      <trkpt lat="44.7748" lon="5.73063">
        <ele>897</ele>
        <time>2017-11-22T19:27:25Z</time>
      </trkpt>
      <trkpt lat="44.77491" lon="5.73099">
        <ele>897</ele>
        <time>2017-11-22T19:27:32Z</time>
      </trkpt>
      <trkpt lat="44.7751" lon="5.73143">
        <ele>889</ele>
        <time>2017-11-22T19:27:43Z</time>
      </trkpt>
      <trkpt lat="44.77528" lon="5.73175">
        <ele>889</ele>
        <time>2017-11-22T19:27:55Z</time>
      </trkpt>
      <trkpt lat="44.77554" lon="5.73222">
        <ele>885</ele>
        <time>2017-11-22T19:28:13Z</time>
      </trkpt>
      <trkpt lat="44.77563" lon="5.73245">
        <ele>882</ele>
        <time>2017-11-22T19:28:30Z</time>
      </trkpt>
      <trkpt lat="44.7757" lon="5.73268">
        <ele>881</ele>
        <time>2017-11-22T19:28:47Z</time>
      </trkpt>
      <trkpt lat="44.77572" lon="5.73289">
        <ele>882</ele>
        <time>2017-11-22T19:29:05Z</time>
      </trkpt>
      <trkpt lat="44.77571" lon="5.73309">
        <ele>881</ele>
        <time>2017-11-22T19:29:20Z</time>
      </trkpt>
      <trkpt lat="44.77562" lon="5.73358">
        <ele>880</ele>
        <time>2017-11-22T19:29:29Z</time>
      </trkpt>
      <trkpt lat="44.77555" lon="5.73397">
        <ele>880</ele>
        <time>2017-11-22T19:29:35Z</time>
      </trkpt>
      <trkpt lat="44.77555" lon="5.73417">
        <ele>879</ele>
        <time>2017-11-22T19:29:50Z</time>
      </trkpt>
      <trkpt lat="44.7756" lon="5.73437">
        <ele>879</ele>
        <time>2017-11-22T19:30:09Z</time>
      </trkpt>
      <trkpt lat="44.77577" lon="5.73485">
        <ele>877</ele>
        <time>2017-11-22T19:30:23Z</time>
      </trkpt>
      <trkpt lat="44.77621" lon="5.73597">
        <ele>865</ele>
        <time>2017-11-22T19:30:42Z</time>
      </trkpt>
      <trkpt lat="44.77663" lon="5.73688">
        <ele>859</ele>
        <time>2017-11-22T19:30:45Z</time>
      </trkpt>
      <trkpt lat="44.7769" lon="5.73736">
        <ele>852</ele>
        <time>2017-11-22T19:30:58Z</time>
      </trkpt>
      <trkpt lat="44.77722" lon="5.73782">
        <ele>849</ele>
        <time>2017-11-22T19:31:10Z</time>
      </trkpt>
      <trkpt lat="44.77746" lon="5.73815">
        <ele>847</ele>
        <time>2017-11-22T19:31:19Z</time>
      </trkpt>
      <trkpt lat="44.77753" lon="5.73829">
        <ele>844</ele>
        <time>2017-11-22T19:31:22Z</time>
      </trkpt>
      <trkpt lat="44.77755" lon="5.73852">
        <ele>843</ele>
        <time>2017-11-22T19:31:36Z</time>
      </trkpt>
      <trkpt lat="44.77752" lon="5.73883">
        <ele>843</ele>
        <time>2017-11-22T19:31:55Z</time>
      </trkpt>
      <trkpt lat="44.77757" lon="5.73898">
        <ele>843</ele>
        <time>2017-11-22T19:32:09Z</time>
      </trkpt>
      <trkpt lat="44.77765" lon="5.73911">
        <ele>843</ele>
        <time>2017-11-22T19:32:24Z</time>
      </trkpt>
      <trkpt lat="44.77822" lon="5.73967">
        <ele>838</ele>
        <time>2017-11-22T19:32:35Z</time>
      </trkpt>
      <trkpt lat="44.77863" lon="5.74011">
        <ele>830</ele>
        <time>2017-11-22T19:32:42Z</time>
      </trkpt>
      <trkpt lat="44.77878" lon="5.74036">
        <ele>830</ele>
        <time>2017-11-22T19:32:44Z</time>
      </trkpt>
      <trkpt lat="44.77896" lon="5.7407">
        <ele>829</ele>
        <time>2017-11-22T19:32:49Z</time>
      </trkpt>
      <trkpt lat="44.77899" lon="5.74077">
        <ele>829</ele>
        <time>2017-11-22T19:33:04Z</time>
      </trkpt>
      <trkpt lat="44.77907" lon="5.74058">
        <ele>829</ele>
        <time>2017-11-22T19:33:14Z</time>
      </trkpt>
      <trkpt lat="44.77926" lon="5.74013">
        <ele>825</ele>
        <time>2017-11-22T19:33:27Z</time>
      </trkpt>
      <trkpt lat="44.77972" lon="5.73894">
        <ele>823</ele>
        <time>2017-11-22T19:33:42Z</time>
      </trkpt>
      <trkpt lat="44.77984" lon="5.73861">
        <ele>823</ele>
        <time>2017-11-22T19:34:02Z</time>
      </trkpt>
      <trkpt lat="44.77996" lon="5.73801">
        <ele>822</ele>
        <time>2017-11-22T19:34:20Z</time>
      </trkpt>
      <trkpt lat="44.78017" lon="5.73667">
        <ele>814</ele>
        <time>2017-11-22T19:34:36Z</time>
      </trkpt>
      <trkpt lat="44.78024" lon="5.73647">
        <ele>811</ele>
        <time>2017-11-22T19:34:48Z</time>
      </trkpt>
      <trkpt lat="44.78043" lon="5.73619">
        <ele>810</ele>
        <time>2017-11-22T19:34:51Z</time>
      </trkpt>
      <trkpt lat="44.78083" lon="5.73571">
        <ele>805</ele>
        <time>2017-11-22T19:35:05Z</time>
      </trkpt>
      <trkpt lat="44.78098" lon="5.73552">
        <ele>803</ele>
        <time>2017-11-22T19:35:07Z</time>
      </trkpt>
      <trkpt lat="44.78107" lon="5.73535">
        <ele>803</ele>
        <time>2017-11-22T19:35:21Z</time>
      </trkpt>
      <trkpt lat="44.78122" lon="5.73475">
        <ele>802</ele>
        <time>2017-11-22T19:35:29Z</time>
      </trkpt>
      <trkpt lat="44.78136" lon="5.73397">
        <ele>800</ele>
        <time>2017-11-22T19:35:32Z</time>
      </trkpt>
      <trkpt lat="44.78146" lon="5.73342">
        <ele>799</ele>
        <time>2017-11-22T19:35:48Z</time>
      </trkpt>
      <trkpt lat="44.78154" lon="5.73277">
        <ele>797</ele>
        <time>2017-11-22T19:36:06Z</time>
      </trkpt>
      <trkpt lat="44.78161" lon="5.73275">
        <ele>796</ele>
        <time>2017-11-22T19:36:09Z</time>
      </trkpt>
      <trkpt lat="44.78174" lon="5.73278">
        <ele>794</ele>
        <time>2017-11-22T19:36:26Z</time>
      </trkpt>
      <trkpt lat="44.78206" lon="5.73289">
        <ele>793</ele>
        <time>2017-11-22T19:36:36Z</time>
      </trkpt>
      <trkpt lat="44.78234" lon="5.733">
        <ele>792</ele>
        <time>2017-11-22T19:36:55Z</time>
      </trkpt>
      <trkpt lat="44.78256" lon="5.73312">
        <ele>789</ele>
        <time>2017-11-22T19:37:09Z</time>
      </trkpt>
      <trkpt lat="44.7827" lon="5.73325">
        <ele>789</ele>
        <time>2017-11-22T19:37:12Z</time>
      </trkpt>
      <trkpt lat="44.783" lon="5.73355">
        <ele>793</ele>
        <time>2017-11-22T19:37:25Z</time>
      </trkpt>
      <trkpt lat="44.7831" lon="5.73359">
        <ele>793</ele>
        <time>2017-11-22T19:37:45Z</time>
      </trkpt>
      <trkpt lat="44.78321" lon="5.7336">
        <ele>793</ele>
        <time>2017-11-22T19:37:55Z</time>
      </trkpt>
      <trkpt lat="44.78353" lon="5.73357">
        <ele>794</ele>
        <time>2017-11-22T19:38:02Z</time>
      </trkpt>
      <trkpt lat="44.78391" lon="5.73359">
        <ele>794</ele>
        <time>2017-11-22T19:38:07Z</time>
      </trkpt>
      <trkpt lat="44.78438" lon="5.7337">
        <ele>792</ele>
        <time>2017-11-22T19:38:11Z</time>
      </trkpt>
      <trkpt lat="44.78463" lon="5.73378">
        <ele>791</ele>
        <time>2017-11-22T19:38:20Z</time>
      </trkpt>
      <trkpt lat="44.78483" lon="5.73387">
        <ele>791</ele>
        <time>2017-11-22T19:38:27Z</time>
      </trkpt>
      <trkpt lat="44.78523" lon="5.73412">
        <ele>786</ele>
        <time>2017-11-22T19:38:46Z</time>
      </trkpt>
      <trkpt lat="44.78549" lon="5.73434">
        <ele>787</ele>
        <time>2017-11-22T19:38:49Z</time>
      </trkpt>
      <trkpt lat="44.78554" lon="5.73437">
        <ele>787</ele>
        <time>2017-11-22T19:39:04Z</time>
      </trkpt>
      <trkpt lat="44.78566" lon="5.73439">
        <ele>786</ele>
        <time>2017-11-22T19:39:19Z</time>
      </trkpt>
      <trkpt lat="44.78591" lon="5.73439">
        <ele>779</ele>
        <time>2017-11-22T19:39:30Z</time>
      </trkpt>
      <trkpt lat="44.78614" lon="5.73437">
        <ele>778</ele>
        <time>2017-11-22T19:39:36Z</time>
      </trkpt>
      <trkpt lat="44.78626" lon="5.73434">
        <ele>777</ele>
        <time>2017-11-22T19:39:42Z</time>
      </trkpt>
      <trkpt lat="44.78636" lon="5.73427">
        <ele>776</ele>
        <time>2017-11-22T19:39:59Z</time>
      </trkpt>
      <trkpt lat="44.78646" lon="5.73416">
        <ele>774</ele>
        <time>2017-11-22T19:40:08Z</time>
      </trkpt>
      <trkpt lat="44.78656" lon="5.73399">
        <ele>774</ele>
        <time>2017-11-22T19:40:26Z</time>
      </trkpt>
      <trkpt lat="44.78674" lon="5.73357">
        <ele>770</ele>
        <time>2017-11-22T19:40:45Z</time>
      </trkpt>
      <trkpt lat="44.78697" lon="5.7332">
        <ele>769</ele>
        <time>2017-11-22T19:40:48Z</time>
      </trkpt>
      <trkpt lat="44.78716" lon="5.73278">
        <ele>768</ele>
        <time>2017-11-22T19:40:52Z</time>
      </trkpt>
      <trkpt lat="44.78722" lon="5.73266">
        <ele>768</ele>
        <time>2017-11-22T19:41:06Z</time>
      </trkpt>
      <trkpt lat="44.78729" lon="5.7326">
        <ele>768</ele>
        <time>2017-11-22T19:41:23Z</time>
      </trkpt>
      <trkpt lat="44.78736" lon="5.73257">
        <ele>767</ele>
        <time>2017-11-22T19:41:30Z</time>
      </trkpt>
      <trkpt lat="44.78752" lon="5.73254">
        <ele>765</ele>
        <time>2017-11-22T19:41:43Z</time>
      </trkpt>
      <trkpt lat="44.78839" lon="5.7325">
        <ele>759</ele>
        <time>2017-11-22T19:41:53Z</time>
      </trkpt>
      <trkpt lat="44.78881" lon="5.73248">
        <ele>759</ele>
        <time>2017-11-22T19:42:01Z</time>
      </trkpt>
      <trkpt lat="44.78905" lon="5.73251">
        <ele>760</ele>
        <time>2017-11-22T19:42:17Z</time>
      </trkpt>
      <trkpt lat="44.78924" lon="5.73257">
        <ele>761</ele>
        <time>2017-11-22T19:42:21Z</time>
      </trkpt>
      <trkpt lat="44.78927" lon="5.73256">
        <ele>761</ele>
        <time>2017-11-22T19:42:36Z</time>
      </trkpt>
      <trkpt lat="44.78934" lon="5.73252">
        <ele>761</ele>
        <time>2017-11-22T19:42:52Z</time>
      </trkpt>
      <trkpt lat="44.78938" lon="5.73243">
        <ele>760</ele>
        <time>2017-11-22T19:42:56Z</time>
      </trkpt>
      <trkpt lat="44.78941" lon="5.7323">
        <ele>759</ele>
        <time>2017-11-22T19:42:58Z</time>
      </trkpt>
      <trkpt lat="44.78945" lon="5.73203">
        <ele>759</ele>
        <time>2017-11-22T19:43:18Z</time>
      </trkpt>
      <trkpt lat="44.78951" lon="5.73123">
        <ele>755</ele>
        <time>2017-11-22T19:43:37Z</time>
      </trkpt>
      <trkpt lat="44.78957" lon="5.73074">
        <ele>751</ele>
        <time>2017-11-22T19:43:48Z</time>
      </trkpt>
      <trkpt lat="44.78962" lon="5.73056">
        <ele>751</ele>
        <time>2017-11-22T19:43:56Z</time>
      </trkpt>
      <trkpt lat="44.78968" lon="5.73045">
        <ele>751</ele>
        <time>2017-11-22T19:44:14Z</time>
      </trkpt>
      <trkpt lat="44.78985" lon="5.73019">
        <ele>749</ele>
        <time>2017-11-22T19:44:22Z</time>
      </trkpt>
      <trkpt lat="44.78996" lon="5.73006">
        <ele>747</ele>
        <time>2017-11-22T19:44:42Z</time>
      </trkpt>
      <trkpt lat="44.79007" lon="5.72995">
        <ele>746</ele>
        <time>2017-11-22T19:44:49Z</time>
      </trkpt>
      <trkpt lat="44.79042" lon="5.72972">
        <ele>744</ele>
        <time>2017-11-22T19:45:09Z</time>
      </trkpt>
      <trkpt lat="44.79054" lon="5.72965">
        <ele>744</ele>
        <time>2017-11-22T19:45:24Z</time>
      </trkpt>
      <trkpt lat="44.79063" lon="5.72965">
        <ele>744</ele>
        <time>2017-11-22T19:45:30Z</time>
      </trkpt>
      <trkpt lat="44.79073" lon="5.72967">
        <ele>744</ele>
        <time>2017-11-22T19:45:42Z</time>
      </trkpt>
      <trkpt lat="44.79087" lon="5.72974">
        <ele>742</ele>
        <time>2017-11-22T19:45:51Z</time>
      </trkpt>
      <trkpt lat="44.79105" lon="5.72982">
        <ele>742</ele>
        <time>2017-11-22T19:45:55Z</time>
      </trkpt>
      <trkpt lat="44.7912" lon="5.72987">
        <ele>741</ele>
        <time>2017-11-22T19:46:01Z</time>
      </trkpt>
      <trkpt lat="44.79134" lon="5.72992">
        <ele>741</ele>
        <time>2017-11-22T19:46:12Z</time>
      </trkpt>
      <trkpt lat="44.79144" lon="5.72998">
        <ele>740</ele>
        <time>2017-11-22T19:46:19Z</time>
      </trkpt>
      <trkpt lat="44.79154" lon="5.73012">
        <ele>741</ele>
        <time>2017-11-22T19:46:26Z</time>
      </trkpt>
      <trkpt lat="44.79164" lon="5.73032">
        <ele>742</ele>
        <time>2017-11-22T19:46:41Z</time>
      </trkpt>
      <trkpt lat="44.79172" lon="5.73045">
        <ele>743</ele>
        <time>2017-11-22T19:46:51Z</time>
      </trkpt>
      <trkpt lat="44.7918" lon="5.73054">
        <ele>744</ele>
        <time>2017-11-22T19:47:09Z</time>
      </trkpt>
      <trkpt lat="44.79189" lon="5.73059">
        <ele>744</ele>
        <time>2017-11-22T19:47:24Z</time>
      </trkpt>
      <trkpt lat="44.792" lon="5.73061">
        <ele>745</ele>
        <time>2017-11-22T19:47:39Z</time>
      </trkpt>
      <trkpt lat="44.79208" lon="5.73059">
        <ele>745</ele>
        <time>2017-11-22T19:47:44Z</time>
      </trkpt>
      <trkpt lat="44.79216" lon="5.73055">
        <ele>745</ele>
        <time>2017-11-22T19:48:02Z</time>
      </trkpt>
      <trkpt lat="44.7924" lon="5.73022">
        <ele>744</ele>
        <time>2017-11-22T19:48:17Z</time>
      </trkpt>
      <trkpt lat="44.79263" lon="5.72993">
        <ele>745</ele>
        <time>2017-11-22T19:48:25Z</time>
      </trkpt>
      <trkpt lat="44.79283" lon="5.72976">
        <ele>748</ele>
        <time>2017-11-22T19:48:43Z</time>
      </trkpt>
      <trkpt lat="44.7929" lon="5.72968">
        <ele>749</ele>
        <time>2017-11-22T19:48:51Z</time>
      </trkpt>
      <trkpt lat="44.79295" lon="5.72958">
        <ele>749</ele>
        <time>2017-11-22T19:49:10Z</time>
      </trkpt>
      <trkpt lat="44.79328" lon="5.72891">
        <ele>746</ele>
        <time>2017-11-22T19:49:12Z</time>
      </trkpt>
      <trkpt lat="44.79357" lon="5.72838">
        <ele>749</ele>
        <time>2017-11-22T19:49:28Z</time>
      </trkpt>
      <trkpt lat="44.79364" lon="5.72832">
        <ele>743</ele>
        <time>2017-11-22T19:49:30Z</time>
      </trkpt>
      <trkpt lat="44.79373" lon="5.72829">
        <ele>744</ele>
        <time>2017-11-22T19:49:41Z</time>
      </trkpt>
      <trkpt lat="44.794" lon="5.72828">
        <ele>747</ele>
        <time>2017-11-22T19:50:00Z</time>
      </trkpt>
      <trkpt lat="44.79412" lon="5.72826">
        <ele>749</ele>
        <time>2017-11-22T19:50:18Z</time>
      </trkpt>
      <trkpt lat="44.79432" lon="5.72816">
        <ele>748</ele>
        <time>2017-11-22T19:50:29Z</time>
      </trkpt>
      <trkpt lat="44.79451" lon="5.72804">
        <ele>747</ele>
        <time>2017-11-22T19:50:47Z</time>
      </trkpt>
      <trkpt lat="44.79469" lon="5.72796">
        <ele>747</ele>
        <time>2017-11-22T19:50:57Z</time>
      </trkpt>
      <trkpt lat="44.79481" lon="5.72794">
        <ele>747</ele>
        <time>2017-11-22T19:51:12Z</time>
      </trkpt>
      <trkpt lat="44.79493" lon="5.72796">
        <ele>747</ele>
        <time>2017-11-22T19:51:25Z</time>
      </trkpt>
      <trkpt lat="44.79504" lon="5.72801">
        <ele>749</ele>
        <time>2017-11-22T19:51:36Z</time>
      </trkpt>
      <trkpt lat="44.79513" lon="5.72811">
        <ele>749</ele>
        <time>2017-11-22T19:51:39Z</time>
      </trkpt>
      <trkpt lat="44.79522" lon="5.72823">
        <ele>749</ele>
        <time>2017-11-22T19:51:48Z</time>
      </trkpt>
      <trkpt lat="44.7954" lon="5.72854">
        <ele>752</ele>
        <time>2017-11-22T19:51:50Z</time>
      </trkpt>
      <trkpt lat="44.79576" lon="5.72911">
        <ele>751</ele>
        <time>2017-11-22T19:51:54Z</time>
      </trkpt>
      <trkpt lat="44.79583" lon="5.72919">
        <ele>751</ele>
        <time>2017-11-22T19:51:58Z</time>
      </trkpt>
      <trkpt lat="44.79588" lon="5.72928">
        <ele>751</ele>
        <time>2017-11-22T19:52:07Z</time>
      </trkpt>
      <trkpt lat="44.79597" lon="5.72955">
        <ele>752</ele>
        <time>2017-11-22T19:52:27Z</time>
      </trkpt>
      <trkpt lat="44.79609" lon="5.72969">
        <ele>752</ele>
        <time>2017-11-22T19:52:43Z</time>
      </trkpt>
      <trkpt lat="44.79643" lon="5.72997">
        <ele>752</ele>
        <time>2017-11-22T19:52:58Z</time>
      </trkpt>
      <trkpt lat="44.79691" lon="5.73041">
        <ele>756</ele>
        <time>2017-11-22T19:53:07Z</time>
      </trkpt>
      <trkpt lat="44.79728" lon="5.73074">
        <ele>757</ele>
        <time>2017-11-22T19:53:12Z</time>
      </trkpt>
      <trkpt lat="44.79735" lon="5.73087">
        <ele>759</ele>
        <time>2017-11-22T19:53:30Z</time>
      </trkpt>
      <trkpt lat="44.79739" lon="5.73102">
        <ele>760</ele>
        <time>2017-11-22T19:53:34Z</time>
      </trkpt>
      <trkpt lat="44.79739" lon="5.7312">
        <ele>761</ele>
        <time>2017-11-22T19:53:52Z</time>
      </trkpt>
      <trkpt lat="44.79734" lon="5.73157">
        <ele>762</ele>
        <time>2017-11-22T19:54:06Z</time>
      </trkpt>
      <trkpt lat="44.79728" lon="5.73204">
        <ele>768</ele>
        <time>2017-11-22T19:54:15Z</time>
      </trkpt>
      <trkpt lat="44.79728" lon="5.73222">
        <ele>769</ele>
        <time>2017-11-22T19:54:17Z</time>
      </trkpt>
      <trkpt lat="44.79735" lon="5.73261">
        <ele>773</ele>
        <time>2017-11-22T19:54:34Z</time>
      </trkpt>
      <trkpt lat="44.79776" lon="5.73407">
        <ele>782</ele>
        <time>2017-11-22T19:54:36Z</time>
      </trkpt>
      <trkpt lat="44.7978" lon="5.73437">
        <ele>788</ele>
        <time>2017-11-22T19:54:52Z</time>
      </trkpt>
      <trkpt lat="44.79781" lon="5.73479">
        <ele>791</ele>
        <time>2017-11-22T19:55:12Z</time>
      </trkpt>
      <trkpt lat="44.79783" lon="5.73492">
        <ele>791</ele>
        <time>2017-11-22T19:55:31Z</time>
      </trkpt>
      <trkpt lat="44.79789" lon="5.73499">
        <ele>791</ele>
        <time>2017-11-22T19:55:38Z</time>
      </trkpt>
      <trkpt lat="44.79795" lon="5.73501">
        <ele>798</ele>
        <time>2017-11-22T19:55:45Z</time>
      </trkpt>
      <trkpt lat="44.79803" lon="5.73498">
        <ele>791</ele>
        <time>2017-11-22T19:55:53Z</time>
      </trkpt>
      <trkpt lat="44.79813" lon="5.7349">
        <ele>792</ele>
        <time>2017-11-22T19:56:03Z</time>
      </trkpt>
      <trkpt lat="44.79826" lon="5.73477">
        <ele>791</ele>
        <time>2017-11-22T19:56:21Z</time>
      </trkpt>
      <trkpt lat="44.7986" lon="5.73455">
        <ele>793</ele>
        <time>2017-11-22T19:56:32Z</time>
      </trkpt>
      <trkpt lat="44.79868" lon="5.73451">
        <ele>793</ele>
        <time>2017-11-22T19:56:51Z</time>
      </trkpt>
      <trkpt lat="44.7988" lon="5.73446">
        <ele>794</ele>
        <time>2017-11-22T19:56:54Z</time>
      </trkpt>
      <trkpt lat="44.79912" lon="5.73441">
        <ele>795</ele>
        <time>2017-11-22T19:57:12Z</time>
      </trkpt>
      <trkpt lat="44.79939" lon="5.73436">
        <ele>802</ele>
        <time>2017-11-22T19:57:28Z</time>
      </trkpt>
      <trkpt lat="44.79945" lon="5.73432">
        <ele>803</ele>
        <time>2017-11-22T19:57:43Z</time>
      </trkpt>
      <trkpt lat="44.80002" lon="5.73399">
        <ele>806</ele>
        <time>2017-11-22T19:57:53Z</time>
      </trkpt>
      <trkpt lat="44.80025" lon="5.7339">
        <ele>805</ele>
        <time>2017-11-22T19:58:05Z</time>
      </trkpt>
      <trkpt lat="44.80041" lon="5.73388">
        <ele>805</ele>
        <time>2017-11-22T19:58:15Z</time>
      </trkpt>
      <trkpt lat="44.80069" lon="5.73394">
        <ele>806</ele>
        <time>2017-11-22T19:58:28Z</time>
      </trkpt>
      <trkpt lat="44.80169" lon="5.73453">
        <ele>810</ele>
        <time>2017-11-22T19:58:32Z</time>
      </trkpt>
      <trkpt lat="44.80217" lon="5.73483">
        <ele>810</ele>
        <time>2017-11-22T19:58:40Z</time>
      </trkpt>
      <trkpt lat="44.80294" lon="5.73531">
        <ele>805</ele>
        <time>2017-11-22T19:58:44Z</time>
      </trkpt>
      <trkpt lat="44.80313" lon="5.73533">
        <ele>804</ele>
        <time>2017-11-22T19:59:04Z</time>
      </trkpt>
      <trkpt lat="44.80335" lon="5.7352">
        <ele>799</ele>
        <time>2017-11-22T19:59:22Z</time>
      </trkpt>
      <trkpt lat="44.8037" lon="5.73487">
        <ele>800</ele>
        <time>2017-11-22T19:59:33Z</time>
      </trkpt>
      <trkpt lat="44.80411" lon="5.73449">
        <ele>801</ele>
        <time>2017-11-22T19:59:35Z</time>
      </trkpt>
      <trkpt lat="44.80453" lon="5.73414">
        <ele>796</ele>
        <time>2017-11-22T19:59:50Z</time>
      </trkpt>
      <trkpt lat="44.80477" lon="5.73395">
        <ele>793</ele>
        <time>2017-11-22T20:00:03Z</time>
      </trkpt>
      <trkpt lat="44.8049" lon="5.73372">
        <ele>793</ele>
        <time>2017-11-22T20:00:12Z</time>
      </trkpt>
      <trkpt lat="44.80495" lon="5.73364">
        <ele>792</ele>
        <time>2017-11-22T20:00:27Z</time>
      </trkpt>
      <trkpt lat="44.805" lon="5.73366">
        <ele>792</ele>
        <time>2017-11-22T20:00:31Z</time>
      </trkpt>
      <trkpt lat="44.80502" lon="5.73371">
        <ele>781</ele>
        <time>2017-11-22T20:00:33Z</time>
      </trkpt>
      <trkpt lat="44.80502" lon="5.73382">
        <ele>781</ele>
        <time>2017-11-22T20:00:40Z</time>
      </trkpt>
      <trkpt lat="44.80486" lon="5.7343">
        <ele>788</ele>
        <time>2017-11-22T20:00:56Z</time>
      </trkpt>
      <trkpt lat="44.80444" lon="5.73585">
        <ele>781</ele>
        <time>2017-11-22T20:01:11Z</time>
      </trkpt>
      <trkpt lat="44.80388" lon="5.73762">
        <ele>780</ele>
        <time>2017-11-22T20:01:24Z</time>
      </trkpt>
      <trkpt lat="44.80361" lon="5.73815">
        <ele>779</ele>
        <time>2017-11-22T20:01:31Z</time>
      </trkpt>
      <trkpt lat="44.80326" lon="5.73881">
        <ele>779</ele>
        <time>2017-11-22T20:01:34Z</time>
      </trkpt>
      <trkpt lat="44.80324" lon="5.73895">
        <ele>778</ele>
        <time>2017-11-22T20:01:52Z</time>
      </trkpt>
      <trkpt lat="44.80327" lon="5.73904">
        <ele>776</ele>
        <time>2017-11-22T20:01:56Z</time>
      </trkpt>
      <trkpt lat="44.80334" lon="5.73911">
        <ele>770</ele>
        <time>2017-11-22T20:02:14Z</time>
      </trkpt>
      <trkpt lat="44.80345" lon="5.73912">
        <ele>769</ele>
        <time>2017-11-22T20:02:28Z</time>
      </trkpt>
      <trkpt lat="44.80415" lon="5.73876">
        <ele>766</ele>
        <time>2017-11-22T20:02:39Z</time>
      </trkpt>
      <trkpt lat="44.80427" lon="5.7387">
        <ele>760</ele>
        <time>2017-11-22T20:02:45Z</time>
      </trkpt>
      <trkpt lat="44.80436" lon="5.7387">
        <ele>760</ele>
        <time>2017-11-22T20:02:47Z</time>
      </trkpt>
      <trkpt lat="44.80442" lon="5.73874">
        <ele>759</ele>
        <time>2017-11-22T20:03:03Z</time>
      </trkpt>
      <trkpt lat="44.80445" lon="5.73882">
        <ele>759</ele>
        <time>2017-11-22T20:03:13Z</time>
      </trkpt>
      <trkpt lat="44.80443" lon="5.73897">
        <ele>758</ele>
        <time>2017-11-22T20:03:16Z</time>
      </trkpt>
      <trkpt lat="44.80425" lon="5.73908">
        <ele>757</ele>
        <time>2017-11-22T20:03:33Z</time>
      </trkpt>
      <trkpt lat="44.8041" lon="5.73917">
        <ele>757</ele>
        <time>2017-11-22T20:03:40Z</time>
      </trkpt>
      <trkpt lat="44.80399" lon="5.73927">
        <ele>759</ele>
        <time>2017-11-22T20:03:48Z</time>
      </trkpt>
      <trkpt lat="44.80382" lon="5.73955">
        <ele>760</ele>
        <time>2017-11-22T20:03:58Z</time>
      </trkpt>
      <trkpt lat="44.80371" lon="5.73976">
        <ele>760</ele>
        <time>2017-11-22T20:04:06Z</time>
      </trkpt>
      <trkpt lat="44.80368" lon="5.73997">
        <ele>760</ele>
        <time>2017-11-22T20:04:15Z</time>
      </trkpt>
      <trkpt lat="44.80368" lon="5.74017">
        <ele>754</ele>
        <time>2017-11-22T20:04:32Z</time>
      </trkpt>
      <trkpt lat="44.80374" lon="5.74039">
        <ele>753</ele>
        <time>2017-11-22T20:04:42Z</time>
      </trkpt>
      <trkpt lat="44.80381" lon="5.74055">
        <ele>751</ele>
        <time>2017-11-22T20:04:52Z</time>
      </trkpt>
      <trkpt lat="44.80391" lon="5.74063">
        <ele>750</ele>
        <time>2017-11-22T20:04:58Z</time>
      </trkpt>
      <trkpt lat="44.804" lon="5.74069">
        <ele>749</ele>
        <time>2017-11-22T20:05:03Z</time>
      </trkpt>
      <trkpt lat="44.80409" lon="5.74071">
        <ele>748</ele>
        <time>2017-11-22T20:05:16Z</time>
      </trkpt>
      <trkpt lat="44.80421" lon="5.74072">
        <ele>744</ele>
        <time>2017-11-22T20:05:22Z</time>
      </trkpt>
      <trkpt lat="44.80432" lon="5.74069">
        <ele>744</ele>
        <time>2017-11-22T20:05:42Z</time>
      </trkpt>
      <trkpt lat="44.80464" lon="5.74038">
        <ele>744</ele>
        <time>2017-11-22T20:05:48Z</time>
      </trkpt>
      <trkpt lat="44.80514" lon="5.73978">
        <ele>743</ele>
        <time>2017-11-22T20:06:01Z</time>
      </trkpt>
      <trkpt lat="44.80522" lon="5.73975">
        <ele>742</ele>
        <time>2017-11-22T20:06:11Z</time>
      </trkpt>
      <trkpt lat="44.80529" lon="5.73977">
        <ele>742</ele>
        <time>2017-11-22T20:06:17Z</time>
      </trkpt>
      <trkpt lat="44.80533" lon="5.73983">
        <ele>741</ele>
        <time>2017-11-22T20:06:35Z</time>
      </trkpt>
      <trkpt lat="44.80536" lon="5.73995">
        <ele>741</ele>
        <time>2017-11-22T20:06:49Z</time>
      </trkpt>
      <trkpt lat="44.80534" lon="5.74003">
        <ele>737</ele>
        <time>2017-11-22T20:07:06Z</time>
      </trkpt>
      <trkpt lat="44.80525" lon="5.74018">
        <ele>738</ele>
        <time>2017-11-22T20:07:22Z</time>
      </trkpt>
      <trkpt lat="44.80488" lon="5.74067">
        <ele>741</ele>
        <time>2017-11-22T20:07:25Z</time>
      </trkpt>
      <trkpt lat="44.80484" lon="5.74073">
        <ele>741</ele>
        <time>2017-11-22T20:07:38Z</time>
      </trkpt>
      <trkpt lat="44.80481" lon="5.74083">
        <ele>741</ele>
        <time>2017-11-22T20:07:50Z</time>
      </trkpt>
      <trkpt lat="44.80481" lon="5.74093">
        <ele>737</ele>
        <time>2017-11-22T20:08:05Z</time>
      </trkpt>
      <trkpt lat="44.80484" lon="5.741">
        <ele>737</ele>
        <time>2017-11-22T20:08:11Z</time>
      </trkpt>
      <trkpt lat="44.80494" lon="5.74107">
        <ele>737</ele>
        <time>2017-11-22T20:08:18Z</time>
      </trkpt>
      <trkpt lat="44.80571" lon="5.74122">
        <ele>733</ele>
        <time>2017-11-22T20:08:31Z</time>
      </trkpt>
      <trkpt lat="44.80594" lon="5.74126">
        <ele>739</ele>
        <time>2017-11-22T20:08:46Z</time>
      </trkpt>
      <trkpt lat="44.80605" lon="5.74124">
        <ele>740</ele>
        <time>2017-11-22T20:08:55Z</time>
      </trkpt>
      <trkpt lat="44.80609" lon="5.74119">
        <ele>740</ele>
        <time>2017-11-22T20:09:05Z</time>
      </trkpt>
      <trkpt lat="44.80615" lon="5.74104">
        <ele>739</ele>
        <time>2017-11-22T20:09:07Z</time>
      </trkpt>
      <trkpt lat="44.80623" lon="5.74086">
        <ele>739</ele>
        <time>2017-11-22T20:09:19Z</time>
      </trkpt>
      <trkpt lat="44.80636" lon="5.74071">
        <ele>734</ele>
        <time>2017-11-22T20:09:24Z</time>
      </trkpt>
      <trkpt lat="44.8066" lon="5.74057">
        <ele>735</ele>
        <time>2017-11-22T20:09:43Z</time>
      </trkpt>
      <trkpt lat="44.80744" lon="5.74">
        <ele>736</ele>
        <time>2017-11-22T20:09:50Z</time>
      </trkpt>
      <trkpt lat="44.80766" lon="5.73986">
        <ele>733</ele>
        <time>2017-11-22T20:10:03Z</time>
      </trkpt>
      <trkpt lat="44.80772" lon="5.73985">
        <ele>733</ele>
        <time>2017-11-22T20:10:21Z</time>
      </trkpt>
      <trkpt lat="44.80805" lon="5.73986">
        <ele>735</ele>
        <time>2017-11-22T20:10:32Z</time>
      </trkpt>
      <trkpt lat="44.80872" lon="5.73998">
        <ele>741</ele>
        <time>2017-11-22T20:10:38Z</time>
      </trkpt>
      <trkpt lat="44.80919" lon="5.74003">
        <ele>747</ele>
        <time>2017-11-22T20:10:54Z</time>
      </trkpt>
      <trkpt lat="44.80943" lon="5.73998">
        <ele>748</ele>
        <time>2017-11-22T20:11:05Z</time>
      </trkpt>
      <trkpt lat="44.80955" lon="5.73982">
        <ele>749</ele>
        <time>2017-11-22T20:11:18Z</time>
      </trkpt>
      <trkpt lat="44.80959" lon="5.73959">
        <ele>748</ele>
        <time>2017-11-22T20:11:32Z</time>
      </trkpt>
      <trkpt lat="44.80964" lon="5.73903">
        <ele>745</ele>
        <time>2017-11-22T20:11:48Z</time>
      </trkpt>
      <trkpt lat="44.80967" lon="5.73891">
        <ele>745</ele>
        <time>2017-11-22T20:11:51Z</time>
      </trkpt>
      <trkpt lat="44.80974" lon="5.73885">
        <ele>746</ele>
        <time>2017-11-22T20:12:09Z</time>
      </trkpt>
      <trkpt lat="44.80985" lon="5.73886">
        <ele>747</ele>
        <time>2017-11-22T20:12:17Z</time>
      </trkpt>
      <trkpt lat="44.80996" lon="5.73899">
        <ele>749</ele>
        <time>2017-11-22T20:12:35Z</time>
      </trkpt>
      <trkpt lat="44.81001" lon="5.73952">
        <ele>756</ele>
        <time>2017-11-22T20:12:51Z</time>
      </trkpt>
      <trkpt lat="44.81002" lon="5.74026">
        <ele>759</ele>
        <time>2017-11-22T20:12:58Z</time>
      </trkpt>
      <trkpt lat="44.80992" lon="5.74059">
        <ele>758</ele>
        <time>2017-11-22T20:13:17Z</time>
      </trkpt>
      <trkpt lat="44.8099" lon="5.74076">
        <ele>760</ele>
        <time>2017-11-22T20:13:34Z</time>
      </trkpt>
      <trkpt lat="44.80991" lon="5.74088">
        <ele>763</ele>
        <time>2017-11-22T20:13:38Z</time>
      </trkpt>
      <trkpt lat="44.80994" lon="5.74095">
        <ele>763</ele>
        <time>2017-11-22T20:13:51Z</time>
      </trkpt>
      <trkpt lat="44.81003" lon="5.74104">
        <ele>763</ele>
        <time>2017-11-22T20:13:54Z</time>
      </trkpt>
      <trkpt lat="44.81017" lon="5.74108">
        <ele>763</ele>
        <time>2017-11-22T20:14:04Z</time>
      </trkpt>
      <trkpt lat="44.81047" lon="5.74117">
        <ele>763</ele>
        <time>2017-11-22T20:14:14Z</time>
      </trkpt>
      <trkpt lat="44.8106" lon="5.74122">
        <ele>763</ele>
        <time>2017-11-22T20:14:32Z</time>
      </trkpt>
      <trkpt lat="44.81096" lon="5.7414">
        <ele>759</ele>
        <time>2017-11-22T20:14:36Z</time>
      </trkpt>
      <trkpt lat="44.81102" lon="5.74143">
        <ele>759</ele>
        <time>2017-11-22T20:14:52Z</time>
      </trkpt>
      <trkpt lat="44.81114" lon="5.7416">
        <ele>759</ele>
        <time>2017-11-22T20:15:07Z</time>
      </trkpt>
      <trkpt lat="44.81122" lon="5.7418">
        <ele>758</ele>
        <time>2017-11-22T20:15:20Z</time>
      </trkpt>
      <trkpt lat="44.81131" lon="5.74218">
        <ele>758</ele>
        <time>2017-11-22T20:15:33Z</time>
      </trkpt>
      <trkpt lat="44.81139" lon="5.74251">
        <ele>757</ele>
        <time>2017-11-22T20:15:37Z</time>
      </trkpt>
      <trkpt lat="44.81144" lon="5.74262">
        <ele>757</ele>
        <time>2017-11-22T20:15:49Z</time>
      </trkpt>
      <trkpt lat="44.81149" lon="5.74267">
        <ele>757</ele>
        <time>2017-11-22T20:15:53Z</time>
      </trkpt>
      <trkpt lat="44.81156" lon="5.74269">
        <ele>757</ele>
        <time>2017-11-22T20:15:55Z</time>
      </trkpt>
      <trkpt lat="44.8116" lon="5.74268">
        <ele>757</ele>
        <time>2017-11-22T20:16:11Z</time>
      </trkpt>
      <trkpt lat="44.81163" lon="5.74264">
        <ele>756</ele>
        <time>2017-11-22T20:16:25Z</time>
      </trkpt>
      <trkpt lat="44.8117" lon="5.74249">
        <ele>754</ele>
        <time>2017-11-22T20:16:29Z</time>
      </trkpt>
      <trkpt lat="44.81183" lon="5.74187">
        <ele>752</ele>
        <time>2017-11-22T20:16:36Z</time>
      </trkpt>
      <trkpt lat="44.81189" lon="5.74166">
        <ele>751</ele>
        <time>2017-11-22T20:16:53Z</time>
      </trkpt>
      <trkpt lat="44.81195" lon="5.74152">
        <ele>750</ele>
        <time>2017-11-22T20:17:13Z</time>
      </trkpt>
      <trkpt lat="44.81205" lon="5.74142">
        <ele>750</ele>
        <time>2017-11-22T20:17:21Z</time>
      </trkpt>
      <trkpt lat="44.81215" lon="5.74136">
        <ele>749</ele>
        <time>2017-11-22T20:17:35Z</time>
      </trkpt>
      <trkpt lat="44.81229" lon="5.74135">
        <ele>748</ele>
        <time>2017-11-22T20:17:38Z</time>
      </trkpt>
      <trkpt lat="44.81244" lon="5.74143">
        <ele>748</ele>
        <time>2017-11-22T20:17:48Z</time>
      </trkpt>
      <trkpt lat="44.81254" lon="5.74156">
        <ele>745</ele>
        <time>2017-11-22T20:18:04Z</time>
      </trkpt>
      <trkpt lat="44.81265" lon="5.74179">
        <ele>746</ele>
        <time>2017-11-22T20:18:18Z</time>
      </trkpt>
      <trkpt lat="44.81272" lon="5.74203">
        <ele>746</ele>
        <time>2017-11-22T20:18:37Z</time>
      </trkpt>
      <trkpt lat="44.81279" lon="5.74227">
        <ele>746</ele>
        <time>2017-11-22T20:18:56Z</time>
      </trkpt>
      <trkpt lat="44.81284" lon="5.74242">
        <ele>746</ele>
        <time>2017-11-22T20:19:16Z</time>
      </trkpt>
      <trkpt lat="44.81288" lon="5.74245">
        <ele>746</ele>
        <time>2017-11-22T20:19:22Z</time>
      </trkpt>
      <trkpt lat="44.81297" lon="5.74244">
        <ele>746</ele>
        <time>2017-11-22T20:19:25Z</time>
      </trkpt>
      <trkpt lat="44.81312" lon="5.74267">
        <ele>748</ele>
        <time>2017-11-22T20:19:44Z</time>
      </trkpt>
      <trkpt lat="44.81336" lon="5.74288">
        <ele>748</ele>
        <time>2017-11-22T20:19:47Z</time>
      </trkpt>
      <trkpt lat="44.81383" lon="5.74319">
        <ele>749</ele>
        <time>2017-11-22T20:19:50Z</time>
      </trkpt>
      <trkpt lat="44.81506" lon="5.74394">
        <ele>753</ele>
        <time>2017-11-22T20:19:55Z</time>
      </trkpt>
      <trkpt lat="44.81603" lon="5.7445">
        <ele>757</ele>
        <time>2017-11-22T20:20:03Z</time>
      </trkpt>
      <trkpt lat="44.8162" lon="5.74464">
        <ele>758</ele>
        <time>2017-11-22T20:20:22Z</time>
      </trkpt>
      <trkpt lat="44.81641" lon="5.74498">
        <ele>758</ele>
        <time>2017-11-22T20:20:25Z</time>
      </trkpt>
      <trkpt lat="44.81652" lon="5.74646">
        <ele>765</ele>
        <time>2017-11-22T20:20:39Z</time>
      </trkpt>
      <trkpt lat="44.81666" lon="5.74786">
        <ele>769</ele>
        <time>2017-11-22T20:20:50Z</time>
      </trkpt>
      <trkpt lat="44.81671" lon="5.74864">
        <ele>770</ele>
        <time>2017-11-22T20:21:06Z</time>
      </trkpt>
      <trkpt lat="44.81685" lon="5.75025">
        <ele>777</ele>
        <time>2017-11-22T20:21:22Z</time>
      </trkpt>
      <trkpt lat="44.81688" lon="5.75042">
        <ele>777</ele>
        <time>2017-11-22T20:21:29Z</time>
      </trkpt>
      <trkpt lat="44.81694" lon="5.75056">
        <ele>778</ele>
        <time>2017-11-22T20:21:37Z</time>
      </trkpt>
    </trkseg>
  </trk>
</gpx>